<?xml version="1.0" encoding="UTF-8" standalone="no" ?><gpx xmlns="http://www.topografix.com/GPX/1/1" xmlns:gpxx="http://www.garmin.com/xmlschemas/GpxExtensions/v3" xmlns:wptx1="http://www.garmin.com/xmlschemas/WaypointExtension/v1" xmlns:gpxtpx="http://www.garmin.com/xmlschemas/TrackPointExtension/v1" creator="GuideVTT.com" version="1.1" xmlns:xsi="http://www.w3.org/2001/XMLSchema-instance" xsi:schemaLocation="http://www.topografix.com/GPX/1/1 http://www.topografix.com/GPX/1/1/gpx.xsd http://www.garmin.com/xmlschemas/GpxExtensions/v3 http://www8.garmin.com/xmlschemas/GpxExtensionsv3.xsd http://www.garmin.com/xmlschemas/WaypointExtension/v1 http://www8.garmin.com/xmlschemas/WaypointExtensionv1.xsd http://www.garmin.com/xmlschemas/TrackPointExtension/v1 http://www.garmin.com/xmlschemas/TrackPointExtensionv1.xsd">
<metadata><link href="http://www.garmin.com"><text>Garmin International</text></link><time>2013-06-22T15:13:50Z</time></metadata>
<trk><name>jeanracine_csv.gpx</name><extensions><gpxx:TrackExtension><gpxx:DisplayColor>Cyan</gpxx:DisplayColor></gpxx:TrackExtension></extensions><trkseg>
<trkpt lat="20090426" lon="063701"><ele></ele><time>2014-5-13T23:9:49Z</time></trkpt>
<trkpt lat="20090426" lon="063705"><ele></ele><time>2014-5-13T23:9:52Z</time></trkpt>
<trkpt lat="20090426" lon="063713"><ele></ele><time>2014-5-13T23:9:55Z</time></trkpt>
<trkpt lat="20090426" lon="063720"><ele></ele><time>2014-5-13T23:9:58Z</time></trkpt>
<trkpt lat="20090426" lon="063724"><ele></ele><time>2014-5-13T23:10:1Z</time></trkpt>
<trkpt lat="20090426" lon="063725"><ele></ele><time>2014-5-13T23:10:4Z</time></trkpt>
<trkpt lat="20090426" lon="063726"><ele></ele><time>2014-5-13T23:10:7Z</time></trkpt>
<trkpt lat="20090426" lon="063730"><ele></ele><time>2014-5-13T23:10:10Z</time></trkpt>
<trkpt lat="20090426" lon="063736"><ele></ele><time>2014-5-13T23:10:13Z</time></trkpt>
<trkpt lat="20090426" lon="063745"><ele></ele><time>2014-5-13T23:10:16Z</time></trkpt>
<trkpt lat="20090426" lon="063752"><ele></ele><time>2014-5-13T23:10:19Z</time></trkpt>
<trkpt lat="20090426" lon="063759"><ele></ele><time>2014-5-13T23:10:22Z</time></trkpt>
<trkpt lat="20090426" lon="063804"><ele></ele><time>2014-5-13T23:10:25Z</time></trkpt>
<trkpt lat="20090426" lon="063810"><ele></ele><time>2014-5-13T23:10:28Z</time></trkpt>
<trkpt lat="20090426" lon="063820"><ele></ele><time>2014-5-13T23:10:31Z</time></trkpt>
<trkpt lat="20090426" lon="063828"><ele></ele><time>2014-5-13T23:10:34Z</time></trkpt>
<trkpt lat="20090426" lon="063835"><ele></ele><time>2014-5-13T23:10:37Z</time></trkpt>
<trkpt lat="20090426" lon="063846"><ele></ele><time>2014-5-13T23:10:40Z</time></trkpt>
<trkpt lat="20090426" lon="063900"><ele></ele><time>2014-5-13T23:10:43Z</time></trkpt>
<trkpt lat="20090426" lon="063916"><ele></ele><time>2014-5-13T23:10:46Z</time></trkpt>
<trkpt lat="20090426" lon="063932"><ele></ele><time>2014-5-13T23:10:49Z</time></trkpt>
<trkpt lat="20090426" lon="063948"><ele></ele><time>2014-5-13T23:10:52Z</time></trkpt>
<trkpt lat="20090426" lon="063957"><ele></ele><time>2014-5-13T23:10:55Z</time></trkpt>
<trkpt lat="20090426" lon="064013"><ele></ele><time>2014-5-13T23:10:58Z</time></trkpt>
<trkpt lat="20090426" lon="064027"><ele></ele><time>2014-5-13T23:11:1Z</time></trkpt>
<trkpt lat="20090426" lon="064042"><ele></ele><time>2014-5-13T23:11:4Z</time></trkpt>
<trkpt lat="20090426" lon="064055"><ele></ele><time>2014-5-13T23:11:7Z</time></trkpt>
<trkpt lat="20090426" lon="064106"><ele></ele><time>2014-5-13T23:11:10Z</time></trkpt>
<trkpt lat="20090426" lon="064113"><ele></ele><time>2014-5-13T23:11:13Z</time></trkpt>
<trkpt lat="20090426" lon="064118"><ele></ele><time>2014-5-13T23:11:16Z</time></trkpt>
<trkpt lat="20090426" lon="064120"><ele></ele><time>2014-5-13T23:11:19Z</time></trkpt>
<trkpt lat="20090426" lon="064123"><ele></ele><time>2014-5-13T23:11:22Z</time></trkpt>
<trkpt lat="20090426" lon="064125"><ele></ele><time>2014-5-13T23:11:25Z</time></trkpt>
<trkpt lat="20090426" lon="064130"><ele></ele><time>2014-5-13T23:11:28Z</time></trkpt>
<trkpt lat="20090426" lon="064139"><ele></ele><time>2014-5-13T23:11:31Z</time></trkpt>
<trkpt lat="20090426" lon="064152"><ele></ele><time>2014-5-13T23:11:34Z</time></trkpt>
<trkpt lat="20090426" lon="064201"><ele></ele><time>2014-5-13T23:11:37Z</time></trkpt>
<trkpt lat="20090426" lon="064205"><ele></ele><time>2014-5-13T23:11:40Z</time></trkpt>
<trkpt lat="20090426" lon="064209"><ele></ele><time>2014-5-13T23:11:43Z</time></trkpt>
<trkpt lat="20090426" lon="064222"><ele></ele><time>2014-5-13T23:11:46Z</time></trkpt>
<trkpt lat="20090426" lon="064229"><ele></ele><time>2014-5-13T23:11:49Z</time></trkpt>
<trkpt lat="20090426" lon="064239"><ele></ele><time>2014-5-13T23:11:52Z</time></trkpt>
<trkpt lat="20090426" lon="064243"><ele></ele><time>2014-5-13T23:11:55Z</time></trkpt>
<trkpt lat="20090426" lon="064253"><ele></ele><time>2014-5-13T23:11:58Z</time></trkpt>
<trkpt lat="20090426" lon="064257"><ele></ele><time>2014-5-13T23:12:1Z</time></trkpt>
<trkpt lat="20090426" lon="064313"><ele></ele><time>2014-5-13T23:12:4Z</time></trkpt>
<trkpt lat="20090426" lon="064316"><ele></ele><time>2014-5-13T23:12:7Z</time></trkpt>
<trkpt lat="20090426" lon="064321"><ele></ele><time>2014-5-13T23:12:10Z</time></trkpt>
<trkpt lat="20090426" lon="064325"><ele></ele><time>2014-5-13T23:12:13Z</time></trkpt>
<trkpt lat="20090426" lon="064331"><ele></ele><time>2014-5-13T23:12:16Z</time></trkpt>
<trkpt lat="20090426" lon="064345"><ele></ele><time>2014-5-13T23:12:19Z</time></trkpt>
<trkpt lat="20090426" lon="064351"><ele></ele><time>2014-5-13T23:12:22Z</time></trkpt>
<trkpt lat="20090426" lon="064355"><ele></ele><time>2014-5-13T23:12:25Z</time></trkpt>
<trkpt lat="20090426" lon="064404"><ele></ele><time>2014-5-13T23:12:28Z</time></trkpt>
<trkpt lat="20090426" lon="064408"><ele></ele><time>2014-5-13T23:12:31Z</time></trkpt>
<trkpt lat="20090426" lon="064420"><ele></ele><time>2014-5-13T23:12:34Z</time></trkpt>
<trkpt lat="20090426" lon="064436"><ele></ele><time>2014-5-13T23:12:37Z</time></trkpt>
<trkpt lat="20090426" lon="064444"><ele></ele><time>2014-5-13T23:12:40Z</time></trkpt>
<trkpt lat="20090426" lon="064448"><ele></ele><time>2014-5-13T23:12:43Z</time></trkpt>
<trkpt lat="20090426" lon="064454"><ele></ele><time>2014-5-13T23:12:46Z</time></trkpt>
<trkpt lat="20090426" lon="064459"><ele></ele><time>2014-5-13T23:12:49Z</time></trkpt>
<trkpt lat="20090426" lon="064511"><ele></ele><time>2014-5-13T23:12:52Z</time></trkpt>
<trkpt lat="20090426" lon="064524"><ele></ele><time>2014-5-13T23:12:55Z</time></trkpt>
<trkpt lat="20090426" lon="064529"><ele></ele><time>2014-5-13T23:12:58Z</time></trkpt>
<trkpt lat="20090426" lon="064536"><ele></ele><time>2014-5-13T23:13:1Z</time></trkpt>
<trkpt lat="20090426" lon="064541"><ele></ele><time>2014-5-13T23:13:4Z</time></trkpt>
<trkpt lat="20090426" lon="064549"><ele></ele><time>2014-5-13T23:13:7Z</time></trkpt>
<trkpt lat="20090426" lon="064556"><ele></ele><time>2014-5-13T23:13:10Z</time></trkpt>
<trkpt lat="20090426" lon="064600"><ele></ele><time>2014-5-13T23:13:13Z</time></trkpt>
<trkpt lat="20090426" lon="064604"><ele></ele><time>2014-5-13T23:13:16Z</time></trkpt>
<trkpt lat="20090426" lon="064606"><ele></ele><time>2014-5-13T23:13:19Z</time></trkpt>
<trkpt lat="20090426" lon="064610"><ele></ele><time>2014-5-13T23:13:22Z</time></trkpt>
<trkpt lat="20090426" lon="064616"><ele></ele><time>2014-5-13T23:13:25Z</time></trkpt>
<trkpt lat="20090426" lon="064627"><ele></ele><time>2014-5-13T23:13:28Z</time></trkpt>
<trkpt lat="20090426" lon="064637"><ele></ele><time>2014-5-13T23:13:31Z</time></trkpt>
<trkpt lat="20090426" lon="064643"><ele></ele><time>2014-5-13T23:13:34Z</time></trkpt>
<trkpt lat="20090426" lon="064653"><ele></ele><time>2014-5-13T23:13:37Z</time></trkpt>
<trkpt lat="20090426" lon="064654"><ele></ele><time>2014-5-13T23:13:40Z</time></trkpt>
<trkpt lat="20090426" lon="064658"><ele></ele><time>2014-5-13T23:13:43Z</time></trkpt>
<trkpt lat="20090426" lon="064707"><ele></ele><time>2014-5-13T23:13:46Z</time></trkpt>
<trkpt lat="20090426" lon="064716"><ele></ele><time>2014-5-13T23:13:49Z</time></trkpt>
<trkpt lat="20090426" lon="064724"><ele></ele><time>2014-5-13T23:13:52Z</time></trkpt>
<trkpt lat="20090426" lon="064727"><ele></ele><time>2014-5-13T23:13:55Z</time></trkpt>
<trkpt lat="20090426" lon="064734"><ele></ele><time>2014-5-13T23:13:58Z</time></trkpt>
<trkpt lat="20090426" lon="064736"><ele></ele><time>2014-5-13T23:14:1Z</time></trkpt>
<trkpt lat="20090426" lon="064738"><ele></ele><time>2014-5-13T23:14:4Z</time></trkpt>
<trkpt lat="20090426" lon="064742"><ele></ele><time>2014-5-13T23:14:7Z</time></trkpt>
<trkpt lat="20090426" lon="064748"><ele></ele><time>2014-5-13T23:14:10Z</time></trkpt>
<trkpt lat="20090426" lon="064749"><ele></ele><time>2014-5-13T23:14:13Z</time></trkpt>
<trkpt lat="20090426" lon="064754"><ele></ele><time>2014-5-13T23:14:16Z</time></trkpt>
<trkpt lat="20090426" lon="064802"><ele></ele><time>2014-5-13T23:14:19Z</time></trkpt>
<trkpt lat="20090426" lon="064804"><ele></ele><time>2014-5-13T23:14:22Z</time></trkpt>
<trkpt lat="20090426" lon="064808"><ele></ele><time>2014-5-13T23:14:25Z</time></trkpt>
<trkpt lat="20090426" lon="064815"><ele></ele><time>2014-5-13T23:14:28Z</time></trkpt>
<trkpt lat="20090426" lon="064826"><ele></ele><time>2014-5-13T23:14:31Z</time></trkpt>
<trkpt lat="20090426" lon="064829"><ele></ele><time>2014-5-13T23:14:34Z</time></trkpt>
<trkpt lat="20090426" lon="064834"><ele></ele><time>2014-5-13T23:14:37Z</time></trkpt>
<trkpt lat="20090426" lon="064838"><ele></ele><time>2014-5-13T23:14:40Z</time></trkpt>
<trkpt lat="20090426" lon="064842"><ele></ele><time>2014-5-13T23:14:43Z</time></trkpt>
<trkpt lat="20090426" lon="064852"><ele></ele><time>2014-5-13T23:14:46Z</time></trkpt>
<trkpt lat="20090426" lon="064858"><ele></ele><time>2014-5-13T23:14:49Z</time></trkpt>
<trkpt lat="20090426" lon="064906"><ele></ele><time>2014-5-13T23:14:52Z</time></trkpt>
<trkpt lat="20090426" lon="064910"><ele></ele><time>2014-5-13T23:14:55Z</time></trkpt>
<trkpt lat="20090426" lon="064920"><ele></ele><time>2014-5-13T23:14:58Z</time></trkpt>
<trkpt lat="20090426" lon="064924"><ele></ele><time>2014-5-13T23:15:1Z</time></trkpt>
<trkpt lat="20090426" lon="064930"><ele></ele><time>2014-5-13T23:15:4Z</time></trkpt>
<trkpt lat="20090426" lon="064941"><ele></ele><time>2014-5-13T23:15:7Z</time></trkpt>
<trkpt lat="20090426" lon="064950"><ele></ele><time>2014-5-13T23:15:10Z</time></trkpt>
<trkpt lat="20090426" lon="064951"><ele></ele><time>2014-5-13T23:15:13Z</time></trkpt>
<trkpt lat="20090426" lon="064955"><ele></ele><time>2014-5-13T23:15:16Z</time></trkpt>
<trkpt lat="20090426" lon="065013"><ele></ele><time>2014-5-13T23:15:19Z</time></trkpt>
<trkpt lat="20090426" lon="065016"><ele></ele><time>2014-5-13T23:15:22Z</time></trkpt>
<trkpt lat="20090426" lon="065023"><ele></ele><time>2014-5-13T23:15:25Z</time></trkpt>
<trkpt lat="20090426" lon="065027"><ele></ele><time>2014-5-13T23:15:28Z</time></trkpt>
<trkpt lat="20090426" lon="065036"><ele></ele><time>2014-5-13T23:15:31Z</time></trkpt>
<trkpt lat="20090426" lon="065050"><ele></ele><time>2014-5-13T23:15:34Z</time></trkpt>
<trkpt lat="20090426" lon="065059"><ele></ele><time>2014-5-13T23:15:37Z</time></trkpt>
<trkpt lat="20090426" lon="065109"><ele></ele><time>2014-5-13T23:15:40Z</time></trkpt>
<trkpt lat="20090426" lon="065110"><ele></ele><time>2014-5-13T23:15:43Z</time></trkpt>
<trkpt lat="20090426" lon="065114"><ele></ele><time>2014-5-13T23:15:46Z</time></trkpt>
<trkpt lat="20090426" lon="065116"><ele></ele><time>2014-5-13T23:15:49Z</time></trkpt>
<trkpt lat="20090426" lon="065120"><ele></ele><time>2014-5-13T23:15:52Z</time></trkpt>
<trkpt lat="20090426" lon="065122"><ele></ele><time>2014-5-13T23:15:55Z</time></trkpt>
<trkpt lat="20090426" lon="065126"><ele></ele><time>2014-5-13T23:15:58Z</time></trkpt>
<trkpt lat="20090426" lon="065131"><ele></ele><time>2014-5-13T23:16:1Z</time></trkpt>
<trkpt lat="20090426" lon="065136"><ele></ele><time>2014-5-13T23:16:4Z</time></trkpt>
<trkpt lat="20090426" lon="065138"><ele></ele><time>2014-5-13T23:16:7Z</time></trkpt>
<trkpt lat="20090426" lon="065142"><ele></ele><time>2014-5-13T23:16:10Z</time></trkpt>
<trkpt lat="20090426" lon="065147"><ele></ele><time>2014-5-13T23:16:13Z</time></trkpt>
<trkpt lat="20090426" lon="065150"><ele></ele><time>2014-5-13T23:16:16Z</time></trkpt>
<trkpt lat="20090426" lon="065157"><ele></ele><time>2014-5-13T23:16:19Z</time></trkpt>
<trkpt lat="20090426" lon="065159"><ele></ele><time>2014-5-13T23:16:22Z</time></trkpt>
<trkpt lat="20090426" lon="065203"><ele></ele><time>2014-5-13T23:16:25Z</time></trkpt>
<trkpt lat="20090426" lon="065206"><ele></ele><time>2014-5-13T23:16:28Z</time></trkpt>
<trkpt lat="20090426" lon="065209"><ele></ele><time>2014-5-13T23:16:31Z</time></trkpt>
<trkpt lat="20090426" lon="065214"><ele></ele><time>2014-5-13T23:16:34Z</time></trkpt>
<trkpt lat="20090426" lon="065216"><ele></ele><time>2014-5-13T23:16:37Z</time></trkpt>
<trkpt lat="20090426" lon="065218"><ele></ele><time>2014-5-13T23:16:40Z</time></trkpt>
<trkpt lat="20090426" lon="065220"><ele></ele><time>2014-5-13T23:16:43Z</time></trkpt>
<trkpt lat="20090426" lon="065223"><ele></ele><time>2014-5-13T23:16:46Z</time></trkpt>
<trkpt lat="20090426" lon="065226"><ele></ele><time>2014-5-13T23:16:49Z</time></trkpt>
<trkpt lat="20090426" lon="065231"><ele></ele><time>2014-5-13T23:16:52Z</time></trkpt>
<trkpt lat="20090426" lon="065233"><ele></ele><time>2014-5-13T23:16:55Z</time></trkpt>
<trkpt lat="20090426" lon="065236"><ele></ele><time>2014-5-13T23:16:58Z</time></trkpt>
<trkpt lat="20090426" lon="065243"><ele></ele><time>2014-5-13T23:17:1Z</time></trkpt>
<trkpt lat="20090426" lon="065245"><ele></ele><time>2014-5-13T23:17:4Z</time></trkpt>
<trkpt lat="20090426" lon="065250"><ele></ele><time>2014-5-13T23:17:7Z</time></trkpt>
<trkpt lat="20090426" lon="065301"><ele></ele><time>2014-5-13T23:17:10Z</time></trkpt>
<trkpt lat="20090426" lon="065311"><ele></ele><time>2014-5-13T23:17:13Z</time></trkpt>
<trkpt lat="20090426" lon="065321"><ele></ele><time>2014-5-13T23:17:16Z</time></trkpt>
<trkpt lat="20090426" lon="065328"><ele></ele><time>2014-5-13T23:17:19Z</time></trkpt>
<trkpt lat="20090426" lon="065333"><ele></ele><time>2014-5-13T23:17:22Z</time></trkpt>
<trkpt lat="20090426" lon="065335"><ele></ele><time>2014-5-13T23:17:25Z</time></trkpt>
<trkpt lat="20090426" lon="065337"><ele></ele><time>2014-5-13T23:17:28Z</time></trkpt>
<trkpt lat="20090426" lon="065342"><ele></ele><time>2014-5-13T23:17:31Z</time></trkpt>
<trkpt lat="20090426" lon="065346"><ele></ele><time>2014-5-13T23:17:34Z</time></trkpt>
<trkpt lat="20090426" lon="065349"><ele></ele><time>2014-5-13T23:17:37Z</time></trkpt>
<trkpt lat="20090426" lon="065350"><ele></ele><time>2014-5-13T23:17:40Z</time></trkpt>
<trkpt lat="20090426" lon="065355"><ele></ele><time>2014-5-13T23:17:43Z</time></trkpt>
<trkpt lat="20090426" lon="065402"><ele></ele><time>2014-5-13T23:17:46Z</time></trkpt>
<trkpt lat="20090426" lon="065403"><ele></ele><time>2014-5-13T23:17:49Z</time></trkpt>
<trkpt lat="20090426" lon="065437"><ele></ele><time>2014-5-13T23:17:52Z</time></trkpt>
<trkpt lat="20090426" lon="065447"><ele></ele><time>2014-5-13T23:17:55Z</time></trkpt>
<trkpt lat="20090426" lon="065450"><ele></ele><time>2014-5-13T23:17:58Z</time></trkpt>
<trkpt lat="20090426" lon="065454"><ele></ele><time>2014-5-13T23:18:1Z</time></trkpt>
<trkpt lat="20090426" lon="065458"><ele></ele><time>2014-5-13T23:18:4Z</time></trkpt>
<trkpt lat="20090426" lon="065513"><ele></ele><time>2014-5-13T23:18:7Z</time></trkpt>
<trkpt lat="20090426" lon="065522"><ele></ele><time>2014-5-13T23:18:10Z</time></trkpt>
<trkpt lat="20090426" lon="065530"><ele></ele><time>2014-5-13T23:18:13Z</time></trkpt>
<trkpt lat="20090426" lon="065538"><ele></ele><time>2014-5-13T23:18:16Z</time></trkpt>
<trkpt lat="20090426" lon="065551"><ele></ele><time>2014-5-13T23:18:19Z</time></trkpt>
<trkpt lat="20090426" lon="065558"><ele></ele><time>2014-5-13T23:18:22Z</time></trkpt>
<trkpt lat="20090426" lon="065611"><ele></ele><time>2014-5-13T23:18:25Z</time></trkpt>
<trkpt lat="20090426" lon="065620"><ele></ele><time>2014-5-13T23:18:28Z</time></trkpt>
<trkpt lat="20090426" lon="065627"><ele></ele><time>2014-5-13T23:18:31Z</time></trkpt>
<trkpt lat="20090426" lon="065635"><ele></ele><time>2014-5-13T23:18:34Z</time></trkpt>
<trkpt lat="20090426" lon="065636"><ele></ele><time>2014-5-13T23:18:37Z</time></trkpt>
<trkpt lat="20090426" lon="065645"><ele></ele><time>2014-5-13T23:18:40Z</time></trkpt>
<trkpt lat="20090426" lon="065656"><ele></ele><time>2014-5-13T23:18:43Z</time></trkpt>
<trkpt lat="20090426" lon="065659"><ele></ele><time>2014-5-13T23:18:46Z</time></trkpt>
<trkpt lat="20090426" lon="065703"><ele></ele><time>2014-5-13T23:18:49Z</time></trkpt>
<trkpt lat="20090426" lon="065705"><ele></ele><time>2014-5-13T23:18:52Z</time></trkpt>
<trkpt lat="20090426" lon="065709"><ele></ele><time>2014-5-13T23:18:55Z</time></trkpt>
<trkpt lat="20090426" lon="065711"><ele></ele><time>2014-5-13T23:18:58Z</time></trkpt>
<trkpt lat="20090426" lon="065714"><ele></ele><time>2014-5-13T23:19:1Z</time></trkpt>
<trkpt lat="20090426" lon="065719"><ele></ele><time>2014-5-13T23:19:4Z</time></trkpt>
<trkpt lat="20090426" lon="065720"><ele></ele><time>2014-5-13T23:19:7Z</time></trkpt>
<trkpt lat="20090426" lon="065724"><ele></ele><time>2014-5-13T23:19:10Z</time></trkpt>
<trkpt lat="20090426" lon="065728"><ele></ele><time>2014-5-13T23:19:13Z</time></trkpt>
<trkpt lat="20090426" lon="065735"><ele></ele><time>2014-5-13T23:19:16Z</time></trkpt>
<trkpt lat="20090426" lon="065740"><ele></ele><time>2014-5-13T23:19:19Z</time></trkpt>
<trkpt lat="20090426" lon="065744"><ele></ele><time>2014-5-13T23:19:22Z</time></trkpt>
<trkpt lat="20090426" lon="065748"><ele></ele><time>2014-5-13T23:19:25Z</time></trkpt>
<trkpt lat="20090426" lon="065751"><ele></ele><time>2014-5-13T23:19:28Z</time></trkpt>
<trkpt lat="20090426" lon="065756"><ele></ele><time>2014-5-13T23:19:31Z</time></trkpt>
<trkpt lat="20090426" lon="065801"><ele></ele><time>2014-5-13T23:19:34Z</time></trkpt>
<trkpt lat="20090426" lon="065809"><ele></ele><time>2014-5-13T23:19:37Z</time></trkpt>
<trkpt lat="20090426" lon="065811"><ele></ele><time>2014-5-13T23:19:40Z</time></trkpt>
<trkpt lat="20090426" lon="065813"><ele></ele><time>2014-5-13T23:19:43Z</time></trkpt>
<trkpt lat="20090426" lon="065819"><ele></ele><time>2014-5-13T23:19:46Z</time></trkpt>
<trkpt lat="20090426" lon="065824"><ele></ele><time>2014-5-13T23:19:49Z</time></trkpt>
<trkpt lat="20090426" lon="065829"><ele></ele><time>2014-5-13T23:19:52Z</time></trkpt>
<trkpt lat="20090426" lon="065834"><ele></ele><time>2014-5-13T23:19:55Z</time></trkpt>
<trkpt lat="20090426" lon="065839"><ele></ele><time>2014-5-13T23:19:58Z</time></trkpt>
<trkpt lat="20090426" lon="065841"><ele></ele><time>2014-5-13T23:20:1Z</time></trkpt>
<trkpt lat="20090426" lon="065844"><ele></ele><time>2014-5-13T23:20:4Z</time></trkpt>
<trkpt lat="20090426" lon="065851"><ele></ele><time>2014-5-13T23:20:7Z</time></trkpt>
<trkpt lat="20090426" lon="065856"><ele></ele><time>2014-5-13T23:20:10Z</time></trkpt>
<trkpt lat="20090426" lon="065907"><ele></ele><time>2014-5-13T23:20:13Z</time></trkpt>
<trkpt lat="20090426" lon="065911"><ele></ele><time>2014-5-13T23:20:16Z</time></trkpt>
<trkpt lat="20090426" lon="065919"><ele></ele><time>2014-5-13T23:20:19Z</time></trkpt>
<trkpt lat="20090426" lon="065925"><ele></ele><time>2014-5-13T23:20:22Z</time></trkpt>
<trkpt lat="20090426" lon="065929"><ele></ele><time>2014-5-13T23:20:25Z</time></trkpt>
<trkpt lat="20090426" lon="065933"><ele></ele><time>2014-5-13T23:20:28Z</time></trkpt>
<trkpt lat="20090426" lon="065936"><ele></ele><time>2014-5-13T23:20:31Z</time></trkpt>
<trkpt lat="20090426" lon="065939"><ele></ele><time>2014-5-13T23:20:34Z</time></trkpt>
<trkpt lat="20090426" lon="065943"><ele></ele><time>2014-5-13T23:20:37Z</time></trkpt>
<trkpt lat="20090426" lon="065953"><ele></ele><time>2014-5-13T23:20:40Z</time></trkpt>
<trkpt lat="20090426" lon="065955"><ele></ele><time>2014-5-13T23:20:43Z</time></trkpt>
<trkpt lat="20090426" lon="070003"><ele></ele><time>2014-5-13T23:20:46Z</time></trkpt>
<trkpt lat="20090426" lon="070005"><ele></ele><time>2014-5-13T23:20:49Z</time></trkpt>
<trkpt lat="20090426" lon="070011"><ele></ele><time>2014-5-13T23:20:52Z</time></trkpt>
<trkpt lat="20090426" lon="070013"><ele></ele><time>2014-5-13T23:20:55Z</time></trkpt>
<trkpt lat="20090426" lon="070017"><ele></ele><time>2014-5-13T23:20:58Z</time></trkpt>
<trkpt lat="20090426" lon="070019"><ele></ele><time>2014-5-13T23:21:1Z</time></trkpt>
<trkpt lat="20090426" lon="070022"><ele></ele><time>2014-5-13T23:21:4Z</time></trkpt>
<trkpt lat="20090426" lon="070027"><ele></ele><time>2014-5-13T23:21:7Z</time></trkpt>
<trkpt lat="20090426" lon="070029"><ele></ele><time>2014-5-13T23:21:10Z</time></trkpt>
<trkpt lat="20090426" lon="070033"><ele></ele><time>2014-5-13T23:21:13Z</time></trkpt>
<trkpt lat="20090426" lon="070047"><ele></ele><time>2014-5-13T23:21:16Z</time></trkpt>
<trkpt lat="20090426" lon="070055"><ele></ele><time>2014-5-13T23:21:19Z</time></trkpt>
<trkpt lat="20090426" lon="070057"><ele></ele><time>2014-5-13T23:21:22Z</time></trkpt>
<trkpt lat="20090426" lon="070103"><ele></ele><time>2014-5-13T23:21:25Z</time></trkpt>
<trkpt lat="20090426" lon="070105"><ele></ele><time>2014-5-13T23:21:28Z</time></trkpt>
<trkpt lat="20090426" lon="070110"><ele></ele><time>2014-5-13T23:21:31Z</time></trkpt>
<trkpt lat="20090426" lon="070116"><ele></ele><time>2014-5-13T23:21:34Z</time></trkpt>
<trkpt lat="20090426" lon="070117"><ele></ele><time>2014-5-13T23:21:37Z</time></trkpt>
<trkpt lat="20090426" lon="070119"><ele></ele><time>2014-5-13T23:21:40Z</time></trkpt>
<trkpt lat="20090426" lon="070121"><ele></ele><time>2014-5-13T23:21:43Z</time></trkpt>
<trkpt lat="20090426" lon="070124"><ele></ele><time>2014-5-13T23:21:46Z</time></trkpt>
<trkpt lat="20090426" lon="070129"><ele></ele><time>2014-5-13T23:21:49Z</time></trkpt>
<trkpt lat="20090426" lon="070137"><ele></ele><time>2014-5-13T23:21:52Z</time></trkpt>
<trkpt lat="20090426" lon="070143"><ele></ele><time>2014-5-13T23:21:55Z</time></trkpt>
<trkpt lat="20090426" lon="070149"><ele></ele><time>2014-5-13T23:21:58Z</time></trkpt>
<trkpt lat="20090426" lon="070152"><ele></ele><time>2014-5-13T23:22:1Z</time></trkpt>
<trkpt lat="20090426" lon="070202"><ele></ele><time>2014-5-13T23:22:4Z</time></trkpt>
<trkpt lat="20090426" lon="070210"><ele></ele><time>2014-5-13T23:22:7Z</time></trkpt>
<trkpt lat="20090426" lon="070219"><ele></ele><time>2014-5-13T23:22:10Z</time></trkpt>
<trkpt lat="20090426" lon="070224"><ele></ele><time>2014-5-13T23:22:13Z</time></trkpt>
<trkpt lat="20090426" lon="070233"><ele></ele><time>2014-5-13T23:22:16Z</time></trkpt>
<trkpt lat="20090426" lon="070241"><ele></ele><time>2014-5-13T23:22:19Z</time></trkpt>
<trkpt lat="20090426" lon="070248"><ele></ele><time>2014-5-13T23:22:22Z</time></trkpt>
<trkpt lat="20090426" lon="070256"><ele></ele><time>2014-5-13T23:22:25Z</time></trkpt>
<trkpt lat="20090426" lon="070304"><ele></ele><time>2014-5-13T23:22:28Z</time></trkpt>
<trkpt lat="20090426" lon="070309"><ele></ele><time>2014-5-13T23:22:31Z</time></trkpt>
<trkpt lat="20090426" lon="070314"><ele></ele><time>2014-5-13T23:22:34Z</time></trkpt>
<trkpt lat="20090426" lon="070321"><ele></ele><time>2014-5-13T23:22:37Z</time></trkpt>
<trkpt lat="20090426" lon="070326"><ele></ele><time>2014-5-13T23:22:40Z</time></trkpt>
<trkpt lat="20090426" lon="070335"><ele></ele><time>2014-5-13T23:22:43Z</time></trkpt>
<trkpt lat="20090426" lon="070344"><ele></ele><time>2014-5-13T23:22:46Z</time></trkpt>
<trkpt lat="20090426" lon="070349"><ele></ele><time>2014-5-13T23:22:49Z</time></trkpt>
<trkpt lat="20090426" lon="070401"><ele></ele><time>2014-5-13T23:22:52Z</time></trkpt>
<trkpt lat="20090426" lon="070413"><ele></ele><time>2014-5-13T23:22:55Z</time></trkpt>
<trkpt lat="20090426" lon="070419"><ele></ele><time>2014-5-13T23:22:58Z</time></trkpt>
<trkpt lat="20090426" lon="070428"><ele></ele><time>2014-5-13T23:23:1Z</time></trkpt>
<trkpt lat="20090426" lon="070434"><ele></ele><time>2014-5-13T23:23:4Z</time></trkpt>
<trkpt lat="20090426" lon="070444"><ele></ele><time>2014-5-13T23:23:7Z</time></trkpt>
<trkpt lat="20090426" lon="070452"><ele></ele><time>2014-5-13T23:23:10Z</time></trkpt>
<trkpt lat="20090426" lon="070510"><ele></ele><time>2014-5-13T23:23:13Z</time></trkpt>
<trkpt lat="20090426" lon="070513"><ele></ele><time>2014-5-13T23:23:16Z</time></trkpt>
<trkpt lat="20090426" lon="070516"><ele></ele><time>2014-5-13T23:23:19Z</time></trkpt>
<trkpt lat="20090426" lon="070521"><ele></ele><time>2014-5-13T23:23:22Z</time></trkpt>
<trkpt lat="20090426" lon="070524"><ele></ele><time>2014-5-13T23:23:25Z</time></trkpt>
<trkpt lat="20090426" lon="070528"><ele></ele><time>2014-5-13T23:23:28Z</time></trkpt>
<trkpt lat="20090426" lon="070544"><ele></ele><time>2014-5-13T23:23:31Z</time></trkpt>
<trkpt lat="20090426" lon="070546"><ele></ele><time>2014-5-13T23:23:34Z</time></trkpt>
<trkpt lat="20090426" lon="070554"><ele></ele><time>2014-5-13T23:23:37Z</time></trkpt>
<trkpt lat="20090426" lon="070604"><ele></ele><time>2014-5-13T23:23:40Z</time></trkpt>
<trkpt lat="20090426" lon="070610"><ele></ele><time>2014-5-13T23:23:43Z</time></trkpt>
<trkpt lat="20090426" lon="070631"><ele></ele><time>2014-5-13T23:23:46Z</time></trkpt>
<trkpt lat="20090426" lon="070646"><ele></ele><time>2014-5-13T23:23:49Z</time></trkpt>
<trkpt lat="20090426" lon="070652"><ele></ele><time>2014-5-13T23:23:52Z</time></trkpt>
<trkpt lat="20090426" lon="070654"><ele></ele><time>2014-5-13T23:23:55Z</time></trkpt>
<trkpt lat="20090426" lon="070706"><ele></ele><time>2014-5-13T23:23:58Z</time></trkpt>
<trkpt lat="20090426" lon="070721"><ele></ele><time>2014-5-13T23:24:1Z</time></trkpt>
<trkpt lat="20090426" lon="070727"><ele></ele><time>2014-5-13T23:24:4Z</time></trkpt>
<trkpt lat="20090426" lon="070740"><ele></ele><time>2014-5-13T23:24:7Z</time></trkpt>
<trkpt lat="20090426" lon="070752"><ele></ele><time>2014-5-13T23:24:10Z</time></trkpt>
<trkpt lat="20090426" lon="070754"><ele></ele><time>2014-5-13T23:24:13Z</time></trkpt>
<trkpt lat="20090426" lon="070803"><ele></ele><time>2014-5-13T23:24:16Z</time></trkpt>
<trkpt lat="20090426" lon="070811"><ele></ele><time>2014-5-13T23:24:19Z</time></trkpt>
<trkpt lat="20090426" lon="070820"><ele></ele><time>2014-5-13T23:24:22Z</time></trkpt>
<trkpt lat="20090426" lon="070829"><ele></ele><time>2014-5-13T23:24:25Z</time></trkpt>
<trkpt lat="20090426" lon="070835"><ele></ele><time>2014-5-13T23:24:28Z</time></trkpt>
<trkpt lat="20090426" lon="070844"><ele></ele><time>2014-5-13T23:24:31Z</time></trkpt>
<trkpt lat="20090426" lon="070854"><ele></ele><time>2014-5-13T23:24:34Z</time></trkpt>
<trkpt lat="20090426" lon="070857"><ele></ele><time>2014-5-13T23:24:37Z</time></trkpt>
<trkpt lat="20090426" lon="070900"><ele></ele><time>2014-5-13T23:24:40Z</time></trkpt>
<trkpt lat="20090426" lon="070902"><ele></ele><time>2014-5-13T23:24:43Z</time></trkpt>
<trkpt lat="20090426" lon="070910"><ele></ele><time>2014-5-13T23:24:46Z</time></trkpt>
<trkpt lat="20090426" lon="070914"><ele></ele><time>2014-5-13T23:24:49Z</time></trkpt>
<trkpt lat="20090426" lon="070922"><ele></ele><time>2014-5-13T23:24:52Z</time></trkpt>
<trkpt lat="20090426" lon="070927"><ele></ele><time>2014-5-13T23:24:55Z</time></trkpt>
<trkpt lat="20090426" lon="070930"><ele></ele><time>2014-5-13T23:24:58Z</time></trkpt>
<trkpt lat="20090426" lon="070935"><ele></ele><time>2014-5-13T23:25:1Z</time></trkpt>
<trkpt lat="20090426" lon="070938"><ele></ele><time>2014-5-13T23:25:4Z</time></trkpt>
<trkpt lat="20090426" lon="070945"><ele></ele><time>2014-5-13T23:25:7Z</time></trkpt>
<trkpt lat="20090426" lon="070947"><ele></ele><time>2014-5-13T23:25:10Z</time></trkpt>
<trkpt lat="20090426" lon="070952"><ele></ele><time>2014-5-13T23:25:13Z</time></trkpt>
<trkpt lat="20090426" lon="071000"><ele></ele><time>2014-5-13T23:25:16Z</time></trkpt>
<trkpt lat="20090426" lon="071005"><ele></ele><time>2014-5-13T23:25:19Z</time></trkpt>
<trkpt lat="20090426" lon="071007"><ele></ele><time>2014-5-13T23:25:22Z</time></trkpt>
<trkpt lat="20090426" lon="071008"><ele></ele><time>2014-5-13T23:25:25Z</time></trkpt>
<trkpt lat="20090426" lon="071013"><ele></ele><time>2014-5-13T23:25:28Z</time></trkpt>
<trkpt lat="20090426" lon="071015"><ele></ele><time>2014-5-13T23:25:31Z</time></trkpt>
<trkpt lat="20090426" lon="071021"><ele></ele><time>2014-5-13T23:25:34Z</time></trkpt>
<trkpt lat="20090426" lon="071022"><ele></ele><time>2014-5-13T23:25:37Z</time></trkpt>
<trkpt lat="20090426" lon="071027"><ele></ele><time>2014-5-13T23:25:40Z</time></trkpt>
<trkpt lat="20090426" lon="071028"><ele></ele><time>2014-5-13T23:25:43Z</time></trkpt>
<trkpt lat="20090426" lon="071030"><ele></ele><time>2014-5-13T23:25:46Z</time></trkpt>
<trkpt lat="20090426" lon="071032"><ele></ele><time>2014-5-13T23:25:49Z</time></trkpt>
<trkpt lat="20090426" lon="071036"><ele></ele><time>2014-5-13T23:25:52Z</time></trkpt>
<trkpt lat="20090426" lon="071040"><ele></ele><time>2014-5-13T23:25:55Z</time></trkpt>
<trkpt lat="20090426" lon="071043"><ele></ele><time>2014-5-13T23:25:58Z</time></trkpt>
<trkpt lat="20090426" lon="071053"><ele></ele><time>2014-5-13T23:26:1Z</time></trkpt>
<trkpt lat="20090426" lon="071056"><ele></ele><time>2014-5-13T23:26:4Z</time></trkpt>
<trkpt lat="20090426" lon="071102"><ele></ele><time>2014-5-13T23:26:7Z</time></trkpt>
<trkpt lat="20090426" lon="071106"><ele></ele><time>2014-5-13T23:26:10Z</time></trkpt>
<trkpt lat="20090426" lon="071109"><ele></ele><time>2014-5-13T23:26:13Z</time></trkpt>
<trkpt lat="20090426" lon="071117"><ele></ele><time>2014-5-13T23:26:16Z</time></trkpt>
<trkpt lat="20090426" lon="071121"><ele></ele><time>2014-5-13T23:26:19Z</time></trkpt>
<trkpt lat="20090426" lon="071126"><ele></ele><time>2014-5-13T23:26:22Z</time></trkpt>
<trkpt lat="20090426" lon="071128"><ele></ele><time>2014-5-13T23:26:25Z</time></trkpt>
<trkpt lat="20090426" lon="071134"><ele></ele><time>2014-5-13T23:26:28Z</time></trkpt>
<trkpt lat="20090426" lon="071141"><ele></ele><time>2014-5-13T23:26:31Z</time></trkpt>
<trkpt lat="20090426" lon="071144"><ele></ele><time>2014-5-13T23:26:34Z</time></trkpt>
<trkpt lat="20090426" lon="071150"><ele></ele><time>2014-5-13T23:26:37Z</time></trkpt>
<trkpt lat="20090426" lon="071152"><ele></ele><time>2014-5-13T23:26:40Z</time></trkpt>
<trkpt lat="20090426" lon="071157"><ele></ele><time>2014-5-13T23:26:43Z</time></trkpt>
<trkpt lat="20090426" lon="071206"><ele></ele><time>2014-5-13T23:26:46Z</time></trkpt>
<trkpt lat="20090426" lon="071214"><ele></ele><time>2014-5-13T23:26:49Z</time></trkpt>
<trkpt lat="20090426" lon="071215"><ele></ele><time>2014-5-13T23:26:52Z</time></trkpt>
<trkpt lat="20090426" lon="071223"><ele></ele><time>2014-5-13T23:26:55Z</time></trkpt>
<trkpt lat="20090426" lon="071231"><ele></ele><time>2014-5-13T23:26:58Z</time></trkpt>
<trkpt lat="20090426" lon="071238"><ele></ele><time>2014-5-13T23:27:1Z</time></trkpt>
<trkpt lat="20090426" lon="071244"><ele></ele><time>2014-5-13T23:27:4Z</time></trkpt>
<trkpt lat="20090426" lon="071248"><ele></ele><time>2014-5-13T23:27:7Z</time></trkpt>
<trkpt lat="20090426" lon="071252"><ele></ele><time>2014-5-13T23:27:10Z</time></trkpt>
<trkpt lat="20090426" lon="071255"><ele></ele><time>2014-5-13T23:27:13Z</time></trkpt>
<trkpt lat="20090426" lon="071300"><ele></ele><time>2014-5-13T23:27:16Z</time></trkpt>
<trkpt lat="20090426" lon="071303"><ele></ele><time>2014-5-13T23:27:19Z</time></trkpt>
<trkpt lat="20090426" lon="071306"><ele></ele><time>2014-5-13T23:27:22Z</time></trkpt>
<trkpt lat="20090426" lon="071313"><ele></ele><time>2014-5-13T23:27:25Z</time></trkpt>
<trkpt lat="20090426" lon="071318"><ele></ele><time>2014-5-13T23:27:28Z</time></trkpt>
<trkpt lat="20090426" lon="071322"><ele></ele><time>2014-5-13T23:27:31Z</time></trkpt>
<trkpt lat="20090426" lon="071329"><ele></ele><time>2014-5-13T23:27:34Z</time></trkpt>
<trkpt lat="20090426" lon="071338"><ele></ele><time>2014-5-13T23:27:37Z</time></trkpt>
<trkpt lat="20090426" lon="071351"><ele></ele><time>2014-5-13T23:27:40Z</time></trkpt>
<trkpt lat="20090426" lon="071358"><ele></ele><time>2014-5-13T23:27:43Z</time></trkpt>
<trkpt lat="20090426" lon="071408"><ele></ele><time>2014-5-13T23:27:46Z</time></trkpt>
<trkpt lat="20090426" lon="071430"><ele></ele><time>2014-5-13T23:27:49Z</time></trkpt>
<trkpt lat="20090426" lon="071444"><ele></ele><time>2014-5-13T23:27:52Z</time></trkpt>
<trkpt lat="20090426" lon="071500"><ele></ele><time>2014-5-13T23:27:55Z</time></trkpt>
<trkpt lat="20090426" lon="071510"><ele></ele><time>2014-5-13T23:27:58Z</time></trkpt>
<trkpt lat="20090426" lon="071520"><ele></ele><time>2014-5-13T23:28:1Z</time></trkpt>
<trkpt lat="20090426" lon="071525"><ele></ele><time>2014-5-13T23:28:4Z</time></trkpt>
<trkpt lat="20090426" lon="071604"><ele></ele><time>2014-5-13T23:28:7Z</time></trkpt>
<trkpt lat="20090426" lon="071619"><ele></ele><time>2014-5-13T23:28:10Z</time></trkpt>
<trkpt lat="20090426" lon="071627"><ele></ele><time>2014-5-13T23:28:13Z</time></trkpt>
<trkpt lat="20090426" lon="071643"><ele></ele><time>2014-5-13T23:28:16Z</time></trkpt>
<trkpt lat="20090426" lon="071653"><ele></ele><time>2014-5-13T23:28:19Z</time></trkpt>
<trkpt lat="20090426" lon="071701"><ele></ele><time>2014-5-13T23:28:22Z</time></trkpt>
<trkpt lat="20090426" lon="071715"><ele></ele><time>2014-5-13T23:28:25Z</time></trkpt>
<trkpt lat="20090426" lon="071716"><ele></ele><time>2014-5-13T23:28:28Z</time></trkpt>
<trkpt lat="20090426" lon="071726"><ele></ele><time>2014-5-13T23:28:31Z</time></trkpt>
<trkpt lat="20090426" lon="071730"><ele></ele><time>2014-5-13T23:28:34Z</time></trkpt>
<trkpt lat="20090426" lon="071733"><ele></ele><time>2014-5-13T23:28:37Z</time></trkpt>
<trkpt lat="20090426" lon="071738"><ele></ele><time>2014-5-13T23:28:40Z</time></trkpt>
<trkpt lat="20090426" lon="071750"><ele></ele><time>2014-5-13T23:28:43Z</time></trkpt>
<trkpt lat="20090426" lon="071759"><ele></ele><time>2014-5-13T23:28:46Z</time></trkpt>
<trkpt lat="20090426" lon="071805"><ele></ele><time>2014-5-13T23:28:49Z</time></trkpt>
<trkpt lat="20090426" lon="071809"><ele></ele><time>2014-5-13T23:28:52Z</time></trkpt>
<trkpt lat="20090426" lon="071821"><ele></ele><time>2014-5-13T23:28:55Z</time></trkpt>
<trkpt lat="20090426" lon="071830"><ele></ele><time>2014-5-13T23:28:58Z</time></trkpt>
<trkpt lat="20090426" lon="071837"><ele></ele><time>2014-5-13T23:29:1Z</time></trkpt>
<trkpt lat="20090426" lon="071848"><ele></ele><time>2014-5-13T23:29:4Z</time></trkpt>
<trkpt lat="20090426" lon="071851"><ele></ele><time>2014-5-13T23:29:7Z</time></trkpt>
<trkpt lat="20090426" lon="071853"><ele></ele><time>2014-5-13T23:29:10Z</time></trkpt>
<trkpt lat="20090426" lon="071857"><ele></ele><time>2014-5-13T23:29:13Z</time></trkpt>
<trkpt lat="20090426" lon="071904"><ele></ele><time>2014-5-13T23:29:16Z</time></trkpt>
<trkpt lat="20090426" lon="071905"><ele></ele><time>2014-5-13T23:29:19Z</time></trkpt>
<trkpt lat="20090426" lon="071912"><ele></ele><time>2014-5-13T23:29:22Z</time></trkpt>
<trkpt lat="20090426" lon="071916"><ele></ele><time>2014-5-13T23:29:25Z</time></trkpt>
<trkpt lat="20090426" lon="071922"><ele></ele><time>2014-5-13T23:29:28Z</time></trkpt>
<trkpt lat="20090426" lon="071924"><ele></ele><time>2014-5-13T23:29:31Z</time></trkpt>
<trkpt lat="20090426" lon="071926"><ele></ele><time>2014-5-13T23:29:34Z</time></trkpt>
<trkpt lat="20090426" lon="071931"><ele></ele><time>2014-5-13T23:29:37Z</time></trkpt>
<trkpt lat="20090426" lon="071939"><ele></ele><time>2014-5-13T23:29:40Z</time></trkpt>
<trkpt lat="20090426" lon="071950"><ele></ele><time>2014-5-13T23:29:43Z</time></trkpt>
<trkpt lat="20090426" lon="071956"><ele></ele><time>2014-5-13T23:29:46Z</time></trkpt>
<trkpt lat="20090426" lon="072006"><ele></ele><time>2014-5-13T23:29:49Z</time></trkpt>
<trkpt lat="20090426" lon="072014"><ele></ele><time>2014-5-13T23:29:52Z</time></trkpt>
<trkpt lat="20090426" lon="072022"><ele></ele><time>2014-5-13T23:29:55Z</time></trkpt>
<trkpt lat="20090426" lon="072031"><ele></ele><time>2014-5-13T23:29:58Z</time></trkpt>
<trkpt lat="20090426" lon="072036"><ele></ele><time>2014-5-13T23:30:1Z</time></trkpt>
<trkpt lat="20090426" lon="072041"><ele></ele><time>2014-5-13T23:30:4Z</time></trkpt>
<trkpt lat="20090426" lon="072045"><ele></ele><time>2014-5-13T23:30:7Z</time></trkpt>
<trkpt lat="20090426" lon="072050"><ele></ele><time>2014-5-13T23:30:10Z</time></trkpt>
<trkpt lat="20090426" lon="072052"><ele></ele><time>2014-5-13T23:30:13Z</time></trkpt>
<trkpt lat="20090426" lon="072100"><ele></ele><time>2014-5-13T23:30:16Z</time></trkpt>
<trkpt lat="20090426" lon="072104"><ele></ele><time>2014-5-13T23:30:19Z</time></trkpt>
<trkpt lat="20090426" lon="072111"><ele></ele><time>2014-5-13T23:30:22Z</time></trkpt>
<trkpt lat="20090426" lon="072114"><ele></ele><time>2014-5-13T23:30:25Z</time></trkpt>
<trkpt lat="20090426" lon="072116"><ele></ele><time>2014-5-13T23:30:28Z</time></trkpt>
<trkpt lat="20090426" lon="072137"><ele></ele><time>2014-5-13T23:30:31Z</time></trkpt>
<trkpt lat="20090426" lon="072147"><ele></ele><time>2014-5-13T23:30:34Z</time></trkpt>
<trkpt lat="20090426" lon="072153"><ele></ele><time>2014-5-13T23:30:37Z</time></trkpt>
<trkpt lat="20090426" lon="072158"><ele></ele><time>2014-5-13T23:30:40Z</time></trkpt>
<trkpt lat="20090426" lon="072203"><ele></ele><time>2014-5-13T23:30:43Z</time></trkpt>
<trkpt lat="20090426" lon="072213"><ele></ele><time>2014-5-13T23:30:46Z</time></trkpt>
<trkpt lat="20090426" lon="072219"><ele></ele><time>2014-5-13T23:30:49Z</time></trkpt>
<trkpt lat="20090426" lon="072228"><ele></ele><time>2014-5-13T23:30:52Z</time></trkpt>
<trkpt lat="20090426" lon="072236"><ele></ele><time>2014-5-13T23:30:55Z</time></trkpt>
<trkpt lat="20090426" lon="072250"><ele></ele><time>2014-5-13T23:30:58Z</time></trkpt>
<trkpt lat="20090426" lon="072258"><ele></ele><time>2014-5-13T23:31:1Z</time></trkpt>
<trkpt lat="20090426" lon="072302"><ele></ele><time>2014-5-13T23:31:4Z</time></trkpt>
<trkpt lat="20090426" lon="072307"><ele></ele><time>2014-5-13T23:31:7Z</time></trkpt>
<trkpt lat="20090426" lon="072314"><ele></ele><time>2014-5-13T23:31:10Z</time></trkpt>
<trkpt lat="20090426" lon="072323"><ele></ele><time>2014-5-13T23:31:13Z</time></trkpt>
<trkpt lat="20090426" lon="072327"><ele></ele><time>2014-5-13T23:31:16Z</time></trkpt>
<trkpt lat="20090426" lon="072336"><ele></ele><time>2014-5-13T23:31:19Z</time></trkpt>
<trkpt lat="20090426" lon="072337"><ele></ele><time>2014-5-13T23:31:22Z</time></trkpt>
<trkpt lat="20090426" lon="072344"><ele></ele><time>2014-5-13T23:31:25Z</time></trkpt>
<trkpt lat="20090426" lon="072346"><ele></ele><time>2014-5-13T23:31:28Z</time></trkpt>
<trkpt lat="20090426" lon="072350"><ele></ele><time>2014-5-13T23:31:31Z</time></trkpt>
<trkpt lat="20090426" lon="072353"><ele></ele><time>2014-5-13T23:31:34Z</time></trkpt>
<trkpt lat="20090426" lon="072403"><ele></ele><time>2014-5-13T23:31:37Z</time></trkpt>
<trkpt lat="20090426" lon="072406"><ele></ele><time>2014-5-13T23:31:40Z</time></trkpt>
<trkpt lat="20090426" lon="072413"><ele></ele><time>2014-5-13T23:31:43Z</time></trkpt>
<trkpt lat="20090426" lon="072420"><ele></ele><time>2014-5-13T23:31:46Z</time></trkpt>
<trkpt lat="20090426" lon="072421"><ele></ele><time>2014-5-13T23:31:49Z</time></trkpt>
<trkpt lat="20090426" lon="072432"><ele></ele><time>2014-5-13T23:31:52Z</time></trkpt>
<trkpt lat="20090426" lon="072440"><ele></ele><time>2014-5-13T23:31:55Z</time></trkpt>
<trkpt lat="20090426" lon="072446"><ele></ele><time>2014-5-13T23:31:58Z</time></trkpt>
<trkpt lat="20090426" lon="072456"><ele></ele><time>2014-5-13T23:32:1Z</time></trkpt>
<trkpt lat="20090426" lon="072506"><ele></ele><time>2014-5-13T23:32:4Z</time></trkpt>
<trkpt lat="20090426" lon="072515"><ele></ele><time>2014-5-13T23:32:7Z</time></trkpt>
<trkpt lat="20090426" lon="072525"><ele></ele><time>2014-5-13T23:32:10Z</time></trkpt>
<trkpt lat="20090426" lon="072534"><ele></ele><time>2014-5-13T23:32:13Z</time></trkpt>
<trkpt lat="20090426" lon="072537"><ele></ele><time>2014-5-13T23:32:16Z</time></trkpt>
<trkpt lat="20090426" lon="072542"><ele></ele><time>2014-5-13T23:32:19Z</time></trkpt>
<trkpt lat="20090426" lon="072545"><ele></ele><time>2014-5-13T23:32:22Z</time></trkpt>
<trkpt lat="20090426" lon="072550"><ele></ele><time>2014-5-13T23:32:25Z</time></trkpt>
<trkpt lat="20090426" lon="072557"><ele></ele><time>2014-5-13T23:32:28Z</time></trkpt>
<trkpt lat="20090426" lon="072559"><ele></ele><time>2014-5-13T23:32:31Z</time></trkpt>
<trkpt lat="20090426" lon="072606"><ele></ele><time>2014-5-13T23:32:34Z</time></trkpt>
<trkpt lat="20090426" lon="072611"><ele></ele><time>2014-5-13T23:32:37Z</time></trkpt>
<trkpt lat="20090426" lon="072613"><ele></ele><time>2014-5-13T23:32:40Z</time></trkpt>
<trkpt lat="20090426" lon="072618"><ele></ele><time>2014-5-13T23:32:43Z</time></trkpt>
<trkpt lat="20090426" lon="072622"><ele></ele><time>2014-5-13T23:32:46Z</time></trkpt>
<trkpt lat="20090426" lon="072625"><ele></ele><time>2014-5-13T23:32:49Z</time></trkpt>
<trkpt lat="20090426" lon="072631"><ele></ele><time>2014-5-13T23:32:52Z</time></trkpt>
<trkpt lat="20090426" lon="072633"><ele></ele><time>2014-5-13T23:32:55Z</time></trkpt>
<trkpt lat="20090426" lon="072641"><ele></ele><time>2014-5-13T23:32:58Z</time></trkpt>
<trkpt lat="20090426" lon="072648"><ele></ele><time>2014-5-13T23:33:1Z</time></trkpt>
<trkpt lat="20090426" lon="072655"><ele></ele><time>2014-5-13T23:33:4Z</time></trkpt>
<trkpt lat="20090426" lon="072659"><ele></ele><time>2014-5-13T23:33:7Z</time></trkpt>
<trkpt lat="20090426" lon="072708"><ele></ele><time>2014-5-13T23:33:10Z</time></trkpt>
<trkpt lat="20090426" lon="072716"><ele></ele><time>2014-5-13T23:33:13Z</time></trkpt>
<trkpt lat="20090426" lon="072725"><ele></ele><time>2014-5-13T23:33:16Z</time></trkpt>
<trkpt lat="20090426" lon="072733"><ele></ele><time>2014-5-13T23:33:19Z</time></trkpt>
<trkpt lat="20090426" lon="072742"><ele></ele><time>2014-5-13T23:33:22Z</time></trkpt>
<trkpt lat="20090426" lon="072750"><ele></ele><time>2014-5-13T23:33:25Z</time></trkpt>
<trkpt lat="20090426" lon="072758"><ele></ele><time>2014-5-13T23:33:28Z</time></trkpt>
<trkpt lat="20090426" lon="072807"><ele></ele><time>2014-5-13T23:33:31Z</time></trkpt>
<trkpt lat="20090426" lon="072815"><ele></ele><time>2014-5-13T23:33:34Z</time></trkpt>
<trkpt lat="20090426" lon="072823"><ele></ele><time>2014-5-13T23:33:37Z</time></trkpt>
<trkpt lat="20090426" lon="072828"><ele></ele><time>2014-5-13T23:33:40Z</time></trkpt>
<trkpt lat="20090426" lon="072836"><ele></ele><time>2014-5-13T23:33:43Z</time></trkpt>
<trkpt lat="20090426" lon="072843"><ele></ele><time>2014-5-13T23:33:46Z</time></trkpt>
<trkpt lat="20090426" lon="072850"><ele></ele><time>2014-5-13T23:33:49Z</time></trkpt>
<trkpt lat="20090426" lon="072857"><ele></ele><time>2014-5-13T23:33:52Z</time></trkpt>
<trkpt lat="20090426" lon="072903"><ele></ele><time>2014-5-13T23:33:55Z</time></trkpt>
<trkpt lat="20090426" lon="072910"><ele></ele><time>2014-5-13T23:33:58Z</time></trkpt>
<trkpt lat="20090426" lon="072917"><ele></ele><time>2014-5-13T23:34:1Z</time></trkpt>
<trkpt lat="20090426" lon="072924"><ele></ele><time>2014-5-13T23:34:4Z</time></trkpt>
<trkpt lat="20090426" lon="072927"><ele></ele><time>2014-5-13T23:34:7Z</time></trkpt>
<trkpt lat="20090426" lon="072933"><ele></ele><time>2014-5-13T23:34:10Z</time></trkpt>
<trkpt lat="20090426" lon="072942"><ele></ele><time>2014-5-13T23:34:13Z</time></trkpt>
<trkpt lat="20090426" lon="072950"><ele></ele><time>2014-5-13T23:34:16Z</time></trkpt>
<trkpt lat="20090426" lon="072958"><ele></ele><time>2014-5-13T23:34:19Z</time></trkpt>
<trkpt lat="20090426" lon="073006"><ele></ele><time>2014-5-13T23:34:22Z</time></trkpt>
<trkpt lat="20090426" lon="073014"><ele></ele><time>2014-5-13T23:34:25Z</time></trkpt>
<trkpt lat="20090426" lon="073016"><ele></ele><time>2014-5-13T23:34:28Z</time></trkpt>
<trkpt lat="20090426" lon="073025"><ele></ele><time>2014-5-13T23:34:31Z</time></trkpt>
<trkpt lat="20090426" lon="073027"><ele></ele><time>2014-5-13T23:34:34Z</time></trkpt>
<trkpt lat="20090426" lon="073030"><ele></ele><time>2014-5-13T23:34:37Z</time></trkpt>
<trkpt lat="20090426" lon="073033"><ele></ele><time>2014-5-13T23:34:40Z</time></trkpt>
<trkpt lat="20090426" lon="073036"><ele></ele><time>2014-5-13T23:34:43Z</time></trkpt>
<trkpt lat="20090426" lon="073040"><ele></ele><time>2014-5-13T23:34:46Z</time></trkpt>
<trkpt lat="20090426" lon="073048"><ele></ele><time>2014-5-13T23:34:49Z</time></trkpt>
<trkpt lat="20090426" lon="073055"><ele></ele><time>2014-5-13T23:34:52Z</time></trkpt>
<trkpt lat="20090426" lon="073102"><ele></ele><time>2014-5-13T23:34:55Z</time></trkpt>
<trkpt lat="20090426" lon="073109"><ele></ele><time>2014-5-13T23:34:58Z</time></trkpt>
<trkpt lat="20090426" lon="073116"><ele></ele><time>2014-5-13T23:35:1Z</time></trkpt>
<trkpt lat="20090426" lon="073123"><ele></ele><time>2014-5-13T23:35:4Z</time></trkpt>
<trkpt lat="20090426" lon="073130"><ele></ele><time>2014-5-13T23:35:7Z</time></trkpt>
<trkpt lat="20090426" lon="073135"><ele></ele><time>2014-5-13T23:35:10Z</time></trkpt>
<trkpt lat="20090426" lon="073139"><ele></ele><time>2014-5-13T23:35:13Z</time></trkpt>
<trkpt lat="20090426" lon="073147"><ele></ele><time>2014-5-13T23:35:16Z</time></trkpt>
<trkpt lat="20090426" lon="073154"><ele></ele><time>2014-5-13T23:35:19Z</time></trkpt>
<trkpt lat="20090426" lon="073201"><ele></ele><time>2014-5-13T23:35:22Z</time></trkpt>
<trkpt lat="20090426" lon="073208"><ele></ele><time>2014-5-13T23:35:25Z</time></trkpt>
<trkpt lat="20090426" lon="073215"><ele></ele><time>2014-5-13T23:35:28Z</time></trkpt>
<trkpt lat="20090426" lon="073222"><ele></ele><time>2014-5-13T23:35:31Z</time></trkpt>
<trkpt lat="20090426" lon="073230"><ele></ele><time>2014-5-13T23:35:34Z</time></trkpt>
<trkpt lat="20090426" lon="073237"><ele></ele><time>2014-5-13T23:35:37Z</time></trkpt>
<trkpt lat="20090426" lon="073246"><ele></ele><time>2014-5-13T23:35:40Z</time></trkpt>
<trkpt lat="20090426" lon="073247"><ele></ele><time>2014-5-13T23:35:43Z</time></trkpt>
<trkpt lat="20090426" lon="073256"><ele></ele><time>2014-5-13T23:35:46Z</time></trkpt>
<trkpt lat="20090426" lon="073258"><ele></ele><time>2014-5-13T23:35:49Z</time></trkpt>
<trkpt lat="20090426" lon="073300"><ele></ele><time>2014-5-13T23:35:52Z</time></trkpt>
<trkpt lat="20090426" lon="073308"><ele></ele><time>2014-5-13T23:35:55Z</time></trkpt>
<trkpt lat="20090426" lon="073313"><ele></ele><time>2014-5-13T23:35:58Z</time></trkpt>
<trkpt lat="20090426" lon="073321"><ele></ele><time>2014-5-13T23:36:1Z</time></trkpt>
<trkpt lat="20090426" lon="073327"><ele></ele><time>2014-5-13T23:36:4Z</time></trkpt>
<trkpt lat="20090426" lon="073333"><ele></ele><time>2014-5-13T23:36:7Z</time></trkpt>
<trkpt lat="20090426" lon="073340"><ele></ele><time>2014-5-13T23:36:10Z</time></trkpt>
<trkpt lat="20090426" lon="073347"><ele></ele><time>2014-5-13T23:36:13Z</time></trkpt>
<trkpt lat="20090426" lon="073354"><ele></ele><time>2014-5-13T23:36:16Z</time></trkpt>
<trkpt lat="20090426" lon="073401"><ele></ele><time>2014-5-13T23:36:19Z</time></trkpt>
<trkpt lat="20090426" lon="073408"><ele></ele><time>2014-5-13T23:36:22Z</time></trkpt>
<trkpt lat="20090426" lon="073415"><ele></ele><time>2014-5-13T23:36:25Z</time></trkpt>
<trkpt lat="20090426" lon="073422"><ele></ele><time>2014-5-13T23:36:28Z</time></trkpt>
<trkpt lat="20090426" lon="073429"><ele></ele><time>2014-5-13T23:36:31Z</time></trkpt>
<trkpt lat="20090426" lon="073437"><ele></ele><time>2014-5-13T23:36:34Z</time></trkpt>
<trkpt lat="20090426" lon="073445"><ele></ele><time>2014-5-13T23:36:37Z</time></trkpt>
<trkpt lat="20090426" lon="073453"><ele></ele><time>2014-5-13T23:36:40Z</time></trkpt>
<trkpt lat="20090426" lon="073501"><ele></ele><time>2014-5-13T23:36:43Z</time></trkpt>
<trkpt lat="20090426" lon="073505"><ele></ele><time>2014-5-13T23:36:46Z</time></trkpt>
<trkpt lat="20090426" lon="073514"><ele></ele><time>2014-5-13T23:36:49Z</time></trkpt>
<trkpt lat="20090426" lon="073521"><ele></ele><time>2014-5-13T23:36:52Z</time></trkpt>
<trkpt lat="20090426" lon="073529"><ele></ele><time>2014-5-13T23:36:55Z</time></trkpt>
<trkpt lat="20090426" lon="073537"><ele></ele><time>2014-5-13T23:36:58Z</time></trkpt>
<trkpt lat="20090426" lon="073544"><ele></ele><time>2014-5-13T23:37:1Z</time></trkpt>
<trkpt lat="20090426" lon="073546"><ele></ele><time>2014-5-13T23:37:4Z</time></trkpt>
<trkpt lat="20090426" lon="073548"><ele></ele><time>2014-5-13T23:37:7Z</time></trkpt>
<trkpt lat="20090426" lon="073556"><ele></ele><time>2014-5-13T23:37:10Z</time></trkpt>
<trkpt lat="20090426" lon="073603"><ele></ele><time>2014-5-13T23:37:13Z</time></trkpt>
<trkpt lat="20090426" lon="073610"><ele></ele><time>2014-5-13T23:37:16Z</time></trkpt>
<trkpt lat="20090426" lon="073617"><ele></ele><time>2014-5-13T23:37:19Z</time></trkpt>
<trkpt lat="20090426" lon="073624"><ele></ele><time>2014-5-13T23:37:22Z</time></trkpt>
<trkpt lat="20090426" lon="073631"><ele></ele><time>2014-5-13T23:37:25Z</time></trkpt>
<trkpt lat="20090426" lon="073635"><ele></ele><time>2014-5-13T23:37:28Z</time></trkpt>
<trkpt lat="20090426" lon="073646"><ele></ele><time>2014-5-13T23:37:31Z</time></trkpt>
<trkpt lat="20090426" lon="073656"><ele></ele><time>2014-5-13T23:37:34Z</time></trkpt>
<trkpt lat="20090426" lon="073702"><ele></ele><time>2014-5-13T23:37:37Z</time></trkpt>
<trkpt lat="20090426" lon="073709"><ele></ele><time>2014-5-13T23:37:40Z</time></trkpt>
<trkpt lat="20090426" lon="073715"><ele></ele><time>2014-5-13T23:37:43Z</time></trkpt>
<trkpt lat="20090426" lon="073721"><ele></ele><time>2014-5-13T23:37:46Z</time></trkpt>
<trkpt lat="20090426" lon="073725"><ele></ele><time>2014-5-13T23:37:49Z</time></trkpt>
<trkpt lat="20090426" lon="073732"><ele></ele><time>2014-5-13T23:37:52Z</time></trkpt>
<trkpt lat="20090426" lon="073734"><ele></ele><time>2014-5-13T23:37:55Z</time></trkpt>
<trkpt lat="20090426" lon="073739"><ele></ele><time>2014-5-13T23:37:58Z</time></trkpt>
<trkpt lat="20090426" lon="073743"><ele></ele><time>2014-5-13T23:38:1Z</time></trkpt>
<trkpt lat="20090426" lon="073747"><ele></ele><time>2014-5-13T23:38:4Z</time></trkpt>
<trkpt lat="20090426" lon="073751"><ele></ele><time>2014-5-13T23:38:7Z</time></trkpt>
<trkpt lat="20090426" lon="073758"><ele></ele><time>2014-5-13T23:38:10Z</time></trkpt>
<trkpt lat="20090426" lon="073802"><ele></ele><time>2014-5-13T23:38:13Z</time></trkpt>
<trkpt lat="20090426" lon="073810"><ele></ele><time>2014-5-13T23:38:16Z</time></trkpt>
<trkpt lat="20090426" lon="073816"><ele></ele><time>2014-5-13T23:38:19Z</time></trkpt>
<trkpt lat="20090426" lon="073827"><ele></ele><time>2014-5-13T23:38:22Z</time></trkpt>
<trkpt lat="20090426" lon="073831"><ele></ele><time>2014-5-13T23:38:25Z</time></trkpt>
<trkpt lat="20090426" lon="073834"><ele></ele><time>2014-5-13T23:38:28Z</time></trkpt>
<trkpt lat="20090426" lon="073843"><ele></ele><time>2014-5-13T23:38:31Z</time></trkpt>
<trkpt lat="20090426" lon="073856"><ele></ele><time>2014-5-13T23:38:34Z</time></trkpt>
<trkpt lat="20090426" lon="073904"><ele></ele><time>2014-5-13T23:38:37Z</time></trkpt>
<trkpt lat="20090426" lon="073908"><ele></ele><time>2014-5-13T23:38:40Z</time></trkpt>
<trkpt lat="20090426" lon="073914"><ele></ele><time>2014-5-13T23:38:43Z</time></trkpt>
<trkpt lat="20090426" lon="073921"><ele></ele><time>2014-5-13T23:38:46Z</time></trkpt>
<trkpt lat="20090426" lon="073926"><ele></ele><time>2014-5-13T23:38:49Z</time></trkpt>
<trkpt lat="20090426" lon="073927"><ele></ele><time>2014-5-13T23:38:52Z</time></trkpt>
<trkpt lat="20090426" lon="073934"><ele></ele><time>2014-5-13T23:38:55Z</time></trkpt>
<trkpt lat="20090426" lon="073946"><ele></ele><time>2014-5-13T23:38:58Z</time></trkpt>
<trkpt lat="20090426" lon="073947"><ele></ele><time>2014-5-13T23:39:1Z</time></trkpt>
<trkpt lat="20090426" lon="073953"><ele></ele><time>2014-5-13T23:39:4Z</time></trkpt>
<trkpt lat="20090426" lon="073958"><ele></ele><time>2014-5-13T23:39:7Z</time></trkpt>
<trkpt lat="20090426" lon="073959"><ele></ele><time>2014-5-13T23:39:10Z</time></trkpt>
<trkpt lat="20090426" lon="074007"><ele></ele><time>2014-5-13T23:39:13Z</time></trkpt>
<trkpt lat="20090426" lon="074012"><ele></ele><time>2014-5-13T23:39:16Z</time></trkpt>
<trkpt lat="20090426" lon="074019"><ele></ele><time>2014-5-13T23:39:19Z</time></trkpt>
<trkpt lat="20090426" lon="074029"><ele></ele><time>2014-5-13T23:39:22Z</time></trkpt>
<trkpt lat="20090426" lon="074040"><ele></ele><time>2014-5-13T23:39:25Z</time></trkpt>
<trkpt lat="20090426" lon="074047"><ele></ele><time>2014-5-13T23:39:28Z</time></trkpt>
<trkpt lat="20090426" lon="074054"><ele></ele><time>2014-5-13T23:39:31Z</time></trkpt>
<trkpt lat="20090426" lon="074059"><ele></ele><time>2014-5-13T23:39:34Z</time></trkpt>
<trkpt lat="20090426" lon="074102"><ele></ele><time>2014-5-13T23:39:37Z</time></trkpt>
<trkpt lat="20090426" lon="074107"><ele></ele><time>2014-5-13T23:39:40Z</time></trkpt>
<trkpt lat="20090426" lon="074113"><ele></ele><time>2014-5-13T23:39:43Z</time></trkpt>
<trkpt lat="20090426" lon="074117"><ele></ele><time>2014-5-13T23:39:46Z</time></trkpt>
<trkpt lat="20090426" lon="074125"><ele></ele><time>2014-5-13T23:39:49Z</time></trkpt>
<trkpt lat="20090426" lon="074129"><ele></ele><time>2014-5-13T23:39:52Z</time></trkpt>
<trkpt lat="20090426" lon="074132"><ele></ele><time>2014-5-13T23:39:55Z</time></trkpt>
<trkpt lat="20090426" lon="074140"><ele></ele><time>2014-5-13T23:39:58Z</time></trkpt>
<trkpt lat="20090426" lon="074143"><ele></ele><time>2014-5-13T23:40:1Z</time></trkpt>
<trkpt lat="20090426" lon="074150"><ele></ele><time>2014-5-13T23:40:4Z</time></trkpt>
<trkpt lat="20090426" lon="074158"><ele></ele><time>2014-5-13T23:40:7Z</time></trkpt>
<trkpt lat="20090426" lon="074204"><ele></ele><time>2014-5-13T23:40:10Z</time></trkpt>
<trkpt lat="20090426" lon="074210"><ele></ele><time>2014-5-13T23:40:13Z</time></trkpt>
<trkpt lat="20090426" lon="074214"><ele></ele><time>2014-5-13T23:40:16Z</time></trkpt>
<trkpt lat="20090426" lon="074220"><ele></ele><time>2014-5-13T23:40:19Z</time></trkpt>
<trkpt lat="20090426" lon="074224"><ele></ele><time>2014-5-13T23:40:22Z</time></trkpt>
<trkpt lat="20090426" lon="074232"><ele></ele><time>2014-5-13T23:40:25Z</time></trkpt>
<trkpt lat="20090426" lon="074235"><ele></ele><time>2014-5-13T23:40:28Z</time></trkpt>
<trkpt lat="20090426" lon="074240"><ele></ele><time>2014-5-13T23:40:31Z</time></trkpt>
<trkpt lat="20090426" lon="074245"><ele></ele><time>2014-5-13T23:40:34Z</time></trkpt>
<trkpt lat="20090426" lon="074248"><ele></ele><time>2014-5-13T23:40:37Z</time></trkpt>
<trkpt lat="20090426" lon="074253"><ele></ele><time>2014-5-13T23:40:40Z</time></trkpt>
<trkpt lat="20090426" lon="074258"><ele></ele><time>2014-5-13T23:40:43Z</time></trkpt>
<trkpt lat="20090426" lon="074302"><ele></ele><time>2014-5-13T23:40:46Z</time></trkpt>
<trkpt lat="20090426" lon="074306"><ele></ele><time>2014-5-13T23:40:49Z</time></trkpt>
<trkpt lat="20090426" lon="074311"><ele></ele><time>2014-5-13T23:40:52Z</time></trkpt>
<trkpt lat="20090426" lon="074314"><ele></ele><time>2014-5-13T23:40:55Z</time></trkpt>
<trkpt lat="20090426" lon="074315"><ele></ele><time>2014-5-13T23:40:58Z</time></trkpt>
<trkpt lat="20090426" lon="074318"><ele></ele><time>2014-5-13T23:41:1Z</time></trkpt>
<trkpt lat="20090426" lon="074418"><ele></ele><time>2014-5-13T23:41:4Z</time></trkpt>
<trkpt lat="20090426" lon="074423"><ele></ele><time>2014-5-13T23:41:7Z</time></trkpt>
<trkpt lat="20090426" lon="074434"><ele></ele><time>2014-5-13T23:41:10Z</time></trkpt>
<trkpt lat="20090426" lon="074440"><ele></ele><time>2014-5-13T23:41:13Z</time></trkpt>
<trkpt lat="20090426" lon="074442"><ele></ele><time>2014-5-13T23:41:16Z</time></trkpt>
<trkpt lat="20090426" lon="074457"><ele></ele><time>2014-5-13T23:41:19Z</time></trkpt>
<trkpt lat="20090426" lon="074505"><ele></ele><time>2014-5-13T23:41:22Z</time></trkpt>
<trkpt lat="20090426" lon="074507"><ele></ele><time>2014-5-13T23:41:25Z</time></trkpt>
<trkpt lat="20090426" lon="074509"><ele></ele><time>2014-5-13T23:41:28Z</time></trkpt>
<trkpt lat="20090426" lon="074510"><ele></ele><time>2014-5-13T23:41:31Z</time></trkpt>
<trkpt lat="20090426" lon="074513"><ele></ele><time>2014-5-13T23:41:34Z</time></trkpt>
<trkpt lat="20090426" lon="074523"><ele></ele><time>2014-5-13T23:41:37Z</time></trkpt>
<trkpt lat="20090426" lon="074526"><ele></ele><time>2014-5-13T23:41:40Z</time></trkpt>
<trkpt lat="20090426" lon="074529"><ele></ele><time>2014-5-13T23:41:43Z</time></trkpt>
<trkpt lat="20090426" lon="074531"><ele></ele><time>2014-5-13T23:41:46Z</time></trkpt>
<trkpt lat="20090426" lon="074537"><ele></ele><time>2014-5-13T23:41:49Z</time></trkpt>
<trkpt lat="20090426" lon="074545"><ele></ele><time>2014-5-13T23:41:52Z</time></trkpt>
<trkpt lat="20090426" lon="074553"><ele></ele><time>2014-5-13T23:41:55Z</time></trkpt>
<trkpt lat="20090426" lon="074559"><ele></ele><time>2014-5-13T23:41:58Z</time></trkpt>
<trkpt lat="20090426" lon="074601"><ele></ele><time>2014-5-13T23:42:1Z</time></trkpt>
<trkpt lat="20090426" lon="074624"><ele></ele><time>2014-5-13T23:42:4Z</time></trkpt>
<trkpt lat="20090426" lon="074627"><ele></ele><time>2014-5-13T23:42:7Z</time></trkpt>
<trkpt lat="20090426" lon="074637"><ele></ele><time>2014-5-13T23:42:10Z</time></trkpt>
<trkpt lat="20090426" lon="074640"><ele></ele><time>2014-5-13T23:42:13Z</time></trkpt>
<trkpt lat="20090426" lon="074648"><ele></ele><time>2014-5-13T23:42:16Z</time></trkpt>
<trkpt lat="20090426" lon="074652"><ele></ele><time>2014-5-13T23:42:19Z</time></trkpt>
<trkpt lat="20090426" lon="074657"><ele></ele><time>2014-5-13T23:42:22Z</time></trkpt>
<trkpt lat="20090426" lon="074714"><ele></ele><time>2014-5-13T23:42:25Z</time></trkpt>
<trkpt lat="20090426" lon="074723"><ele></ele><time>2014-5-13T23:42:28Z</time></trkpt>
<trkpt lat="20090426" lon="074729"><ele></ele><time>2014-5-13T23:42:31Z</time></trkpt>
<trkpt lat="20090426" lon="074738"><ele></ele><time>2014-5-13T23:42:34Z</time></trkpt>
<trkpt lat="20090426" lon="074742"><ele></ele><time>2014-5-13T23:42:37Z</time></trkpt>
<trkpt lat="20090426" lon="074750"><ele></ele><time>2014-5-13T23:42:40Z</time></trkpt>
<trkpt lat="20090426" lon="074753"><ele></ele><time>2014-5-13T23:42:43Z</time></trkpt>
<trkpt lat="20090426" lon="074811"><ele></ele><time>2014-5-13T23:42:46Z</time></trkpt>
<trkpt lat="20090426" lon="074834"><ele></ele><time>2014-5-13T23:42:49Z</time></trkpt>
<trkpt lat="20090426" lon="074841"><ele></ele><time>2014-5-13T23:42:52Z</time></trkpt>
<trkpt lat="20090426" lon="074846"><ele></ele><time>2014-5-13T23:42:55Z</time></trkpt>
<trkpt lat="20090426" lon="074851"><ele></ele><time>2014-5-13T23:42:58Z</time></trkpt>
<trkpt lat="20090426" lon="074856"><ele></ele><time>2014-5-13T23:43:1Z</time></trkpt>
<trkpt lat="20090426" lon="074912"><ele></ele><time>2014-5-13T23:43:4Z</time></trkpt>
<trkpt lat="20090426" lon="074916"><ele></ele><time>2014-5-13T23:43:7Z</time></trkpt>
<trkpt lat="20090426" lon="074920"><ele></ele><time>2014-5-13T23:43:10Z</time></trkpt>
<trkpt lat="20090426" lon="074924"><ele></ele><time>2014-5-13T23:43:13Z</time></trkpt>
<trkpt lat="20090426" lon="074938"><ele></ele><time>2014-5-13T23:43:16Z</time></trkpt>
<trkpt lat="20090426" lon="074948"><ele></ele><time>2014-5-13T23:43:19Z</time></trkpt>
<trkpt lat="20090426" lon="074958"><ele></ele><time>2014-5-13T23:43:22Z</time></trkpt>
<trkpt lat="20090426" lon="075009"><ele></ele><time>2014-5-13T23:43:25Z</time></trkpt>
<trkpt lat="20090426" lon="075018"><ele></ele><time>2014-5-13T23:43:28Z</time></trkpt>
<trkpt lat="20090426" lon="075027"><ele></ele><time>2014-5-13T23:43:31Z</time></trkpt>
<trkpt lat="20090426" lon="075031"><ele></ele><time>2014-5-13T23:43:34Z</time></trkpt>
<trkpt lat="20090426" lon="075039"><ele></ele><time>2014-5-13T23:43:37Z</time></trkpt>
<trkpt lat="20090426" lon="075040"><ele></ele><time>2014-5-13T23:43:40Z</time></trkpt>
<trkpt lat="20090426" lon="075045"><ele></ele><time>2014-5-13T23:43:43Z</time></trkpt>
<trkpt lat="20090426" lon="075049"><ele></ele><time>2014-5-13T23:43:46Z</time></trkpt>
<trkpt lat="20090426" lon="075051"><ele></ele><time>2014-5-13T23:43:49Z</time></trkpt>
<trkpt lat="20090426" lon="075056"><ele></ele><time>2014-5-13T23:43:52Z</time></trkpt>
<trkpt lat="20090426" lon="075101"><ele></ele><time>2014-5-13T23:43:55Z</time></trkpt>
<trkpt lat="20090426" lon="075105"><ele></ele><time>2014-5-13T23:43:58Z</time></trkpt>
<trkpt lat="20090426" lon="075108"><ele></ele><time>2014-5-13T23:44:1Z</time></trkpt>
<trkpt lat="20090426" lon="075115"><ele></ele><time>2014-5-13T23:44:4Z</time></trkpt>
<trkpt lat="20090426" lon="075121"><ele></ele><time>2014-5-13T23:44:7Z</time></trkpt>
<trkpt lat="20090426" lon="075129"><ele></ele><time>2014-5-13T23:44:10Z</time></trkpt>
<trkpt lat="20090426" lon="075136"><ele></ele><time>2014-5-13T23:44:13Z</time></trkpt>
<trkpt lat="20090426" lon="075140"><ele></ele><time>2014-5-13T23:44:16Z</time></trkpt>
<trkpt lat="20090426" lon="075142"><ele></ele><time>2014-5-13T23:44:19Z</time></trkpt>
<trkpt lat="20090426" lon="075150"><ele></ele><time>2014-5-13T23:44:22Z</time></trkpt>
<trkpt lat="20090426" lon="075151"><ele></ele><time>2014-5-13T23:44:25Z</time></trkpt>
<trkpt lat="20090426" lon="075159"><ele></ele><time>2014-5-13T23:44:28Z</time></trkpt>
<trkpt lat="20090426" lon="075201"><ele></ele><time>2014-5-13T23:44:31Z</time></trkpt>
<trkpt lat="20090426" lon="075204"><ele></ele><time>2014-5-13T23:44:34Z</time></trkpt>
<trkpt lat="20090426" lon="075208"><ele></ele><time>2014-5-13T23:44:37Z</time></trkpt>
<trkpt lat="20090426" lon="075215"><ele></ele><time>2014-5-13T23:44:40Z</time></trkpt>
<trkpt lat="20090426" lon="075219"><ele></ele><time>2014-5-13T23:44:43Z</time></trkpt>
<trkpt lat="20090426" lon="075225"><ele></ele><time>2014-5-13T23:44:46Z</time></trkpt>
<trkpt lat="20090426" lon="075229"><ele></ele><time>2014-5-13T23:44:49Z</time></trkpt>
<trkpt lat="20090426" lon="075236"><ele></ele><time>2014-5-13T23:44:52Z</time></trkpt>
<trkpt lat="20090426" lon="075239"><ele></ele><time>2014-5-13T23:44:55Z</time></trkpt>
<trkpt lat="20090426" lon="075249"><ele></ele><time>2014-5-13T23:44:58Z</time></trkpt>
<trkpt lat="20090426" lon="075300"><ele></ele><time>2014-5-13T23:45:1Z</time></trkpt>
<trkpt lat="20090426" lon="075311"><ele></ele><time>2014-5-13T23:45:4Z</time></trkpt>
<trkpt lat="20090426" lon="075319"><ele></ele><time>2014-5-13T23:45:7Z</time></trkpt>
<trkpt lat="20090426" lon="075321"><ele></ele><time>2014-5-13T23:45:10Z</time></trkpt>
<trkpt lat="20090426" lon="075325"><ele></ele><time>2014-5-13T23:45:13Z</time></trkpt>
<trkpt lat="20090426" lon="075329"><ele></ele><time>2014-5-13T23:45:16Z</time></trkpt>
<trkpt lat="20090426" lon="075342"><ele></ele><time>2014-5-13T23:45:19Z</time></trkpt>
<trkpt lat="20090426" lon="075347"><ele></ele><time>2014-5-13T23:45:22Z</time></trkpt>
<trkpt lat="20090426" lon="075350"><ele></ele><time>2014-5-13T23:45:25Z</time></trkpt>
<trkpt lat="20090426" lon="075356"><ele></ele><time>2014-5-13T23:45:28Z</time></trkpt>
<trkpt lat="20090426" lon="075404"><ele></ele><time>2014-5-13T23:45:31Z</time></trkpt>
<trkpt lat="20090426" lon="075405"><ele></ele><time>2014-5-13T23:45:34Z</time></trkpt>
<trkpt lat="20090426" lon="075406"><ele></ele><time>2014-5-13T23:45:37Z</time></trkpt>
<trkpt lat="20090426" lon="075412"><ele></ele><time>2014-5-13T23:45:40Z</time></trkpt>
<trkpt lat="20090426" lon="075416"><ele></ele><time>2014-5-13T23:45:43Z</time></trkpt>
<trkpt lat="20090426" lon="075420"><ele></ele><time>2014-5-13T23:45:46Z</time></trkpt>
<trkpt lat="20090426" lon="075434"><ele></ele><time>2014-5-13T23:45:49Z</time></trkpt>
<trkpt lat="20090426" lon="075438"><ele></ele><time>2014-5-13T23:45:52Z</time></trkpt>
<trkpt lat="20090426" lon="075445"><ele></ele><time>2014-5-13T23:45:55Z</time></trkpt>
<trkpt lat="20090426" lon="075453"><ele></ele><time>2014-5-13T23:45:58Z</time></trkpt>
<trkpt lat="20090426" lon="075500"><ele></ele><time>2014-5-13T23:46:1Z</time></trkpt>
<trkpt lat="20090426" lon="075506"><ele></ele><time>2014-5-13T23:46:4Z</time></trkpt>
<trkpt lat="20090426" lon="075513"><ele></ele><time>2014-5-13T23:46:7Z</time></trkpt>
<trkpt lat="20090426" lon="075521"><ele></ele><time>2014-5-13T23:46:10Z</time></trkpt>
<trkpt lat="20090426" lon="075529"><ele></ele><time>2014-5-13T23:46:13Z</time></trkpt>
<trkpt lat="20090426" lon="075536"><ele></ele><time>2014-5-13T23:46:16Z</time></trkpt>
<trkpt lat="20090426" lon="075539"><ele></ele><time>2014-5-13T23:46:19Z</time></trkpt>
<trkpt lat="20090426" lon="075541"><ele></ele><time>2014-5-13T23:46:22Z</time></trkpt>
<trkpt lat="20090426" lon="075542"><ele></ele><time>2014-5-13T23:46:25Z</time></trkpt>
<trkpt lat="20090426" lon="075551"><ele></ele><time>2014-5-13T23:46:28Z</time></trkpt>
<trkpt lat="20090426" lon="075554"><ele></ele><time>2014-5-13T23:46:31Z</time></trkpt>
<trkpt lat="20090426" lon="075600"><ele></ele><time>2014-5-13T23:46:34Z</time></trkpt>
<trkpt lat="20090426" lon="075602"><ele></ele><time>2014-5-13T23:46:37Z</time></trkpt>
<trkpt lat="20090426" lon="075607"><ele></ele><time>2014-5-13T23:46:40Z</time></trkpt>
<trkpt lat="20090426" lon="075610"><ele></ele><time>2014-5-13T23:46:43Z</time></trkpt>
<trkpt lat="20090426" lon="075612"><ele></ele><time>2014-5-13T23:46:46Z</time></trkpt>
<trkpt lat="20090426" lon="075620"><ele></ele><time>2014-5-13T23:46:49Z</time></trkpt>
<trkpt lat="20090426" lon="075625"><ele></ele><time>2014-5-13T23:46:52Z</time></trkpt>
<trkpt lat="20090426" lon="075636"><ele></ele><time>2014-5-13T23:46:55Z</time></trkpt>
<trkpt lat="20090426" lon="075639"><ele></ele><time>2014-5-13T23:46:58Z</time></trkpt>
<trkpt lat="20090426" lon="075643"><ele></ele><time>2014-5-13T23:47:1Z</time></trkpt>
<trkpt lat="20090426" lon="075645"><ele></ele><time>2014-5-13T23:47:4Z</time></trkpt>
<trkpt lat="20090426" lon="075647"><ele></ele><time>2014-5-13T23:47:7Z</time></trkpt>
<trkpt lat="20090426" lon="075648"><ele></ele><time>2014-5-13T23:47:10Z</time></trkpt>
<trkpt lat="20090426" lon="075651"><ele></ele><time>2014-5-13T23:47:13Z</time></trkpt>
<trkpt lat="20090426" lon="075655"><ele></ele><time>2014-5-13T23:47:16Z</time></trkpt>
<trkpt lat="20090426" lon="075700"><ele></ele><time>2014-5-13T23:47:19Z</time></trkpt>
<trkpt lat="20090426" lon="075707"><ele></ele><time>2014-5-13T23:47:22Z</time></trkpt>
<trkpt lat="20090426" lon="075709"><ele></ele><time>2014-5-13T23:47:25Z</time></trkpt>
<trkpt lat="20090426" lon="075711"><ele></ele><time>2014-5-13T23:47:28Z</time></trkpt>
<trkpt lat="20090426" lon="075714"><ele></ele><time>2014-5-13T23:47:31Z</time></trkpt>
<trkpt lat="20090426" lon="075716"><ele></ele><time>2014-5-13T23:47:34Z</time></trkpt>
<trkpt lat="20090426" lon="075719"><ele></ele><time>2014-5-13T23:47:37Z</time></trkpt>
<trkpt lat="20090426" lon="075722"><ele></ele><time>2014-5-13T23:47:40Z</time></trkpt>
<trkpt lat="20090426" lon="075726"><ele></ele><time>2014-5-13T23:47:43Z</time></trkpt>
<trkpt lat="20090426" lon="075727"><ele></ele><time>2014-5-13T23:47:46Z</time></trkpt>
<trkpt lat="20090426" lon="075732"><ele></ele><time>2014-5-13T23:47:49Z</time></trkpt>
<trkpt lat="20090426" lon="075738"><ele></ele><time>2014-5-13T23:47:52Z</time></trkpt>
<trkpt lat="20090426" lon="075739"><ele></ele><time>2014-5-13T23:47:55Z</time></trkpt>
<trkpt lat="20090426" lon="075745"><ele></ele><time>2014-5-13T23:47:58Z</time></trkpt>
<trkpt lat="20090426" lon="075753"><ele></ele><time>2014-5-13T23:48:1Z</time></trkpt>
<trkpt lat="20090426" lon="075754"><ele></ele><time>2014-5-13T23:48:4Z</time></trkpt>
<trkpt lat="20090426" lon="075801"><ele></ele><time>2014-5-13T23:48:7Z</time></trkpt>
<trkpt lat="20090426" lon="075807"><ele></ele><time>2014-5-13T23:48:10Z</time></trkpt>
<trkpt lat="20090426" lon="075812"><ele></ele><time>2014-5-13T23:48:13Z</time></trkpt>
<trkpt lat="20090426" lon="075821"><ele></ele><time>2014-5-13T23:48:16Z</time></trkpt>
<trkpt lat="20090426" lon="075830"><ele></ele><time>2014-5-13T23:48:19Z</time></trkpt>
<trkpt lat="20090426" lon="075840"><ele></ele><time>2014-5-13T23:48:22Z</time></trkpt>
<trkpt lat="20090426" lon="075854"><ele></ele><time>2014-5-13T23:48:25Z</time></trkpt>
<trkpt lat="20090426" lon="075911"><ele></ele><time>2014-5-13T23:48:28Z</time></trkpt>
<trkpt lat="20090426" lon="075926"><ele></ele><time>2014-5-13T23:48:31Z</time></trkpt>
<trkpt lat="20090426" lon="075938"><ele></ele><time>2014-5-13T23:48:34Z</time></trkpt>
<trkpt lat="20090426" lon="075947"><ele></ele><time>2014-5-13T23:48:37Z</time></trkpt>
<trkpt lat="20090426" lon="075952"><ele></ele><time>2014-5-13T23:48:40Z</time></trkpt>
<trkpt lat="20090426" lon="080004"><ele></ele><time>2014-5-13T23:48:43Z</time></trkpt>
<trkpt lat="20090426" lon="080019"><ele></ele><time>2014-5-13T23:48:46Z</time></trkpt>
<trkpt lat="20090426" lon="080033"><ele></ele><time>2014-5-13T23:48:49Z</time></trkpt>
<trkpt lat="20090426" lon="080037"><ele></ele><time>2014-5-13T23:48:52Z</time></trkpt>
<trkpt lat="20090426" lon="080042"><ele></ele><time>2014-5-13T23:48:55Z</time></trkpt>
<trkpt lat="20090426" lon="080047"><ele></ele><time>2014-5-13T23:48:58Z</time></trkpt>
<trkpt lat="20090426" lon="080102"><ele></ele><time>2014-5-13T23:49:1Z</time></trkpt>
<trkpt lat="20090426" lon="080130"><ele></ele><time>2014-5-13T23:49:4Z</time></trkpt>
<trkpt lat="20090426" lon="080135"><ele></ele><time>2014-5-13T23:49:7Z</time></trkpt>
<trkpt lat="20090426" lon="080201"><ele></ele><time>2014-5-13T23:49:10Z</time></trkpt>
<trkpt lat="20090426" lon="080209"><ele></ele><time>2014-5-13T23:49:13Z</time></trkpt>
<trkpt lat="20090426" lon="080211"><ele></ele><time>2014-5-13T23:49:16Z</time></trkpt>
<trkpt lat="20090426" lon="080237"><ele></ele><time>2014-5-13T23:49:19Z</time></trkpt>
<trkpt lat="20090426" lon="080302"><ele></ele><time>2014-5-13T23:49:22Z</time></trkpt>
<trkpt lat="20090426" lon="080325"><ele></ele><time>2014-5-13T23:49:25Z</time></trkpt>
<trkpt lat="20090426" lon="080332"><ele></ele><time>2014-5-13T23:49:28Z</time></trkpt>
<trkpt lat="20090426" lon="080337"><ele></ele><time>2014-5-13T23:49:31Z</time></trkpt>
<trkpt lat="20090426" lon="080347"><ele></ele><time>2014-5-13T23:49:34Z</time></trkpt>
<trkpt lat="20090426" lon="080402"><ele></ele><time>2014-5-13T23:49:37Z</time></trkpt>
<trkpt lat="20090426" lon="080416"><ele></ele><time>2014-5-13T23:49:40Z</time></trkpt>
<trkpt lat="20090426" lon="080425"><ele></ele><time>2014-5-13T23:49:43Z</time></trkpt>
<trkpt lat="20090426" lon="080428"><ele></ele><time>2014-5-13T23:49:46Z</time></trkpt>
<trkpt lat="20090426" lon="080434"><ele></ele><time>2014-5-13T23:49:49Z</time></trkpt>
<trkpt lat="20090426" lon="080436"><ele></ele><time>2014-5-13T23:49:52Z</time></trkpt>
<trkpt lat="20090426" lon="080444"><ele></ele><time>2014-5-13T23:49:55Z</time></trkpt>
<trkpt lat="20090426" lon="080528"><ele></ele><time>2014-5-13T23:49:58Z</time></trkpt>
<trkpt lat="20090426" lon="080531"><ele></ele><time>2014-5-13T23:50:1Z</time></trkpt>
<trkpt lat="20090426" lon="080532"><ele></ele><time>2014-5-13T23:50:4Z</time></trkpt>
<trkpt lat="20090426" lon="080540"><ele></ele><time>2014-5-13T23:50:7Z</time></trkpt>
<trkpt lat="20090426" lon="080547"><ele></ele><time>2014-5-13T23:50:10Z</time></trkpt>
<trkpt lat="20090426" lon="080553"><ele></ele><time>2014-5-13T23:50:13Z</time></trkpt>
<trkpt lat="20090426" lon="080601"><ele></ele><time>2014-5-13T23:50:16Z</time></trkpt>
<trkpt lat="20090426" lon="080633"><ele></ele><time>2014-5-13T23:50:19Z</time></trkpt>
<trkpt lat="20090426" lon="080638"><ele></ele><time>2014-5-13T23:50:22Z</time></trkpt>
<trkpt lat="20090426" lon="080736"><ele></ele><time>2014-5-13T23:50:25Z</time></trkpt>
<trkpt lat="20090426" lon="080806"><ele></ele><time>2014-5-13T23:50:28Z</time></trkpt>
<trkpt lat="20090426" lon="080836"><ele></ele><time>2014-5-13T23:50:31Z</time></trkpt>
<trkpt lat="20090426" lon="080929"><ele></ele><time>2014-5-13T23:50:34Z</time></trkpt>
<trkpt lat="20090426" lon="080932"><ele></ele><time>2014-5-13T23:50:37Z</time></trkpt>
<trkpt lat="20090426" lon="081006"><ele></ele><time>2014-5-13T23:50:40Z</time></trkpt>
<trkpt lat="20090426" lon="081014"><ele></ele><time>2014-5-13T23:50:43Z</time></trkpt>
<trkpt lat="20090426" lon="081043"><ele></ele><time>2014-5-13T23:50:46Z</time></trkpt>
<trkpt lat="20090426" lon="081105"><ele></ele><time>2014-5-13T23:50:49Z</time></trkpt>
<trkpt lat="20090426" lon="081120"><ele></ele><time>2014-5-13T23:50:52Z</time></trkpt>
<trkpt lat="20090426" lon="081131"><ele></ele><time>2014-5-13T23:50:55Z</time></trkpt>
<trkpt lat="20090426" lon="081142"><ele></ele><time>2014-5-13T23:50:58Z</time></trkpt>
<trkpt lat="20090426" lon="081145"><ele></ele><time>2014-5-13T23:51:1Z</time></trkpt>
<trkpt lat="20090426" lon="081148"><ele></ele><time>2014-5-13T23:51:4Z</time></trkpt>
<trkpt lat="20090426" lon="081151"><ele></ele><time>2014-5-13T23:51:7Z</time></trkpt>
<trkpt lat="20090426" lon="081203"><ele></ele><time>2014-5-13T23:51:10Z</time></trkpt>
<trkpt lat="20090426" lon="081300"><ele></ele><time>2014-5-13T23:51:13Z</time></trkpt>
<trkpt lat="20090426" lon="081316"><ele></ele><time>2014-5-13T23:51:16Z</time></trkpt>
<trkpt lat="20090426" lon="081341"><ele></ele><time>2014-5-13T23:51:19Z</time></trkpt>
<trkpt lat="20090426" lon="081506"><ele></ele><time>2014-5-13T23:51:22Z</time></trkpt>
<trkpt lat="20090426" lon="081509"><ele></ele><time>2014-5-13T23:51:25Z</time></trkpt>
<trkpt lat="20090426" lon="081510"><ele></ele><time>2014-5-13T23:51:28Z</time></trkpt>
<trkpt lat="20090426" lon="081511"><ele></ele><time>2014-5-13T23:51:31Z</time></trkpt>
<trkpt lat="20090426" lon="081519"><ele></ele><time>2014-5-13T23:51:34Z</time></trkpt>
<trkpt lat="20090426" lon="081524"><ele></ele><time>2014-5-13T23:51:37Z</time></trkpt>
<trkpt lat="20090426" lon="081602"><ele></ele><time>2014-5-13T23:51:40Z</time></trkpt>
<trkpt lat="20090426" lon="081628"><ele></ele><time>2014-5-13T23:51:43Z</time></trkpt>
<trkpt lat="20090426" lon="081633"><ele></ele><time>2014-5-13T23:51:46Z</time></trkpt>
<trkpt lat="20090426" lon="081635"><ele></ele><time>2014-5-13T23:51:49Z</time></trkpt>
<trkpt lat="20090426" lon="081640"><ele></ele><time>2014-5-13T23:51:52Z</time></trkpt>
<trkpt lat="20090426" lon="081652"><ele></ele><time>2014-5-13T23:51:55Z</time></trkpt>
<trkpt lat="20090426" lon="081658"><ele></ele><time>2014-5-13T23:51:58Z</time></trkpt>
<trkpt lat="20090426" lon="081702"><ele></ele><time>2014-5-13T23:52:1Z</time></trkpt>
<trkpt lat="20090426" lon="081706"><ele></ele><time>2014-5-13T23:52:4Z</time></trkpt>
<trkpt lat="20090426" lon="081716"><ele></ele><time>2014-5-13T23:52:7Z</time></trkpt>
<trkpt lat="20090426" lon="081729"><ele></ele><time>2014-5-13T23:52:10Z</time></trkpt>
<trkpt lat="20090426" lon="081742"><ele></ele><time>2014-5-13T23:52:13Z</time></trkpt>
<trkpt lat="20090426" lon="081747"><ele></ele><time>2014-5-13T23:52:16Z</time></trkpt>
<trkpt lat="20090426" lon="081801"><ele></ele><time>2014-5-13T23:52:19Z</time></trkpt>
<trkpt lat="20090426" lon="081810"><ele></ele><time>2014-5-13T23:52:22Z</time></trkpt>
<trkpt lat="20090426" lon="081822"><ele></ele><time>2014-5-13T23:52:25Z</time></trkpt>
<trkpt lat="20090426" lon="081836"><ele></ele><time>2014-5-13T23:52:28Z</time></trkpt>
<trkpt lat="20090426" lon="081838"><ele></ele><time>2014-5-13T23:52:31Z</time></trkpt>
<trkpt lat="20090426" lon="081849"><ele></ele><time>2014-5-13T23:52:34Z</time></trkpt>
<trkpt lat="20090426" lon="081857"><ele></ele><time>2014-5-13T23:52:37Z</time></trkpt>
<trkpt lat="20090426" lon="081902"><ele></ele><time>2014-5-13T23:52:40Z</time></trkpt>
<trkpt lat="20090426" lon="081911"><ele></ele><time>2014-5-13T23:52:43Z</time></trkpt>
<trkpt lat="20090426" lon="081919"><ele></ele><time>2014-5-13T23:52:46Z</time></trkpt>
<trkpt lat="20090426" lon="081922"><ele></ele><time>2014-5-13T23:52:49Z</time></trkpt>
<trkpt lat="20090426" lon="081924"><ele></ele><time>2014-5-13T23:52:52Z</time></trkpt>
<trkpt lat="20090426" lon="081925"><ele></ele><time>2014-5-13T23:52:55Z</time></trkpt>
<trkpt lat="20090426" lon="081934"><ele></ele><time>2014-5-13T23:52:58Z</time></trkpt>
<trkpt lat="20090426" lon="081945"><ele></ele><time>2014-5-13T23:53:1Z</time></trkpt>
<trkpt lat="20090426" lon="081948"><ele></ele><time>2014-5-13T23:53:4Z</time></trkpt>
<trkpt lat="20090426" lon="081954"><ele></ele><time>2014-5-13T23:53:7Z</time></trkpt>
<trkpt lat="20090426" lon="081959"><ele></ele><time>2014-5-13T23:53:10Z</time></trkpt>
<trkpt lat="20090426" lon="082004"><ele></ele><time>2014-5-13T23:53:13Z</time></trkpt>
<trkpt lat="20090426" lon="082011"><ele></ele><time>2014-5-13T23:53:16Z</time></trkpt>
<trkpt lat="20090426" lon="082013"><ele></ele><time>2014-5-13T23:53:19Z</time></trkpt>
<trkpt lat="20090426" lon="082017"><ele></ele><time>2014-5-13T23:53:22Z</time></trkpt>
<trkpt lat="20090426" lon="082027"><ele></ele><time>2014-5-13T23:53:25Z</time></trkpt>
<trkpt lat="20090426" lon="082029"><ele></ele><time>2014-5-13T23:53:28Z</time></trkpt>
<trkpt lat="20090426" lon="082034"><ele></ele><time>2014-5-13T23:53:31Z</time></trkpt>
<trkpt lat="20090426" lon="082058"><ele></ele><time>2014-5-13T23:53:34Z</time></trkpt>
<trkpt lat="20090426" lon="082059"><ele></ele><time>2014-5-13T23:53:37Z</time></trkpt>
<trkpt lat="20090426" lon="082106"><ele></ele><time>2014-5-13T23:53:40Z</time></trkpt>
<trkpt lat="20090426" lon="082111"><ele></ele><time>2014-5-13T23:53:43Z</time></trkpt>
<trkpt lat="20090426" lon="082115"><ele></ele><time>2014-5-13T23:53:46Z</time></trkpt>
<trkpt lat="20090426" lon="082125"><ele></ele><time>2014-5-13T23:53:49Z</time></trkpt>
<trkpt lat="20090426" lon="082130"><ele></ele><time>2014-5-13T23:53:52Z</time></trkpt>
<trkpt lat="20090426" lon="082134"><ele></ele><time>2014-5-13T23:53:55Z</time></trkpt>
<trkpt lat="20090426" lon="082143"><ele></ele><time>2014-5-13T23:53:58Z</time></trkpt>
<trkpt lat="20090426" lon="082146"><ele></ele><time>2014-5-13T23:54:1Z</time></trkpt>
<trkpt lat="20090426" lon="082151"><ele></ele><time>2014-5-13T23:54:4Z</time></trkpt>
<trkpt lat="20090426" lon="082204"><ele></ele><time>2014-5-13T23:54:7Z</time></trkpt>
<trkpt lat="20090426" lon="082207"><ele></ele><time>2014-5-13T23:54:10Z</time></trkpt>
<trkpt lat="20090426" lon="082211"><ele></ele><time>2014-5-13T23:54:13Z</time></trkpt>
<trkpt lat="20090426" lon="082221"><ele></ele><time>2014-5-13T23:54:16Z</time></trkpt>
<trkpt lat="20090426" lon="082232"><ele></ele><time>2014-5-13T23:54:19Z</time></trkpt>
<trkpt lat="20090426" lon="082237"><ele></ele><time>2014-5-13T23:54:22Z</time></trkpt>
<trkpt lat="20090426" lon="082243"><ele></ele><time>2014-5-13T23:54:25Z</time></trkpt>
<trkpt lat="20090426" lon="082244"><ele></ele><time>2014-5-13T23:54:28Z</time></trkpt>
<trkpt lat="20090426" lon="082253"><ele></ele><time>2014-5-13T23:54:31Z</time></trkpt>
<trkpt lat="20090426" lon="082256"><ele></ele><time>2014-5-13T23:54:34Z</time></trkpt>
<trkpt lat="20090426" lon="082303"><ele></ele><time>2014-5-13T23:54:37Z</time></trkpt>
<trkpt lat="20090426" lon="082305"><ele></ele><time>2014-5-13T23:54:40Z</time></trkpt>
<trkpt lat="20090426" lon="082309"><ele></ele><time>2014-5-13T23:54:43Z</time></trkpt>
<trkpt lat="20090426" lon="082315"><ele></ele><time>2014-5-13T23:54:46Z</time></trkpt>
<trkpt lat="20090426" lon="082318"><ele></ele><time>2014-5-13T23:54:49Z</time></trkpt>
<trkpt lat="20090426" lon="082326"><ele></ele><time>2014-5-13T23:54:52Z</time></trkpt>
<trkpt lat="20090426" lon="082328"><ele></ele><time>2014-5-13T23:54:55Z</time></trkpt>
<trkpt lat="20090426" lon="082333"><ele></ele><time>2014-5-13T23:54:58Z</time></trkpt>
<trkpt lat="20090426" lon="082336"><ele></ele><time>2014-5-13T23:55:1Z</time></trkpt>
<trkpt lat="20090426" lon="082344"><ele></ele><time>2014-5-13T23:55:4Z</time></trkpt>
<trkpt lat="20090426" lon="082351"><ele></ele><time>2014-5-13T23:55:7Z</time></trkpt>
<trkpt lat="20090426" lon="082401"><ele></ele><time>2014-5-13T23:55:10Z</time></trkpt>
<trkpt lat="20090426" lon="082408"><ele></ele><time>2014-5-13T23:55:13Z</time></trkpt>
<trkpt lat="20090426" lon="082418"><ele></ele><time>2014-5-13T23:55:16Z</time></trkpt>
<trkpt lat="20090426" lon="082422"><ele></ele><time>2014-5-13T23:55:19Z</time></trkpt>
<trkpt lat="20090426" lon="082423"><ele></ele><time>2014-5-13T23:55:22Z</time></trkpt>
<trkpt lat="20090426" lon="082431"><ele></ele><time>2014-5-13T23:55:25Z</time></trkpt>
<trkpt lat="20090426" lon="082432"><ele></ele><time>2014-5-13T23:55:28Z</time></trkpt>
<trkpt lat="20090426" lon="082435"><ele></ele><time>2014-5-13T23:55:31Z</time></trkpt>
<trkpt lat="20090426" lon="082439"><ele></ele><time>2014-5-13T23:55:34Z</time></trkpt>
<trkpt lat="20090426" lon="082444"><ele></ele><time>2014-5-13T23:55:37Z</time></trkpt>
<trkpt lat="20090426" lon="082450"><ele></ele><time>2014-5-13T23:55:40Z</time></trkpt>
<trkpt lat="20090426" lon="082452"><ele></ele><time>2014-5-13T23:55:43Z</time></trkpt>
<trkpt lat="20090426" lon="082500"><ele></ele><time>2014-5-13T23:55:46Z</time></trkpt>
<trkpt lat="20090426" lon="082501"><ele></ele><time>2014-5-13T23:55:49Z</time></trkpt>
<trkpt lat="20090426" lon="082510"><ele></ele><time>2014-5-13T23:55:52Z</time></trkpt>
<trkpt lat="20090426" lon="082514"><ele></ele><time>2014-5-13T23:55:55Z</time></trkpt>
<trkpt lat="20090426" lon="082522"><ele></ele><time>2014-5-13T23:55:58Z</time></trkpt>
<trkpt lat="20090426" lon="082526"><ele></ele><time>2014-5-13T23:56:1Z</time></trkpt>
<trkpt lat="20090426" lon="082537"><ele></ele><time>2014-5-13T23:56:4Z</time></trkpt>
<trkpt lat="20090426" lon="082551"><ele></ele><time>2014-5-13T23:56:7Z</time></trkpt>
<trkpt lat="20090426" lon="082559"><ele></ele><time>2014-5-13T23:56:10Z</time></trkpt>
<trkpt lat="20090426" lon="082600"><ele></ele><time>2014-5-13T23:56:13Z</time></trkpt>
<trkpt lat="20090426" lon="082604"><ele></ele><time>2014-5-13T23:56:16Z</time></trkpt>
<trkpt lat="20090426" lon="082610"><ele></ele><time>2014-5-13T23:56:19Z</time></trkpt>
<trkpt lat="20090426" lon="082615"><ele></ele><time>2014-5-13T23:56:22Z</time></trkpt>
<trkpt lat="20090426" lon="082627"><ele></ele><time>2014-5-13T23:56:25Z</time></trkpt>
<trkpt lat="20090426" lon="082635"><ele></ele><time>2014-5-13T23:56:28Z</time></trkpt>
<trkpt lat="20090426" lon="082652"><ele></ele><time>2014-5-13T23:56:31Z</time></trkpt>
<trkpt lat="20090426" lon="082655"><ele></ele><time>2014-5-13T23:56:34Z</time></trkpt>
<trkpt lat="20090426" lon="082656"><ele></ele><time>2014-5-13T23:56:37Z</time></trkpt>
<trkpt lat="20090426" lon="082702"><ele></ele><time>2014-5-13T23:56:40Z</time></trkpt>
<trkpt lat="20090426" lon="082703"><ele></ele><time>2014-5-13T23:56:43Z</time></trkpt>
<trkpt lat="20090426" lon="082709"><ele></ele><time>2014-5-13T23:56:46Z</time></trkpt>
<trkpt lat="20090426" lon="082726"><ele></ele><time>2014-5-13T23:56:49Z</time></trkpt>
<trkpt lat="20090426" lon="082743"><ele></ele><time>2014-5-13T23:56:52Z</time></trkpt>
<trkpt lat="20090426" lon="082748"><ele></ele><time>2014-5-13T23:56:55Z</time></trkpt>
<trkpt lat="20090426" lon="082752"><ele></ele><time>2014-5-13T23:56:58Z</time></trkpt>
<trkpt lat="20090426" lon="082813"><ele></ele><time>2014-5-13T23:57:1Z</time></trkpt>
<trkpt lat="20090426" lon="082817"><ele></ele><time>2014-5-13T23:57:4Z</time></trkpt>
<trkpt lat="20090426" lon="082831"><ele></ele><time>2014-5-13T23:57:7Z</time></trkpt>
<trkpt lat="20090426" lon="082852"><ele></ele><time>2014-5-13T23:57:10Z</time></trkpt>
<trkpt lat="20090426" lon="082854"><ele></ele><time>2014-5-13T23:57:13Z</time></trkpt>
<trkpt lat="20090426" lon="082903"><ele></ele><time>2014-5-13T23:57:16Z</time></trkpt>
<trkpt lat="20090426" lon="082919"><ele></ele><time>2014-5-13T23:57:19Z</time></trkpt>
<trkpt lat="20090426" lon="082926"><ele></ele><time>2014-5-13T23:57:22Z</time></trkpt>
<trkpt lat="20090426" lon="082953"><ele></ele><time>2014-5-13T23:57:25Z</time></trkpt>
<trkpt lat="20090426" lon="083003"><ele></ele><time>2014-5-13T23:57:28Z</time></trkpt>
<trkpt lat="20090426" lon="083013"><ele></ele><time>2014-5-13T23:57:31Z</time></trkpt>
<trkpt lat="20090426" lon="083018"><ele></ele><time>2014-5-13T23:57:34Z</time></trkpt>
<trkpt lat="20090426" lon="083022"><ele></ele><time>2014-5-13T23:57:37Z</time></trkpt>
<trkpt lat="20090426" lon="083042"><ele></ele><time>2014-5-13T23:57:40Z</time></trkpt>
<trkpt lat="20090426" lon="083053"><ele></ele><time>2014-5-13T23:57:43Z</time></trkpt>
<trkpt lat="20090426" lon="083101"><ele></ele><time>2014-5-13T23:57:46Z</time></trkpt>
<trkpt lat="20090426" lon="083114"><ele></ele><time>2014-5-13T23:57:49Z</time></trkpt>
<trkpt lat="20090426" lon="083118"><ele></ele><time>2014-5-13T23:57:52Z</time></trkpt>
<trkpt lat="20090426" lon="083127"><ele></ele><time>2014-5-13T23:57:55Z</time></trkpt>
<trkpt lat="20090426" lon="083132"><ele></ele><time>2014-5-13T23:57:58Z</time></trkpt>
<trkpt lat="20090426" lon="083138"><ele></ele><time>2014-5-13T23:58:1Z</time></trkpt>
<trkpt lat="20090426" lon="083145"><ele></ele><time>2014-5-13T23:58:4Z</time></trkpt>
<trkpt lat="20090426" lon="083146"><ele></ele><time>2014-5-13T23:58:7Z</time></trkpt>
<trkpt lat="20090426" lon="083154"><ele></ele><time>2014-5-13T23:58:10Z</time></trkpt>
<trkpt lat="20090426" lon="083156"><ele></ele><time>2014-5-13T23:58:13Z</time></trkpt>
<trkpt lat="20090426" lon="083209"><ele></ele><time>2014-5-13T23:58:16Z</time></trkpt>
<trkpt lat="20090426" lon="083214"><ele></ele><time>2014-5-13T23:58:19Z</time></trkpt>
<trkpt lat="20090426" lon="083216"><ele></ele><time>2014-5-13T23:58:22Z</time></trkpt>
<trkpt lat="20090426" lon="083220"><ele></ele><time>2014-5-13T23:58:25Z</time></trkpt>
<trkpt lat="20090426" lon="083223"><ele></ele><time>2014-5-13T23:58:28Z</time></trkpt>
<trkpt lat="20090426" lon="083225"><ele></ele><time>2014-5-13T23:58:31Z</time></trkpt>
<trkpt lat="20090426" lon="083228"><ele></ele><time>2014-5-13T23:58:34Z</time></trkpt>
<trkpt lat="20090426" lon="083234"><ele></ele><time>2014-5-13T23:58:37Z</time></trkpt>
<trkpt lat="20090426" lon="083242"><ele></ele><time>2014-5-13T23:58:40Z</time></trkpt>
<trkpt lat="20090426" lon="083248"><ele></ele><time>2014-5-13T23:58:43Z</time></trkpt>
<trkpt lat="20090426" lon="083258"><ele></ele><time>2014-5-13T23:58:46Z</time></trkpt>
<trkpt lat="20090426" lon="083303"><ele></ele><time>2014-5-13T23:58:49Z</time></trkpt>
<trkpt lat="20090426" lon="083306"><ele></ele><time>2014-5-13T23:58:52Z</time></trkpt>
<trkpt lat="20090426" lon="083307"><ele></ele><time>2014-5-13T23:58:55Z</time></trkpt>
<trkpt lat="20090426" lon="083313"><ele></ele><time>2014-5-13T23:58:58Z</time></trkpt>
<trkpt lat="20090426" lon="083317"><ele></ele><time>2014-5-13T23:59:1Z</time></trkpt>
<trkpt lat="20090426" lon="083320"><ele></ele><time>2014-5-13T23:59:4Z</time></trkpt>
<trkpt lat="20090426" lon="083323"><ele></ele><time>2014-5-13T23:59:7Z</time></trkpt>
<trkpt lat="20090426" lon="083328"><ele></ele><time>2014-5-13T23:59:10Z</time></trkpt>
<trkpt lat="20090426" lon="083341"><ele></ele><time>2014-5-13T23:59:13Z</time></trkpt>
<trkpt lat="20090426" lon="083346"><ele></ele><time>2014-5-13T23:59:16Z</time></trkpt>
<trkpt lat="20090426" lon="083354"><ele></ele><time>2014-5-13T23:59:19Z</time></trkpt>
<trkpt lat="20090426" lon="083405"><ele></ele><time>2014-5-13T23:59:22Z</time></trkpt>
<trkpt lat="20090426" lon="083411"><ele></ele><time>2014-5-13T23:59:25Z</time></trkpt>
<trkpt lat="20090426" lon="083415"><ele></ele><time>2014-5-13T23:59:28Z</time></trkpt>
<trkpt lat="20090426" lon="083421"><ele></ele><time>2014-5-13T23:59:31Z</time></trkpt>
<trkpt lat="20090426" lon="083424"><ele></ele><time>2014-5-13T23:59:34Z</time></trkpt>
<trkpt lat="20090426" lon="083428"><ele></ele><time>2014-5-13T23:59:37Z</time></trkpt>
<trkpt lat="20090426" lon="083430"><ele></ele><time>2014-5-13T23:59:40Z</time></trkpt>
<trkpt lat="20090426" lon="083446"><ele></ele><time>2014-5-13T23:59:43Z</time></trkpt>
<trkpt lat="20090426" lon="083500"><ele></ele><time>2014-5-13T23:59:46Z</time></trkpt>
<trkpt lat="20090426" lon="083505"><ele></ele><time>2014-5-13T23:59:49Z</time></trkpt>
<trkpt lat="20090426" lon="083516"><ele></ele><time>2014-5-13T23:59:52Z</time></trkpt>
<trkpt lat="20090426" lon="083521"><ele></ele><time>2014-5-13T23:59:55Z</time></trkpt>
<trkpt lat="20090426" lon="083524"><ele></ele><time>2014-5-13T23:59:58Z</time></trkpt>
<trkpt lat="20090426" lon="083531"><ele></ele><time>2014-5-14T0:0:1Z</time></trkpt>
<trkpt lat="20090426" lon="083534"><ele></ele><time>2014-5-14T0:0:4Z</time></trkpt>
<trkpt lat="20090426" lon="083558"><ele></ele><time>2014-5-14T0:0:7Z</time></trkpt>
<trkpt lat="20090426" lon="083609"><ele></ele><time>2014-5-14T0:0:10Z</time></trkpt>
<trkpt lat="20090426" lon="083613"><ele></ele><time>2014-5-14T0:0:13Z</time></trkpt>
<trkpt lat="20090426" lon="083617"><ele></ele><time>2014-5-14T0:0:16Z</time></trkpt>
<trkpt lat="20090426" lon="083621"><ele></ele><time>2014-5-14T0:0:19Z</time></trkpt>
<trkpt lat="20090426" lon="083626"><ele></ele><time>2014-5-14T0:0:22Z</time></trkpt>
<trkpt lat="20090426" lon="083653"><ele></ele><time>2014-5-14T0:0:25Z</time></trkpt>
<trkpt lat="20090426" lon="083657"><ele></ele><time>2014-5-14T0:0:28Z</time></trkpt>
<trkpt lat="20090426" lon="083709"><ele></ele><time>2014-5-14T0:0:31Z</time></trkpt>
<trkpt lat="20090426" lon="083711"><ele></ele><time>2014-5-14T0:0:34Z</time></trkpt>
<trkpt lat="20090426" lon="083713"><ele></ele><time>2014-5-14T0:0:37Z</time></trkpt>
<trkpt lat="20090426" lon="083728"><ele></ele><time>2014-5-14T0:0:40Z</time></trkpt>
<trkpt lat="20090426" lon="083739"><ele></ele><time>2014-5-14T0:0:43Z</time></trkpt>
<trkpt lat="20090426" lon="083753"><ele></ele><time>2014-5-14T0:0:46Z</time></trkpt>
<trkpt lat="20090426" lon="083758"><ele></ele><time>2014-5-14T0:0:49Z</time></trkpt>
<trkpt lat="20090426" lon="083804"><ele></ele><time>2014-5-14T0:0:52Z</time></trkpt>
<trkpt lat="20090426" lon="083815"><ele></ele><time>2014-5-14T0:0:55Z</time></trkpt>
<trkpt lat="20090426" lon="083829"><ele></ele><time>2014-5-14T0:0:58Z</time></trkpt>
<trkpt lat="20090426" lon="083846"><ele></ele><time>2014-5-14T0:1:1Z</time></trkpt>
<trkpt lat="20090426" lon="083849"><ele></ele><time>2014-5-14T0:1:4Z</time></trkpt>
<trkpt lat="20090426" lon="083859"><ele></ele><time>2014-5-14T0:1:7Z</time></trkpt>
<trkpt lat="20090426" lon="083911"><ele></ele><time>2014-5-14T0:1:10Z</time></trkpt>
<trkpt lat="20090426" lon="083919"><ele></ele><time>2014-5-14T0:1:13Z</time></trkpt>
<trkpt lat="20090426" lon="083921"><ele></ele><time>2014-5-14T0:1:16Z</time></trkpt>
<trkpt lat="20090426" lon="083928"><ele></ele><time>2014-5-14T0:1:19Z</time></trkpt>
<trkpt lat="20090426" lon="083929"><ele></ele><time>2014-5-14T0:1:22Z</time></trkpt>
<trkpt lat="20090426" lon="083941"><ele></ele><time>2014-5-14T0:1:25Z</time></trkpt>
<trkpt lat="20090426" lon="083953"><ele></ele><time>2014-5-14T0:1:28Z</time></trkpt>
<trkpt lat="20090426" lon="084004"><ele></ele><time>2014-5-14T0:1:31Z</time></trkpt>
<trkpt lat="20090426" lon="084015"><ele></ele><time>2014-5-14T0:1:34Z</time></trkpt>
<trkpt lat="20090426" lon="084017"><ele></ele><time>2014-5-14T0:1:37Z</time></trkpt>
<trkpt lat="20090426" lon="084031"><ele></ele><time>2014-5-14T0:1:40Z</time></trkpt>
<trkpt lat="20090426" lon="084042"><ele></ele><time>2014-5-14T0:1:43Z</time></trkpt>
<trkpt lat="20090426" lon="084051"><ele></ele><time>2014-5-14T0:1:46Z</time></trkpt>
<trkpt lat="20090426" lon="084057"><ele></ele><time>2014-5-14T0:1:49Z</time></trkpt>
<trkpt lat="20090426" lon="084104"><ele></ele><time>2014-5-14T0:1:52Z</time></trkpt>
<trkpt lat="20090426" lon="084113"><ele></ele><time>2014-5-14T0:1:55Z</time></trkpt>
<trkpt lat="20090426" lon="084122"><ele></ele><time>2014-5-14T0:1:58Z</time></trkpt>
<trkpt lat="20090426" lon="084127"><ele></ele><time>2014-5-14T0:2:1Z</time></trkpt>
<trkpt lat="20090426" lon="084130"><ele></ele><time>2014-5-14T0:2:4Z</time></trkpt>
<trkpt lat="20090426" lon="084135"><ele></ele><time>2014-5-14T0:2:7Z</time></trkpt>
<trkpt lat="20090426" lon="084140"><ele></ele><time>2014-5-14T0:2:10Z</time></trkpt>
<trkpt lat="20090426" lon="084151"><ele></ele><time>2014-5-14T0:2:13Z</time></trkpt>
<trkpt lat="20090426" lon="084155"><ele></ele><time>2014-5-14T0:2:16Z</time></trkpt>
<trkpt lat="20090426" lon="084202"><ele></ele><time>2014-5-14T0:2:19Z</time></trkpt>
<trkpt lat="20090426" lon="084206"><ele></ele><time>2014-5-14T0:2:22Z</time></trkpt>
<trkpt lat="20090426" lon="084217"><ele></ele><time>2014-5-14T0:2:25Z</time></trkpt>
<trkpt lat="20090426" lon="084218"><ele></ele><time>2014-5-14T0:2:28Z</time></trkpt>
<trkpt lat="20090426" lon="084224"><ele></ele><time>2014-5-14T0:2:31Z</time></trkpt>
<trkpt lat="20090426" lon="084236"><ele></ele><time>2014-5-14T0:2:34Z</time></trkpt>
<trkpt lat="20090426" lon="084246"><ele></ele><time>2014-5-14T0:2:37Z</time></trkpt>
<trkpt lat="20090426" lon="084254"><ele></ele><time>2014-5-14T0:2:40Z</time></trkpt>
<trkpt lat="20090426" lon="084300"><ele></ele><time>2014-5-14T0:2:43Z</time></trkpt>
<trkpt lat="20090426" lon="084310"><ele></ele><time>2014-5-14T0:2:46Z</time></trkpt>
<trkpt lat="20090426" lon="084316"><ele></ele><time>2014-5-14T0:2:49Z</time></trkpt>
<trkpt lat="20090426" lon="084322"><ele></ele><time>2014-5-14T0:2:52Z</time></trkpt>
<trkpt lat="20090426" lon="084331"><ele></ele><time>2014-5-14T0:2:55Z</time></trkpt>
<trkpt lat="20090426" lon="084332"><ele></ele><time>2014-5-14T0:2:58Z</time></trkpt>
<trkpt lat="20090426" lon="084339"><ele></ele><time>2014-5-14T0:3:1Z</time></trkpt>
<trkpt lat="20090426" lon="084344"><ele></ele><time>2014-5-14T0:3:4Z</time></trkpt>
<trkpt lat="20090426" lon="084348"><ele></ele><time>2014-5-14T0:3:7Z</time></trkpt>
<trkpt lat="20090426" lon="084354"><ele></ele><time>2014-5-14T0:3:10Z</time></trkpt>
<trkpt lat="20090426" lon="084355"><ele></ele><time>2014-5-14T0:3:13Z</time></trkpt>
<trkpt lat="20090426" lon="084403"><ele></ele><time>2014-5-14T0:3:16Z</time></trkpt>
<trkpt lat="20090426" lon="084409"><ele></ele><time>2014-5-14T0:3:19Z</time></trkpt>
<trkpt lat="20090426" lon="084415"><ele></ele><time>2014-5-14T0:3:22Z</time></trkpt>
<trkpt lat="20090426" lon="084419"><ele></ele><time>2014-5-14T0:3:25Z</time></trkpt>
<trkpt lat="20090426" lon="084426"><ele></ele><time>2014-5-14T0:3:28Z</time></trkpt>
<trkpt lat="20090426" lon="084427"><ele></ele><time>2014-5-14T0:3:31Z</time></trkpt>
<trkpt lat="20090426" lon="084430"><ele></ele><time>2014-5-14T0:3:34Z</time></trkpt>
<trkpt lat="20090426" lon="084437"><ele></ele><time>2014-5-14T0:3:37Z</time></trkpt>
<trkpt lat="20090426" lon="084442"><ele></ele><time>2014-5-14T0:3:40Z</time></trkpt>
<trkpt lat="20090426" lon="084449"><ele></ele><time>2014-5-14T0:3:43Z</time></trkpt>
<trkpt lat="20090426" lon="084458"><ele></ele><time>2014-5-14T0:3:46Z</time></trkpt>
<trkpt lat="20090426" lon="084501"><ele></ele><time>2014-5-14T0:3:49Z</time></trkpt>
<trkpt lat="20090426" lon="084506"><ele></ele><time>2014-5-14T0:3:52Z</time></trkpt>
<trkpt lat="20090426" lon="084512"><ele></ele><time>2014-5-14T0:3:55Z</time></trkpt>
<trkpt lat="20090426" lon="084516"><ele></ele><time>2014-5-14T0:3:58Z</time></trkpt>
<trkpt lat="20090426" lon="084522"><ele></ele><time>2014-5-14T0:4:1Z</time></trkpt>
<trkpt lat="20090426" lon="084531"><ele></ele><time>2014-5-14T0:4:4Z</time></trkpt>
<trkpt lat="20090426" lon="084532"><ele></ele><time>2014-5-14T0:4:7Z</time></trkpt>
<trkpt lat="20090426" lon="084535"><ele></ele><time>2014-5-14T0:4:10Z</time></trkpt>
<trkpt lat="20090426" lon="084546"><ele></ele><time>2014-5-14T0:4:13Z</time></trkpt>
<trkpt lat="20090426" lon="084554"><ele></ele><time>2014-5-14T0:4:16Z</time></trkpt>
<trkpt lat="20090426" lon="084558"><ele></ele><time>2014-5-14T0:4:19Z</time></trkpt>
<trkpt lat="20090426" lon="084602"><ele></ele><time>2014-5-14T0:4:22Z</time></trkpt>
<trkpt lat="20090426" lon="084607"><ele></ele><time>2014-5-14T0:4:25Z</time></trkpt>
<trkpt lat="20090426" lon="084609"><ele></ele><time>2014-5-14T0:4:28Z</time></trkpt>
<trkpt lat="20090426" lon="084616"><ele></ele><time>2014-5-14T0:4:31Z</time></trkpt>
<trkpt lat="20090426" lon="084619"><ele></ele><time>2014-5-14T0:4:34Z</time></trkpt>
<trkpt lat="20090426" lon="084622"><ele></ele><time>2014-5-14T0:4:37Z</time></trkpt>
<trkpt lat="20090426" lon="084624"><ele></ele><time>2014-5-14T0:4:40Z</time></trkpt>
<trkpt lat="20090426" lon="084628"><ele></ele><time>2014-5-14T0:4:43Z</time></trkpt>
<trkpt lat="20090426" lon="084635"><ele></ele><time>2014-5-14T0:4:46Z</time></trkpt>
<trkpt lat="20090426" lon="084640"><ele></ele><time>2014-5-14T0:4:49Z</time></trkpt>
<trkpt lat="20090426" lon="084648"><ele></ele><time>2014-5-14T0:4:52Z</time></trkpt>
<trkpt lat="20090426" lon="084717"><ele></ele><time>2014-5-14T0:4:55Z</time></trkpt>
<trkpt lat="20090426" lon="084722"><ele></ele><time>2014-5-14T0:4:58Z</time></trkpt>
<trkpt lat="20090426" lon="084729"><ele></ele><time>2014-5-14T0:5:1Z</time></trkpt>
<trkpt lat="20090426" lon="084733"><ele></ele><time>2014-5-14T0:5:4Z</time></trkpt>
<trkpt lat="20090426" lon="084736"><ele></ele><time>2014-5-14T0:5:7Z</time></trkpt>
<trkpt lat="20090426" lon="084739"><ele></ele><time>2014-5-14T0:5:10Z</time></trkpt>
<trkpt lat="20090426" lon="084742"><ele></ele><time>2014-5-14T0:5:13Z</time></trkpt>
<trkpt lat="20090426" lon="084747"><ele></ele><time>2014-5-14T0:5:16Z</time></trkpt>
<trkpt lat="20090426" lon="084803"><ele></ele><time>2014-5-14T0:5:19Z</time></trkpt>
<trkpt lat="20090426" lon="084814"><ele></ele><time>2014-5-14T0:5:22Z</time></trkpt>
<trkpt lat="20090426" lon="084828"><ele></ele><time>2014-5-14T0:5:25Z</time></trkpt>
<trkpt lat="20090426" lon="084841"><ele></ele><time>2014-5-14T0:5:28Z</time></trkpt>
<trkpt lat="20090426" lon="084848"><ele></ele><time>2014-5-14T0:5:31Z</time></trkpt>
<trkpt lat="20090426" lon="084855"><ele></ele><time>2014-5-14T0:5:34Z</time></trkpt>
<trkpt lat="20090426" lon="084857"><ele></ele><time>2014-5-14T0:5:37Z</time></trkpt>
<trkpt lat="20090426" lon="084910"><ele></ele><time>2014-5-14T0:5:40Z</time></trkpt>
<trkpt lat="20090426" lon="084920"><ele></ele><time>2014-5-14T0:5:43Z</time></trkpt>
<trkpt lat="20090426" lon="084929"><ele></ele><time>2014-5-14T0:5:46Z</time></trkpt>
<trkpt lat="20090426" lon="084931"><ele></ele><time>2014-5-14T0:5:49Z</time></trkpt>
<trkpt lat="20090426" lon="084935"><ele></ele><time>2014-5-14T0:5:52Z</time></trkpt>
<trkpt lat="20090426" lon="084938"><ele></ele><time>2014-5-14T0:5:55Z</time></trkpt>
<trkpt lat="20090426" lon="084943"><ele></ele><time>2014-5-14T0:5:58Z</time></trkpt>
<trkpt lat="20090426" lon="084950"><ele></ele><time>2014-5-14T0:6:1Z</time></trkpt>
<trkpt lat="20090426" lon="084954"><ele></ele><time>2014-5-14T0:6:4Z</time></trkpt>
<trkpt lat="20090426" lon="085004"><ele></ele><time>2014-5-14T0:6:7Z</time></trkpt>
<trkpt lat="20090426" lon="085005"><ele></ele><time>2014-5-14T0:6:10Z</time></trkpt>
<trkpt lat="20090426" lon="085007"><ele></ele><time>2014-5-14T0:6:13Z</time></trkpt>
<trkpt lat="20090426" lon="085012"><ele></ele><time>2014-5-14T0:6:16Z</time></trkpt>
<trkpt lat="20090426" lon="085016"><ele></ele><time>2014-5-14T0:6:19Z</time></trkpt>
<trkpt lat="20090426" lon="085022"><ele></ele><time>2014-5-14T0:6:22Z</time></trkpt>
<trkpt lat="20090426" lon="085025"><ele></ele><time>2014-5-14T0:6:25Z</time></trkpt>
<trkpt lat="20090426" lon="085028"><ele></ele><time>2014-5-14T0:6:28Z</time></trkpt>
<trkpt lat="20090426" lon="085031"><ele></ele><time>2014-5-14T0:6:31Z</time></trkpt>
<trkpt lat="20090426" lon="085033"><ele></ele><time>2014-5-14T0:6:34Z</time></trkpt>
<trkpt lat="20090426" lon="085039"><ele></ele><time>2014-5-14T0:6:37Z</time></trkpt>
<trkpt lat="20090426" lon="085041"><ele></ele><time>2014-5-14T0:6:40Z</time></trkpt>
<trkpt lat="20090426" lon="085047"><ele></ele><time>2014-5-14T0:6:43Z</time></trkpt>
<trkpt lat="20090426" lon="085051"><ele></ele><time>2014-5-14T0:6:46Z</time></trkpt>
<trkpt lat="20090426" lon="085057"><ele></ele><time>2014-5-14T0:6:49Z</time></trkpt>
<trkpt lat="20090426" lon="085106"><ele></ele><time>2014-5-14T0:6:52Z</time></trkpt>
<trkpt lat="20090426" lon="085112"><ele></ele><time>2014-5-14T0:6:55Z</time></trkpt>
<trkpt lat="20090426" lon="085119"><ele></ele><time>2014-5-14T0:6:58Z</time></trkpt>
<trkpt lat="20090426" lon="085128"><ele></ele><time>2014-5-14T0:7:1Z</time></trkpt>
<trkpt lat="20090426" lon="085129"><ele></ele><time>2014-5-14T0:7:4Z</time></trkpt>
<trkpt lat="20090426" lon="085136"><ele></ele><time>2014-5-14T0:7:7Z</time></trkpt>
<trkpt lat="20090426" lon="085145"><ele></ele><time>2014-5-14T0:7:10Z</time></trkpt>
<trkpt lat="20090426" lon="085152"><ele></ele><time>2014-5-14T0:7:13Z</time></trkpt>
<trkpt lat="20090426" lon="085159"><ele></ele><time>2014-5-14T0:7:16Z</time></trkpt>
<trkpt lat="20090426" lon="085201"><ele></ele><time>2014-5-14T0:7:19Z</time></trkpt>
<trkpt lat="20090426" lon="085204"><ele></ele><time>2014-5-14T0:7:22Z</time></trkpt>
<trkpt lat="20090426" lon="085214"><ele></ele><time>2014-5-14T0:7:25Z</time></trkpt>
<trkpt lat="20090426" lon="085222"><ele></ele><time>2014-5-14T0:7:28Z</time></trkpt>
<trkpt lat="20090426" lon="085228"><ele></ele><time>2014-5-14T0:7:31Z</time></trkpt>
<trkpt lat="20090426" lon="085238"><ele></ele><time>2014-5-14T0:7:34Z</time></trkpt>
<trkpt lat="20090426" lon="085251"><ele></ele><time>2014-5-14T0:7:37Z</time></trkpt>
<trkpt lat="20090426" lon="085301"><ele></ele><time>2014-5-14T0:7:40Z</time></trkpt>
<trkpt lat="20090426" lon="085305"><ele></ele><time>2014-5-14T0:7:43Z</time></trkpt>
<trkpt lat="20090426" lon="085311"><ele></ele><time>2014-5-14T0:7:46Z</time></trkpt>
<trkpt lat="20090426" lon="085312"><ele></ele><time>2014-5-14T0:7:49Z</time></trkpt>
<trkpt lat="20090426" lon="085317"><ele></ele><time>2014-5-14T0:7:52Z</time></trkpt>
<trkpt lat="20090426" lon="085322"><ele></ele><time>2014-5-14T0:7:55Z</time></trkpt>
<trkpt lat="20090426" lon="085329"><ele></ele><time>2014-5-14T0:7:58Z</time></trkpt>
<trkpt lat="20090426" lon="085334"><ele></ele><time>2014-5-14T0:8:1Z</time></trkpt>
<trkpt lat="20090426" lon="085340"><ele></ele><time>2014-5-14T0:8:4Z</time></trkpt>
<trkpt lat="20090426" lon="085345"><ele></ele><time>2014-5-14T0:8:7Z</time></trkpt>
<trkpt lat="20090426" lon="085356"><ele></ele><time>2014-5-14T0:8:10Z</time></trkpt>
<trkpt lat="20090426" lon="085400"><ele></ele><time>2014-5-14T0:8:13Z</time></trkpt>
<trkpt lat="20090426" lon="085406"><ele></ele><time>2014-5-14T0:8:16Z</time></trkpt>
<trkpt lat="20090426" lon="085410"><ele></ele><time>2014-5-14T0:8:19Z</time></trkpt>
<trkpt lat="20090426" lon="085414"><ele></ele><time>2014-5-14T0:8:22Z</time></trkpt>
<trkpt lat="20090426" lon="085422"><ele></ele><time>2014-5-14T0:8:25Z</time></trkpt>
<trkpt lat="20090426" lon="085425"><ele></ele><time>2014-5-14T0:8:28Z</time></trkpt>
<trkpt lat="20090426" lon="085432"><ele></ele><time>2014-5-14T0:8:31Z</time></trkpt>
<trkpt lat="20090426" lon="085441"><ele></ele><time>2014-5-14T0:8:34Z</time></trkpt>
<trkpt lat="20090426" lon="085452"><ele></ele><time>2014-5-14T0:8:37Z</time></trkpt>
<trkpt lat="20090426" lon="085456"><ele></ele><time>2014-5-14T0:8:40Z</time></trkpt>
<trkpt lat="20090426" lon="085458"><ele></ele><time>2014-5-14T0:8:43Z</time></trkpt>
<trkpt lat="20090426" lon="085501"><ele></ele><time>2014-5-14T0:8:46Z</time></trkpt>
<trkpt lat="20090426" lon="085507"><ele></ele><time>2014-5-14T0:8:49Z</time></trkpt>
<trkpt lat="20090426" lon="085516"><ele></ele><time>2014-5-14T0:8:52Z</time></trkpt>
<trkpt lat="20090426" lon="085520"><ele></ele><time>2014-5-14T0:8:55Z</time></trkpt>
<trkpt lat="20090426" lon="085530"><ele></ele><time>2014-5-14T0:8:58Z</time></trkpt>
<trkpt lat="20090426" lon="085539"><ele></ele><time>2014-5-14T0:9:1Z</time></trkpt>
<trkpt lat="20090426" lon="085543"><ele></ele><time>2014-5-14T0:9:4Z</time></trkpt>
<trkpt lat="20090426" lon="085546"><ele></ele><time>2014-5-14T0:9:7Z</time></trkpt>
<trkpt lat="20090426" lon="085556"><ele></ele><time>2014-5-14T0:9:10Z</time></trkpt>
<trkpt lat="20090426" lon="085610"><ele></ele><time>2014-5-14T0:9:13Z</time></trkpt>
<trkpt lat="20090426" lon="085622"><ele></ele><time>2014-5-14T0:9:16Z</time></trkpt>
<trkpt lat="20090426" lon="085626"><ele></ele><time>2014-5-14T0:9:19Z</time></trkpt>
<trkpt lat="20090426" lon="085632"><ele></ele><time>2014-5-14T0:9:22Z</time></trkpt>
<trkpt lat="20090426" lon="085637"><ele></ele><time>2014-5-14T0:9:25Z</time></trkpt>
<trkpt lat="20090426" lon="085644"><ele></ele><time>2014-5-14T0:9:28Z</time></trkpt>
<trkpt lat="20090426" lon="085647"><ele></ele><time>2014-5-14T0:9:31Z</time></trkpt>
<trkpt lat="20090426" lon="085653"><ele></ele><time>2014-5-14T0:9:34Z</time></trkpt>
<trkpt lat="20090426" lon="085702"><ele></ele><time>2014-5-14T0:9:37Z</time></trkpt>
<trkpt lat="20090426" lon="085709"><ele></ele><time>2014-5-14T0:9:40Z</time></trkpt>
<trkpt lat="20090426" lon="085714"><ele></ele><time>2014-5-14T0:9:43Z</time></trkpt>
<trkpt lat="20090426" lon="085720"><ele></ele><time>2014-5-14T0:9:46Z</time></trkpt>
<trkpt lat="20090426" lon="085723"><ele></ele><time>2014-5-14T0:9:49Z</time></trkpt>
<trkpt lat="20090426" lon="085729"><ele></ele><time>2014-5-14T0:9:52Z</time></trkpt>
<trkpt lat="20090426" lon="085734"><ele></ele><time>2014-5-14T0:9:55Z</time></trkpt>
<trkpt lat="20090426" lon="085745"><ele></ele><time>2014-5-14T0:9:58Z</time></trkpt>
<trkpt lat="20090426" lon="085749"><ele></ele><time>2014-5-14T0:10:1Z</time></trkpt>
<trkpt lat="20090426" lon="085755"><ele></ele><time>2014-5-14T0:10:4Z</time></trkpt>
<trkpt lat="20090426" lon="085800"><ele></ele><time>2014-5-14T0:10:7Z</time></trkpt>
<trkpt lat="20090426" lon="085801"><ele></ele><time>2014-5-14T0:10:10Z</time></trkpt>
<trkpt lat="20090426" lon="085807"><ele></ele><time>2014-5-14T0:10:13Z</time></trkpt>
<trkpt lat="20090426" lon="085819"><ele></ele><time>2014-5-14T0:10:16Z</time></trkpt>
<trkpt lat="20090426" lon="085834"><ele></ele><time>2014-5-14T0:10:19Z</time></trkpt>
<trkpt lat="20090426" lon="085843"><ele></ele><time>2014-5-14T0:10:22Z</time></trkpt>
<trkpt lat="20090426" lon="085850"><ele></ele><time>2014-5-14T0:10:25Z</time></trkpt>
<trkpt lat="20090426" lon="085913"><ele></ele><time>2014-5-14T0:10:28Z</time></trkpt>
<trkpt lat="20090426" lon="085916"><ele></ele><time>2014-5-14T0:10:31Z</time></trkpt>
<trkpt lat="20090426" lon="085935"><ele></ele><time>2014-5-14T0:10:34Z</time></trkpt>
<trkpt lat="20090426" lon="085950"><ele></ele><time>2014-5-14T0:10:37Z</time></trkpt>
<trkpt lat="20090426" lon="090002"><ele></ele><time>2014-5-14T0:10:40Z</time></trkpt>
<trkpt lat="20090426" lon="090005"><ele></ele><time>2014-5-14T0:10:43Z</time></trkpt>
<trkpt lat="20090426" lon="090017"><ele></ele><time>2014-5-14T0:10:46Z</time></trkpt>
<trkpt lat="20090426" lon="090024"><ele></ele><time>2014-5-14T0:10:49Z</time></trkpt>
<trkpt lat="20090426" lon="090030"><ele></ele><time>2014-5-14T0:10:52Z</time></trkpt>
<trkpt lat="20090426" lon="090034"><ele></ele><time>2014-5-14T0:10:55Z</time></trkpt>
<trkpt lat="20090426" lon="090043"><ele></ele><time>2014-5-14T0:10:58Z</time></trkpt>
<trkpt lat="20090426" lon="090047"><ele></ele><time>2014-5-14T0:11:1Z</time></trkpt>
<trkpt lat="20090426" lon="090056"><ele></ele><time>2014-5-14T0:11:4Z</time></trkpt>
<trkpt lat="20090426" lon="090105"><ele></ele><time>2014-5-14T0:11:7Z</time></trkpt>
<trkpt lat="20090426" lon="090117"><ele></ele><time>2014-5-14T0:11:10Z</time></trkpt>
<trkpt lat="20090426" lon="090118"><ele></ele><time>2014-5-14T0:11:13Z</time></trkpt>
<trkpt lat="20090426" lon="090124"><ele></ele><time>2014-5-14T0:11:16Z</time></trkpt>
<trkpt lat="20090426" lon="090126"><ele></ele><time>2014-5-14T0:11:19Z</time></trkpt>
<trkpt lat="20090426" lon="090128"><ele></ele><time>2014-5-14T0:11:22Z</time></trkpt>
<trkpt lat="20090426" lon="090134"><ele></ele><time>2014-5-14T0:11:25Z</time></trkpt>
<trkpt lat="20090426" lon="090148"><ele></ele><time>2014-5-14T0:11:28Z</time></trkpt>
<trkpt lat="20090426" lon="090158"><ele></ele><time>2014-5-14T0:11:31Z</time></trkpt>
<trkpt lat="20090426" lon="090208"><ele></ele><time>2014-5-14T0:11:34Z</time></trkpt>
<trkpt lat="20090426" lon="090213"><ele></ele><time>2014-5-14T0:11:37Z</time></trkpt>
<trkpt lat="20090426" lon="090217"><ele></ele><time>2014-5-14T0:11:40Z</time></trkpt>
<trkpt lat="20090426" lon="090221"><ele></ele><time>2014-5-14T0:11:43Z</time></trkpt>
<trkpt lat="20090426" lon="090237"><ele></ele><time>2014-5-14T0:11:46Z</time></trkpt>
<trkpt lat="20090426" lon="090243"><ele></ele><time>2014-5-14T0:11:49Z</time></trkpt>
<trkpt lat="20090426" lon="090253"><ele></ele><time>2014-5-14T0:11:52Z</time></trkpt>
<trkpt lat="20090426" lon="090257"><ele></ele><time>2014-5-14T0:11:55Z</time></trkpt>
<trkpt lat="20090426" lon="090302"><ele></ele><time>2014-5-14T0:11:58Z</time></trkpt>
<trkpt lat="20090426" lon="090305"><ele></ele><time>2014-5-14T0:12:1Z</time></trkpt>
<trkpt lat="20090426" lon="090312"><ele></ele><time>2014-5-14T0:12:4Z</time></trkpt>
<trkpt lat="20090426" lon="090313"><ele></ele><time>2014-5-14T0:12:7Z</time></trkpt>
<trkpt lat="20090426" lon="090317"><ele></ele><time>2014-5-14T0:12:10Z</time></trkpt>
<trkpt lat="20090426" lon="090320"><ele></ele><time>2014-5-14T0:12:13Z</time></trkpt>
<trkpt lat="20090426" lon="090325"><ele></ele><time>2014-5-14T0:12:16Z</time></trkpt>
<trkpt lat="20090426" lon="090334"><ele></ele><time>2014-5-14T0:12:19Z</time></trkpt>
<trkpt lat="20090426" lon="090339"><ele></ele><time>2014-5-14T0:12:22Z</time></trkpt>
<trkpt lat="20090426" lon="090342"><ele></ele><time>2014-5-14T0:12:25Z</time></trkpt>
<trkpt lat="20090426" lon="090345"><ele></ele><time>2014-5-14T0:12:28Z</time></trkpt>
<trkpt lat="20090426" lon="090348"><ele></ele><time>2014-5-14T0:12:31Z</time></trkpt>
<trkpt lat="20090426" lon="090350"><ele></ele><time>2014-5-14T0:12:34Z</time></trkpt>
<trkpt lat="20090426" lon="090357"><ele></ele><time>2014-5-14T0:12:37Z</time></trkpt>
<trkpt lat="20090426" lon="090400"><ele></ele><time>2014-5-14T0:12:40Z</time></trkpt>
<trkpt lat="20090426" lon="090402"><ele></ele><time>2014-5-14T0:12:43Z</time></trkpt>
<trkpt lat="20090426" lon="090408"><ele></ele><time>2014-5-14T0:12:46Z</time></trkpt>
<trkpt lat="20090426" lon="090412"><ele></ele><time>2014-5-14T0:12:49Z</time></trkpt>
<trkpt lat="20090426" lon="090418"><ele></ele><time>2014-5-14T0:12:52Z</time></trkpt>
<trkpt lat="20090426" lon="090419"><ele></ele><time>2014-5-14T0:12:55Z</time></trkpt>
<trkpt lat="20090426" lon="090427"><ele></ele><time>2014-5-14T0:12:58Z</time></trkpt>
<trkpt lat="20090426" lon="090434"><ele></ele><time>2014-5-14T0:13:1Z</time></trkpt>
<trkpt lat="20090426" lon="090443"><ele></ele><time>2014-5-14T0:13:4Z</time></trkpt>
<trkpt lat="20090426" lon="090509"><ele></ele><time>2014-5-14T0:13:7Z</time></trkpt>
<trkpt lat="20090426" lon="090523"><ele></ele><time>2014-5-14T0:13:10Z</time></trkpt>
<trkpt lat="20090426" lon="090528"><ele></ele><time>2014-5-14T0:13:13Z</time></trkpt>
<trkpt lat="20090426" lon="090531"><ele></ele><time>2014-5-14T0:13:16Z</time></trkpt>
<trkpt lat="20090426" lon="090534"><ele></ele><time>2014-5-14T0:13:19Z</time></trkpt>
<trkpt lat="20090426" lon="090539"><ele></ele><time>2014-5-14T0:13:22Z</time></trkpt>
<trkpt lat="20090426" lon="090548"><ele></ele><time>2014-5-14T0:13:25Z</time></trkpt>
<trkpt lat="20090426" lon="090559"><ele></ele><time>2014-5-14T0:13:28Z</time></trkpt>
<trkpt lat="20090426" lon="090603"><ele></ele><time>2014-5-14T0:13:31Z</time></trkpt>
<trkpt lat="20090426" lon="090607"><ele></ele><time>2014-5-14T0:13:34Z</time></trkpt>
<trkpt lat="20090426" lon="090609"><ele></ele><time>2014-5-14T0:13:37Z</time></trkpt>
<trkpt lat="20090426" lon="090619"><ele></ele><time>2014-5-14T0:13:40Z</time></trkpt>
<trkpt lat="20090426" lon="090638"><ele></ele><time>2014-5-14T0:13:43Z</time></trkpt>
<trkpt lat="20090426" lon="090644"><ele></ele><time>2014-5-14T0:13:46Z</time></trkpt>
<trkpt lat="20090426" lon="090650"><ele></ele><time>2014-5-14T0:13:49Z</time></trkpt>
<trkpt lat="20090426" lon="090656"><ele></ele><time>2014-5-14T0:13:52Z</time></trkpt>
<trkpt lat="20090426" lon="090700"><ele></ele><time>2014-5-14T0:13:55Z</time></trkpt>
<trkpt lat="20090426" lon="090705"><ele></ele><time>2014-5-14T0:13:58Z</time></trkpt>
<trkpt lat="20090426" lon="090708"><ele></ele><time>2014-5-14T0:14:1Z</time></trkpt>
<trkpt lat="20090426" lon="090715"><ele></ele><time>2014-5-14T0:14:4Z</time></trkpt>
<trkpt lat="20090426" lon="090717"><ele></ele><time>2014-5-14T0:14:7Z</time></trkpt>
<trkpt lat="20090426" lon="090722"><ele></ele><time>2014-5-14T0:14:10Z</time></trkpt>
<trkpt lat="20090426" lon="090724"><ele></ele><time>2014-5-14T0:14:13Z</time></trkpt>
<trkpt lat="20090426" lon="090733"><ele></ele><time>2014-5-14T0:14:16Z</time></trkpt>
<trkpt lat="20090426" lon="090742"><ele></ele><time>2014-5-14T0:14:19Z</time></trkpt>
<trkpt lat="20090426" lon="090743"><ele></ele><time>2014-5-14T0:14:22Z</time></trkpt>
<trkpt lat="20090426" lon="090747"><ele></ele><time>2014-5-14T0:14:25Z</time></trkpt>
<trkpt lat="20090426" lon="090757"><ele></ele><time>2014-5-14T0:14:28Z</time></trkpt>
<trkpt lat="20090426" lon="090824"><ele></ele><time>2014-5-14T0:14:31Z</time></trkpt>
<trkpt lat="20090426" lon="090826"><ele></ele><time>2014-5-14T0:14:34Z</time></trkpt>
<trkpt lat="20090426" lon="090838"><ele></ele><time>2014-5-14T0:14:37Z</time></trkpt>
<trkpt lat="20090426" lon="090856"><ele></ele><time>2014-5-14T0:14:40Z</time></trkpt>
<trkpt lat="20090426" lon="090858"><ele></ele><time>2014-5-14T0:14:43Z</time></trkpt>
<trkpt lat="20090426" lon="090905"><ele></ele><time>2014-5-14T0:14:46Z</time></trkpt>
<trkpt lat="20090426" lon="090909"><ele></ele><time>2014-5-14T0:14:49Z</time></trkpt>
<trkpt lat="20090426" lon="090914"><ele></ele><time>2014-5-14T0:14:52Z</time></trkpt>
<trkpt lat="20090426" lon="090916"><ele></ele><time>2014-5-14T0:14:55Z</time></trkpt>
<trkpt lat="20090426" lon="090920"><ele></ele><time>2014-5-14T0:14:58Z</time></trkpt>
<trkpt lat="20090426" lon="090922"><ele></ele><time>2014-5-14T0:15:1Z</time></trkpt>
<trkpt lat="20090426" lon="090926"><ele></ele><time>2014-5-14T0:15:4Z</time></trkpt>
<trkpt lat="20090426" lon="090930"><ele></ele><time>2014-5-14T0:15:7Z</time></trkpt>
<trkpt lat="20090426" lon="090936"><ele></ele><time>2014-5-14T0:15:10Z</time></trkpt>
<trkpt lat="20090426" lon="090940"><ele></ele><time>2014-5-14T0:15:13Z</time></trkpt>
<trkpt lat="20090426" lon="090942"><ele></ele><time>2014-5-14T0:15:16Z</time></trkpt>
<trkpt lat="20090426" lon="090945"><ele></ele><time>2014-5-14T0:15:19Z</time></trkpt>
<trkpt lat="20090426" lon="090947"><ele></ele><time>2014-5-14T0:15:22Z</time></trkpt>
<trkpt lat="20090426" lon="090956"><ele></ele><time>2014-5-14T0:15:25Z</time></trkpt>
<trkpt lat="20090426" lon="091003"><ele></ele><time>2014-5-14T0:15:28Z</time></trkpt>
<trkpt lat="20090426" lon="091010"><ele></ele><time>2014-5-14T0:15:31Z</time></trkpt>
<trkpt lat="20090426" lon="091014"><ele></ele><time>2014-5-14T0:15:34Z</time></trkpt>
<trkpt lat="20090426" lon="091020"><ele></ele><time>2014-5-14T0:15:37Z</time></trkpt>
<trkpt lat="20090426" lon="091025"><ele></ele><time>2014-5-14T0:15:40Z</time></trkpt>
<trkpt lat="20090426" lon="091032"><ele></ele><time>2014-5-14T0:15:43Z</time></trkpt>
<trkpt lat="20090426" lon="091038"><ele></ele><time>2014-5-14T0:15:46Z</time></trkpt>
<trkpt lat="20090426" lon="091044"><ele></ele><time>2014-5-14T0:15:49Z</time></trkpt>
<trkpt lat="20090426" lon="091046"><ele></ele><time>2014-5-14T0:15:52Z</time></trkpt>
<trkpt lat="20090426" lon="091059"><ele></ele><time>2014-5-14T0:15:55Z</time></trkpt>
<trkpt lat="20090426" lon="091109"><ele></ele><time>2014-5-14T0:15:58Z</time></trkpt>
<trkpt lat="20090426" lon="091119"><ele></ele><time>2014-5-14T0:16:1Z</time></trkpt>
<trkpt lat="20090426" lon="091126"><ele></ele><time>2014-5-14T0:16:4Z</time></trkpt>
<trkpt lat="20090426" lon="091128"><ele></ele><time>2014-5-14T0:16:7Z</time></trkpt>
<trkpt lat="20090426" lon="091132"><ele></ele><time>2014-5-14T0:16:10Z</time></trkpt>
<trkpt lat="20090426" lon="091138"><ele></ele><time>2014-5-14T0:16:13Z</time></trkpt>
<trkpt lat="20090426" lon="091140"><ele></ele><time>2014-5-14T0:16:16Z</time></trkpt>
<trkpt lat="20090426" lon="091144"><ele></ele><time>2014-5-14T0:16:19Z</time></trkpt>
<trkpt lat="20090426" lon="091146"><ele></ele><time>2014-5-14T0:16:22Z</time></trkpt>
<trkpt lat="20090426" lon="091156"><ele></ele><time>2014-5-14T0:16:25Z</time></trkpt>
<trkpt lat="20090426" lon="091209"><ele></ele><time>2014-5-14T0:16:28Z</time></trkpt>
<trkpt lat="20090426" lon="091221"><ele></ele><time>2014-5-14T0:16:31Z</time></trkpt>
<trkpt lat="20090426" lon="091231"><ele></ele><time>2014-5-14T0:16:34Z</time></trkpt>
<trkpt lat="20090426" lon="091243"><ele></ele><time>2014-5-14T0:16:37Z</time></trkpt>
<trkpt lat="20090426" lon="091246"><ele></ele><time>2014-5-14T0:16:40Z</time></trkpt>
<trkpt lat="20090426" lon="091257"><ele></ele><time>2014-5-14T0:16:43Z</time></trkpt>
<trkpt lat="20090426" lon="091308"><ele></ele><time>2014-5-14T0:16:46Z</time></trkpt>
<trkpt lat="20090426" lon="091312"><ele></ele><time>2014-5-14T0:16:49Z</time></trkpt>
<trkpt lat="20090426" lon="091328"><ele></ele><time>2014-5-14T0:16:52Z</time></trkpt>
<trkpt lat="20090426" lon="091340"><ele></ele><time>2014-5-14T0:16:55Z</time></trkpt>
<trkpt lat="20090426" lon="091349"><ele></ele><time>2014-5-14T0:16:58Z</time></trkpt>
<trkpt lat="20090426" lon="091359"><ele></ele><time>2014-5-14T0:17:1Z</time></trkpt>
<trkpt lat="20090426" lon="091408"><ele></ele><time>2014-5-14T0:17:4Z</time></trkpt>
<trkpt lat="20090426" lon="091415"><ele></ele><time>2014-5-14T0:17:7Z</time></trkpt>
<trkpt lat="20090426" lon="091421"><ele></ele><time>2014-5-14T0:17:10Z</time></trkpt>
<trkpt lat="20090426" lon="091432"><ele></ele><time>2014-5-14T0:17:13Z</time></trkpt>
<trkpt lat="20090426" lon="091434"><ele></ele><time>2014-5-14T0:17:16Z</time></trkpt>
<trkpt lat="20090426" lon="091440"><ele></ele><time>2014-5-14T0:17:19Z</time></trkpt>
<trkpt lat="20090426" lon="091442"><ele></ele><time>2014-5-14T0:17:22Z</time></trkpt>
<trkpt lat="20090426" lon="091452"><ele></ele><time>2014-5-14T0:17:25Z</time></trkpt>
<trkpt lat="20090426" lon="091459"><ele></ele><time>2014-5-14T0:17:28Z</time></trkpt>
<trkpt lat="20090426" lon="091509"><ele></ele><time>2014-5-14T0:17:31Z</time></trkpt>
<trkpt lat="20090426" lon="091511"><ele></ele><time>2014-5-14T0:17:34Z</time></trkpt>
<trkpt lat="20090426" lon="091520"><ele></ele><time>2014-5-14T0:17:37Z</time></trkpt>
<trkpt lat="20090426" lon="091524"><ele></ele><time>2014-5-14T0:17:40Z</time></trkpt>
<trkpt lat="20090426" lon="091532"><ele></ele><time>2014-5-14T0:17:43Z</time></trkpt>
<trkpt lat="20090426" lon="091538"><ele></ele><time>2014-5-14T0:17:46Z</time></trkpt>
<trkpt lat="20090426" lon="091549"><ele></ele><time>2014-5-14T0:17:49Z</time></trkpt>
<trkpt lat="20090426" lon="091554"><ele></ele><time>2014-5-14T0:17:52Z</time></trkpt>
<trkpt lat="20090426" lon="091558"><ele></ele><time>2014-5-14T0:17:55Z</time></trkpt>
<trkpt lat="20090426" lon="091600"><ele></ele><time>2014-5-14T0:17:58Z</time></trkpt>
<trkpt lat="20090426" lon="091603"><ele></ele><time>2014-5-14T0:18:1Z</time></trkpt>
<trkpt lat="20090426" lon="091607"><ele></ele><time>2014-5-14T0:18:4Z</time></trkpt>
<trkpt lat="20090426" lon="091610"><ele></ele><time>2014-5-14T0:18:7Z</time></trkpt>
<trkpt lat="20090426" lon="091613"><ele></ele><time>2014-5-14T0:18:10Z</time></trkpt>
<trkpt lat="20090426" lon="091614"><ele></ele><time>2014-5-14T0:18:13Z</time></trkpt>
<trkpt lat="20090426" lon="091617"><ele></ele><time>2014-5-14T0:18:16Z</time></trkpt>
<trkpt lat="20090426" lon="091623"><ele></ele><time>2014-5-14T0:18:19Z</time></trkpt>
<trkpt lat="20090426" lon="091625"><ele></ele><time>2014-5-14T0:18:22Z</time></trkpt>
<trkpt lat="20090426" lon="091631"><ele></ele><time>2014-5-14T0:18:25Z</time></trkpt>
<trkpt lat="20090426" lon="091633"><ele></ele><time>2014-5-14T0:18:28Z</time></trkpt>
<trkpt lat="20090426" lon="091638"><ele></ele><time>2014-5-14T0:18:31Z</time></trkpt>
<trkpt lat="20090426" lon="091642"><ele></ele><time>2014-5-14T0:18:34Z</time></trkpt>
<trkpt lat="20090426" lon="091646"><ele></ele><time>2014-5-14T0:18:37Z</time></trkpt>
<trkpt lat="20090426" lon="091653"><ele></ele><time>2014-5-14T0:18:40Z</time></trkpt>
<trkpt lat="20090426" lon="091657"><ele></ele><time>2014-5-14T0:18:43Z</time></trkpt>
<trkpt lat="20090426" lon="091702"><ele></ele><time>2014-5-14T0:18:46Z</time></trkpt>
<trkpt lat="20090426" lon="091706"><ele></ele><time>2014-5-14T0:18:49Z</time></trkpt>
<trkpt lat="20090426" lon="091712"><ele></ele><time>2014-5-14T0:18:52Z</time></trkpt>
<trkpt lat="20090426" lon="091713"><ele></ele><time>2014-5-14T0:18:55Z</time></trkpt>
<trkpt lat="20090426" lon="091726"><ele></ele><time>2014-5-14T0:18:58Z</time></trkpt>
<trkpt lat="20090426" lon="091736"><ele></ele><time>2014-5-14T0:19:1Z</time></trkpt>
<trkpt lat="20090426" lon="091741"><ele></ele><time>2014-5-14T0:19:4Z</time></trkpt>
<trkpt lat="20090426" lon="091752"><ele></ele><time>2014-5-14T0:19:7Z</time></trkpt>
<trkpt lat="20090426" lon="091757"><ele></ele><time>2014-5-14T0:19:10Z</time></trkpt>
<trkpt lat="20090426" lon="091802"><ele></ele><time>2014-5-14T0:19:13Z</time></trkpt>
<trkpt lat="20090426" lon="091806"><ele></ele><time>2014-5-14T0:19:16Z</time></trkpt>
<trkpt lat="20090426" lon="091817"><ele></ele><time>2014-5-14T0:19:19Z</time></trkpt>
<trkpt lat="20090426" lon="091828"><ele></ele><time>2014-5-14T0:19:22Z</time></trkpt>
<trkpt lat="20090426" lon="091832"><ele></ele><time>2014-5-14T0:19:25Z</time></trkpt>
<trkpt lat="20090426" lon="091838"><ele></ele><time>2014-5-14T0:19:28Z</time></trkpt>
<trkpt lat="20090426" lon="091844"><ele></ele><time>2014-5-14T0:19:31Z</time></trkpt>
<trkpt lat="20090426" lon="091849"><ele></ele><time>2014-5-14T0:19:34Z</time></trkpt>
<trkpt lat="20090426" lon="091858"><ele></ele><time>2014-5-14T0:19:37Z</time></trkpt>
<trkpt lat="20090426" lon="091918"><ele></ele><time>2014-5-14T0:19:40Z</time></trkpt>
<trkpt lat="20090426" lon="091934"><ele></ele><time>2014-5-14T0:19:43Z</time></trkpt>
<trkpt lat="20090426" lon="091941"><ele></ele><time>2014-5-14T0:19:46Z</time></trkpt>
<trkpt lat="20090426" lon="091956"><ele></ele><time>2014-5-14T0:19:49Z</time></trkpt>
<trkpt lat="20090426" lon="092002"><ele></ele><time>2014-5-14T0:19:52Z</time></trkpt>
<trkpt lat="20090426" lon="092010"><ele></ele><time>2014-5-14T0:19:55Z</time></trkpt>
<trkpt lat="20090426" lon="092020"><ele></ele><time>2014-5-14T0:19:58Z</time></trkpt>
<trkpt lat="20090426" lon="092033"><ele></ele><time>2014-5-14T0:20:1Z</time></trkpt>
<trkpt lat="20090426" lon="092045"><ele></ele><time>2014-5-14T0:20:4Z</time></trkpt>
<trkpt lat="20090426" lon="092058"><ele></ele><time>2014-5-14T0:20:7Z</time></trkpt>
<trkpt lat="20090426" lon="092110"><ele></ele><time>2014-5-14T0:20:10Z</time></trkpt>
<trkpt lat="20090426" lon="092121"><ele></ele><time>2014-5-14T0:20:13Z</time></trkpt>
<trkpt lat="20090426" lon="092124"><ele></ele><time>2014-5-14T0:20:16Z</time></trkpt>
<trkpt lat="20090426" lon="092130"><ele></ele><time>2014-5-14T0:20:19Z</time></trkpt>
<trkpt lat="20090426" lon="092135"><ele></ele><time>2014-5-14T0:20:22Z</time></trkpt>
<trkpt lat="20090426" lon="092140"><ele></ele><time>2014-5-14T0:20:25Z</time></trkpt>
<trkpt lat="20090426" lon="092142"><ele></ele><time>2014-5-14T0:20:28Z</time></trkpt>
<trkpt lat="20090426" lon="092145"><ele></ele><time>2014-5-14T0:20:31Z</time></trkpt>
<trkpt lat="20090426" lon="092151"><ele></ele><time>2014-5-14T0:20:34Z</time></trkpt>
<trkpt lat="20090426" lon="092159"><ele></ele><time>2014-5-14T0:20:37Z</time></trkpt>
<trkpt lat="20090426" lon="092203"><ele></ele><time>2014-5-14T0:20:40Z</time></trkpt>
<trkpt lat="20090426" lon="092218"><ele></ele><time>2014-5-14T0:20:43Z</time></trkpt>
<trkpt lat="20090426" lon="092219"><ele></ele><time>2014-5-14T0:20:46Z</time></trkpt>
<trkpt lat="20090426" lon="092227"><ele></ele><time>2014-5-14T0:20:49Z</time></trkpt>
<trkpt lat="20090426" lon="092238"><ele></ele><time>2014-5-14T0:20:52Z</time></trkpt>
<trkpt lat="20090426" lon="092243"><ele></ele><time>2014-5-14T0:20:55Z</time></trkpt>
<trkpt lat="20090426" lon="092301"><ele></ele><time>2014-5-14T0:20:58Z</time></trkpt>
<trkpt lat="20090426" lon="092307"><ele></ele><time>2014-5-14T0:21:1Z</time></trkpt>
<trkpt lat="20090426" lon="092311"><ele></ele><time>2014-5-14T0:21:4Z</time></trkpt>
<trkpt lat="20090426" lon="092328"><ele></ele><time>2014-5-14T0:21:7Z</time></trkpt>
<trkpt lat="20090426" lon="092331"><ele></ele><time>2014-5-14T0:21:10Z</time></trkpt>
<trkpt lat="20090426" lon="092337"><ele></ele><time>2014-5-14T0:21:13Z</time></trkpt>
<trkpt lat="20090426" lon="092339"><ele></ele><time>2014-5-14T0:21:16Z</time></trkpt>
<trkpt lat="20090426" lon="092346"><ele></ele><time>2014-5-14T0:21:19Z</time></trkpt>
<trkpt lat="20090426" lon="092406"><ele></ele><time>2014-5-14T0:21:22Z</time></trkpt>
<trkpt lat="20090426" lon="092422"><ele></ele><time>2014-5-14T0:21:25Z</time></trkpt>
<trkpt lat="20090426" lon="092437"><ele></ele><time>2014-5-14T0:21:28Z</time></trkpt>
<trkpt lat="20090426" lon="092445"><ele></ele><time>2014-5-14T0:21:31Z</time></trkpt>
<trkpt lat="20090426" lon="092452"><ele></ele><time>2014-5-14T0:21:34Z</time></trkpt>
<trkpt lat="20090426" lon="092457"><ele></ele><time>2014-5-14T0:21:37Z</time></trkpt>
<trkpt lat="20090426" lon="092501"><ele></ele><time>2014-5-14T0:21:40Z</time></trkpt>
<trkpt lat="20090426" lon="092503"><ele></ele><time>2014-5-14T0:21:43Z</time></trkpt>
<trkpt lat="20090426" lon="092506"><ele></ele><time>2014-5-14T0:21:46Z</time></trkpt>
<trkpt lat="20090426" lon="092519"><ele></ele><time>2014-5-14T0:21:49Z</time></trkpt>
<trkpt lat="20090426" lon="092530"><ele></ele><time>2014-5-14T0:21:52Z</time></trkpt>
<trkpt lat="20090426" lon="092547"><ele></ele><time>2014-5-14T0:21:55Z</time></trkpt>
<trkpt lat="20090426" lon="092601"><ele></ele><time>2014-5-14T0:21:58Z</time></trkpt>
<trkpt lat="20090426" lon="092615"><ele></ele><time>2014-5-14T0:22:1Z</time></trkpt>
<trkpt lat="20090426" lon="092630"><ele></ele><time>2014-5-14T0:22:4Z</time></trkpt>
<trkpt lat="20090426" lon="092643"><ele></ele><time>2014-5-14T0:22:7Z</time></trkpt>
<trkpt lat="20090426" lon="092706"><ele></ele><time>2014-5-14T0:22:10Z</time></trkpt>
<trkpt lat="20090426" lon="092709"><ele></ele><time>2014-5-14T0:22:13Z</time></trkpt>
<trkpt lat="20090426" lon="092714"><ele></ele><time>2014-5-14T0:22:16Z</time></trkpt>
<trkpt lat="20090426" lon="092733"><ele></ele><time>2014-5-14T0:22:19Z</time></trkpt>
<trkpt lat="20090426" lon="092748"><ele></ele><time>2014-5-14T0:22:22Z</time></trkpt>
<trkpt lat="20090426" lon="092752"><ele></ele><time>2014-5-14T0:22:25Z</time></trkpt>
<trkpt lat="20090426" lon="092756"><ele></ele><time>2014-5-14T0:22:28Z</time></trkpt>
<trkpt lat="20090426" lon="092800"><ele></ele><time>2014-5-14T0:22:31Z</time></trkpt>
<trkpt lat="20090426" lon="092805"><ele></ele><time>2014-5-14T0:22:34Z</time></trkpt>
<trkpt lat="20090426" lon="092808"><ele></ele><time>2014-5-14T0:22:37Z</time></trkpt>
<trkpt lat="20090426" lon="092812"><ele></ele><time>2014-5-14T0:22:40Z</time></trkpt>
<trkpt lat="20090426" lon="092815"><ele></ele><time>2014-5-14T0:22:43Z</time></trkpt>
<trkpt lat="20090426" lon="092823"><ele></ele><time>2014-5-14T0:22:46Z</time></trkpt>
<trkpt lat="20090426" lon="092834"><ele></ele><time>2014-5-14T0:22:49Z</time></trkpt>
<trkpt lat="20090426" lon="092841"><ele></ele><time>2014-5-14T0:22:52Z</time></trkpt>
<trkpt lat="20090426" lon="092854"><ele></ele><time>2014-5-14T0:22:55Z</time></trkpt>
<trkpt lat="20090426" lon="092903"><ele></ele><time>2014-5-14T0:22:58Z</time></trkpt>
<trkpt lat="20090426" lon="092907"><ele></ele><time>2014-5-14T0:23:1Z</time></trkpt>
<trkpt lat="20090426" lon="092913"><ele></ele><time>2014-5-14T0:23:4Z</time></trkpt>
<trkpt lat="20090426" lon="092924"><ele></ele><time>2014-5-14T0:23:7Z</time></trkpt>
<trkpt lat="20090426" lon="092930"><ele></ele><time>2014-5-14T0:23:10Z</time></trkpt>
<trkpt lat="20090426" lon="092937"><ele></ele><time>2014-5-14T0:23:13Z</time></trkpt>
<trkpt lat="20090426" lon="092946"><ele></ele><time>2014-5-14T0:23:16Z</time></trkpt>
<trkpt lat="20090426" lon="092955"><ele></ele><time>2014-5-14T0:23:19Z</time></trkpt>
<trkpt lat="20090426" lon="093004"><ele></ele><time>2014-5-14T0:23:22Z</time></trkpt>
<trkpt lat="20090426" lon="093013"><ele></ele><time>2014-5-14T0:23:25Z</time></trkpt>
<trkpt lat="20090426" lon="093022"><ele></ele><time>2014-5-14T0:23:28Z</time></trkpt>
<trkpt lat="20090426" lon="093030"><ele></ele><time>2014-5-14T0:23:31Z</time></trkpt>
<trkpt lat="20090426" lon="093039"><ele></ele><time>2014-5-14T0:23:34Z</time></trkpt>
<trkpt lat="20090426" lon="093048"><ele></ele><time>2014-5-14T0:23:37Z</time></trkpt>
<trkpt lat="20090426" lon="093056"><ele></ele><time>2014-5-14T0:23:40Z</time></trkpt>
<trkpt lat="20090426" lon="093104"><ele></ele><time>2014-5-14T0:23:43Z</time></trkpt>
<trkpt lat="20090426" lon="093112"><ele></ele><time>2014-5-14T0:23:46Z</time></trkpt>
<trkpt lat="20090426" lon="093119"><ele></ele><time>2014-5-14T0:23:49Z</time></trkpt>
<trkpt lat="20090426" lon="093127"><ele></ele><time>2014-5-14T0:23:52Z</time></trkpt>
<trkpt lat="20090426" lon="093135"><ele></ele><time>2014-5-14T0:23:55Z</time></trkpt>
<trkpt lat="20090426" lon="093139"><ele></ele><time>2014-5-14T0:23:58Z</time></trkpt>
<trkpt lat="20090426" lon="093148"><ele></ele><time>2014-5-14T0:24:1Z</time></trkpt>
<trkpt lat="20090426" lon="093156"><ele></ele><time>2014-5-14T0:24:4Z</time></trkpt>
<trkpt lat="20090426" lon="093204"><ele></ele><time>2014-5-14T0:24:7Z</time></trkpt>
<trkpt lat="20090426" lon="093207"><ele></ele><time>2014-5-14T0:24:10Z</time></trkpt>
<trkpt lat="20090426" lon="093214"><ele></ele><time>2014-5-14T0:24:13Z</time></trkpt>
<trkpt lat="20090426" lon="093217"><ele></ele><time>2014-5-14T0:24:16Z</time></trkpt>
<trkpt lat="20090426" lon="093218"><ele></ele><time>2014-5-14T0:24:19Z</time></trkpt>
<trkpt lat="20090426" lon="093222"><ele></ele><time>2014-5-14T0:24:22Z</time></trkpt>
<trkpt lat="20090426" lon="093226"><ele></ele><time>2014-5-14T0:24:25Z</time></trkpt>
<trkpt lat="20090426" lon="093232"><ele></ele><time>2014-5-14T0:24:28Z</time></trkpt>
<trkpt lat="20090426" lon="093242"><ele></ele><time>2014-5-14T0:24:31Z</time></trkpt>
<trkpt lat="20090426" lon="093245"><ele></ele><time>2014-5-14T0:24:34Z</time></trkpt>
<trkpt lat="20090426" lon="093252"><ele></ele><time>2014-5-14T0:24:37Z</time></trkpt>
<trkpt lat="20090426" lon="093254"><ele></ele><time>2014-5-14T0:24:40Z</time></trkpt>
<trkpt lat="20090426" lon="093258"><ele></ele><time>2014-5-14T0:24:43Z</time></trkpt>
<trkpt lat="20090426" lon="093302"><ele></ele><time>2014-5-14T0:24:46Z</time></trkpt>
<trkpt lat="20090426" lon="093311"><ele></ele><time>2014-5-14T0:24:49Z</time></trkpt>
<trkpt lat="20090426" lon="093319"><ele></ele><time>2014-5-14T0:24:52Z</time></trkpt>
<trkpt lat="20090426" lon="093321"><ele></ele><time>2014-5-14T0:24:55Z</time></trkpt>
<trkpt lat="20090426" lon="093324"><ele></ele><time>2014-5-14T0:24:58Z</time></trkpt>
<trkpt lat="20090426" lon="093325"><ele></ele><time>2014-5-14T0:25:1Z</time></trkpt>
<trkpt lat="20090426" lon="093327"><ele></ele><time>2014-5-14T0:25:4Z</time></trkpt>
<trkpt lat="20090426" lon="093334"><ele></ele><time>2014-5-14T0:25:7Z</time></trkpt>
<trkpt lat="20090426" lon="093339"><ele></ele><time>2014-5-14T0:25:10Z</time></trkpt>
<trkpt lat="20090426" lon="093344"><ele></ele><time>2014-5-14T0:25:13Z</time></trkpt>
<trkpt lat="20090426" lon="093347"><ele></ele><time>2014-5-14T0:25:16Z</time></trkpt>
<trkpt lat="20090426" lon="093350"><ele></ele><time>2014-5-14T0:25:19Z</time></trkpt>
<trkpt lat="20090426" lon="093352"><ele></ele><time>2014-5-14T0:25:22Z</time></trkpt>
<trkpt lat="20090426" lon="093354"><ele></ele><time>2014-5-14T0:25:25Z</time></trkpt>
<trkpt lat="20090426" lon="093357"><ele></ele><time>2014-5-14T0:25:28Z</time></trkpt>
<trkpt lat="20090426" lon="093401"><ele></ele><time>2014-5-14T0:25:31Z</time></trkpt>
<trkpt lat="20090426" lon="093408"><ele></ele><time>2014-5-14T0:25:34Z</time></trkpt>
<trkpt lat="20090426" lon="093413"><ele></ele><time>2014-5-14T0:25:37Z</time></trkpt>
<trkpt lat="20090426" lon="093415"><ele></ele><time>2014-5-14T0:25:40Z</time></trkpt>
<trkpt lat="20090426" lon="093420"><ele></ele><time>2014-5-14T0:25:43Z</time></trkpt>
<trkpt lat="20090426" lon="093425"><ele></ele><time>2014-5-14T0:25:46Z</time></trkpt>
<trkpt lat="20090426" lon="093427"><ele></ele><time>2014-5-14T0:25:49Z</time></trkpt>
<trkpt lat="20090426" lon="093432"><ele></ele><time>2014-5-14T0:25:52Z</time></trkpt>
<trkpt lat="20090426" lon="093435"><ele></ele><time>2014-5-14T0:25:55Z</time></trkpt>
<trkpt lat="20090426" lon="093441"><ele></ele><time>2014-5-14T0:25:58Z</time></trkpt>
<trkpt lat="20090426" lon="093444"><ele></ele><time>2014-5-14T0:26:1Z</time></trkpt>
<trkpt lat="20090426" lon="093449"><ele></ele><time>2014-5-14T0:26:4Z</time></trkpt>
<trkpt lat="20090426" lon="093453"><ele></ele><time>2014-5-14T0:26:7Z</time></trkpt>
<trkpt lat="20090426" lon="093459"><ele></ele><time>2014-5-14T0:26:10Z</time></trkpt>
<trkpt lat="20090426" lon="093503"><ele></ele><time>2014-5-14T0:26:13Z</time></trkpt>
<trkpt lat="20090426" lon="093510"><ele></ele><time>2014-5-14T0:26:16Z</time></trkpt>
<trkpt lat="20090426" lon="093516"><ele></ele><time>2014-5-14T0:26:19Z</time></trkpt>
<trkpt lat="20090426" lon="093517"><ele></ele><time>2014-5-14T0:26:22Z</time></trkpt>
<trkpt lat="20090426" lon="093519"><ele></ele><time>2014-5-14T0:26:25Z</time></trkpt>
<trkpt lat="20090426" lon="093528"><ele></ele><time>2014-5-14T0:26:28Z</time></trkpt>
<trkpt lat="20090426" lon="093537"><ele></ele><time>2014-5-14T0:26:31Z</time></trkpt>
<trkpt lat="20090426" lon="093548"><ele></ele><time>2014-5-14T0:26:34Z</time></trkpt>
<trkpt lat="20090426" lon="093556"><ele></ele><time>2014-5-14T0:26:37Z</time></trkpt>
<trkpt lat="20090426" lon="093559"><ele></ele><time>2014-5-14T0:26:40Z</time></trkpt>
<trkpt lat="20090426" lon="093604"><ele></ele><time>2014-5-14T0:26:43Z</time></trkpt>
<trkpt lat="20090426" lon="093615"><ele></ele><time>2014-5-14T0:26:46Z</time></trkpt>
<trkpt lat="20090426" lon="093620"><ele></ele><time>2014-5-14T0:26:49Z</time></trkpt>
<trkpt lat="20090426" lon="093624"><ele></ele><time>2014-5-14T0:26:52Z</time></trkpt>
<trkpt lat="20090426" lon="093630"><ele></ele><time>2014-5-14T0:26:55Z</time></trkpt>
<trkpt lat="20090426" lon="093631"><ele></ele><time>2014-5-14T0:26:58Z</time></trkpt>
<trkpt lat="20090426" lon="093634"><ele></ele><time>2014-5-14T0:27:1Z</time></trkpt>
<trkpt lat="20090426" lon="093640"><ele></ele><time>2014-5-14T0:27:4Z</time></trkpt>
<trkpt lat="20090426" lon="093650"><ele></ele><time>2014-5-14T0:27:7Z</time></trkpt>
<trkpt lat="20090426" lon="093700"><ele></ele><time>2014-5-14T0:27:10Z</time></trkpt>
<trkpt lat="20090426" lon="093709"><ele></ele><time>2014-5-14T0:27:13Z</time></trkpt>
<trkpt lat="20090426" lon="093717"><ele></ele><time>2014-5-14T0:27:16Z</time></trkpt>
<trkpt lat="20090426" lon="093722"><ele></ele><time>2014-5-14T0:27:19Z</time></trkpt>
<trkpt lat="20090426" lon="093726"><ele></ele><time>2014-5-14T0:27:22Z</time></trkpt>
<trkpt lat="20090426" lon="093731"><ele></ele><time>2014-5-14T0:27:25Z</time></trkpt>
<trkpt lat="20090426" lon="093746"><ele></ele><time>2014-5-14T0:27:28Z</time></trkpt>
<trkpt lat="20090426" lon="093757"><ele></ele><time>2014-5-14T0:27:31Z</time></trkpt>
<trkpt lat="20090426" lon="093807"><ele></ele><time>2014-5-14T0:27:34Z</time></trkpt>
<trkpt lat="20090426" lon="093820"><ele></ele><time>2014-5-14T0:27:37Z</time></trkpt>
<trkpt lat="20090426" lon="093821"><ele></ele><time>2014-5-14T0:27:40Z</time></trkpt>
<trkpt lat="20090426" lon="093831"><ele></ele><time>2014-5-14T0:27:43Z</time></trkpt>
<trkpt lat="20090426" lon="093843"><ele></ele><time>2014-5-14T0:27:46Z</time></trkpt>
<trkpt lat="20090426" lon="093851"><ele></ele><time>2014-5-14T0:27:49Z</time></trkpt>
<trkpt lat="20090426" lon="093857"><ele></ele><time>2014-5-14T0:27:52Z</time></trkpt>
<trkpt lat="20090426" lon="093901"><ele></ele><time>2014-5-14T0:27:55Z</time></trkpt>
<trkpt lat="20090426" lon="093908"><ele></ele><time>2014-5-14T0:27:58Z</time></trkpt>
<trkpt lat="20090426" lon="093913"><ele></ele><time>2014-5-14T0:28:1Z</time></trkpt>
<trkpt lat="20090426" lon="093916"><ele></ele><time>2014-5-14T0:28:4Z</time></trkpt>
<trkpt lat="20090426" lon="093927"><ele></ele><time>2014-5-14T0:28:7Z</time></trkpt>
<trkpt lat="20090426" lon="093930"><ele></ele><time>2014-5-14T0:28:10Z</time></trkpt>
<trkpt lat="20090426" lon="093940"><ele></ele><time>2014-5-14T0:28:13Z</time></trkpt>
<trkpt lat="20090426" lon="093943"><ele></ele><time>2014-5-14T0:28:16Z</time></trkpt>
<trkpt lat="20090426" lon="093948"><ele></ele><time>2014-5-14T0:28:19Z</time></trkpt>
<trkpt lat="20090426" lon="093957"><ele></ele><time>2014-5-14T0:28:22Z</time></trkpt>
<trkpt lat="20090426" lon="094002"><ele></ele><time>2014-5-14T0:28:25Z</time></trkpt>
<trkpt lat="20090426" lon="094007"><ele></ele><time>2014-5-14T0:28:28Z</time></trkpt>
<trkpt lat="20090426" lon="094013"><ele></ele><time>2014-5-14T0:28:31Z</time></trkpt>
<trkpt lat="20090426" lon="094014"><ele></ele><time>2014-5-14T0:28:34Z</time></trkpt>
<trkpt lat="20090426" lon="094020"><ele></ele><time>2014-5-14T0:28:37Z</time></trkpt>
<trkpt lat="20090426" lon="094025"><ele></ele><time>2014-5-14T0:28:40Z</time></trkpt>
<trkpt lat="20090426" lon="094037"><ele></ele><time>2014-5-14T0:28:43Z</time></trkpt>
<trkpt lat="20090426" lon="094040"><ele></ele><time>2014-5-14T0:28:46Z</time></trkpt>
<trkpt lat="20090426" lon="094056"><ele></ele><time>2014-5-14T0:28:49Z</time></trkpt>
<trkpt lat="20090426" lon="094103"><ele></ele><time>2014-5-14T0:28:52Z</time></trkpt>
<trkpt lat="20090426" lon="094111"><ele></ele><time>2014-5-14T0:28:55Z</time></trkpt>
<trkpt lat="20090426" lon="094145"><ele></ele><time>2014-5-14T0:28:58Z</time></trkpt>
<trkpt lat="20090426" lon="094204"><ele></ele><time>2014-5-14T0:29:1Z</time></trkpt>
<trkpt lat="20090426" lon="094231"><ele></ele><time>2014-5-14T0:29:4Z</time></trkpt>
<trkpt lat="20090426" lon="094236"><ele></ele><time>2014-5-14T0:29:7Z</time></trkpt>
<trkpt lat="20090426" lon="094240"><ele></ele><time>2014-5-14T0:29:10Z</time></trkpt>
<trkpt lat="20090426" lon="094245"><ele></ele><time>2014-5-14T0:29:13Z</time></trkpt>
<trkpt lat="20090426" lon="094248"><ele></ele><time>2014-5-14T0:29:16Z</time></trkpt>
<trkpt lat="20090426" lon="094302"><ele></ele><time>2014-5-14T0:29:19Z</time></trkpt>
<trkpt lat="20090426" lon="094307"><ele></ele><time>2014-5-14T0:29:22Z</time></trkpt>
<trkpt lat="20090426" lon="094308"><ele></ele><time>2014-5-14T0:29:25Z</time></trkpt>
<trkpt lat="20090426" lon="094316"><ele></ele><time>2014-5-14T0:29:28Z</time></trkpt>
<trkpt lat="20090426" lon="094320"><ele></ele><time>2014-5-14T0:29:31Z</time></trkpt>
<trkpt lat="20090426" lon="094322"><ele></ele><time>2014-5-14T0:29:34Z</time></trkpt>
<trkpt lat="20090426" lon="094326"><ele></ele><time>2014-5-14T0:29:37Z</time></trkpt>
<trkpt lat="20090426" lon="094336"><ele></ele><time>2014-5-14T0:29:40Z</time></trkpt>
<trkpt lat="20090426" lon="094341"><ele></ele><time>2014-5-14T0:29:43Z</time></trkpt>
<trkpt lat="20090426" lon="094353"><ele></ele><time>2014-5-14T0:29:46Z</time></trkpt>
<trkpt lat="20090426" lon="094413"><ele></ele><time>2014-5-14T0:29:49Z</time></trkpt>
<trkpt lat="20090426" lon="094456"><ele></ele><time>2014-5-14T0:29:52Z</time></trkpt>
<trkpt lat="20090426" lon="094507"><ele></ele><time>2014-5-14T0:29:55Z</time></trkpt>
<trkpt lat="20090426" lon="094520"><ele></ele><time>2014-5-14T0:29:58Z</time></trkpt>
<trkpt lat="20090426" lon="094527"><ele></ele><time>2014-5-14T0:30:1Z</time></trkpt>
<trkpt lat="20090426" lon="094531"><ele></ele><time>2014-5-14T0:30:4Z</time></trkpt>
<trkpt lat="20090426" lon="094534"><ele></ele><time>2014-5-14T0:30:7Z</time></trkpt>
<trkpt lat="20090426" lon="094546"><ele></ele><time>2014-5-14T0:30:10Z</time></trkpt>
<trkpt lat="20090426" lon="094554"><ele></ele><time>2014-5-14T0:30:13Z</time></trkpt>
<trkpt lat="20090426" lon="094604"><ele></ele><time>2014-5-14T0:30:16Z</time></trkpt>
<trkpt lat="20090426" lon="094609"><ele></ele><time>2014-5-14T0:30:19Z</time></trkpt>
<trkpt lat="20090426" lon="094612"><ele></ele><time>2014-5-14T0:30:22Z</time></trkpt>
<trkpt lat="20090426" lon="094622"><ele></ele><time>2014-5-14T0:30:25Z</time></trkpt>
<trkpt lat="20090426" lon="094627"><ele></ele><time>2014-5-14T0:30:28Z</time></trkpt>
<trkpt lat="20090426" lon="094635"><ele></ele><time>2014-5-14T0:30:31Z</time></trkpt>
<trkpt lat="20090426" lon="094648"><ele></ele><time>2014-5-14T0:30:34Z</time></trkpt>
<trkpt lat="20090426" lon="094652"><ele></ele><time>2014-5-14T0:30:37Z</time></trkpt>
<trkpt lat="20090426" lon="094707"><ele></ele><time>2014-5-14T0:30:40Z</time></trkpt>
<trkpt lat="20090426" lon="094713"><ele></ele><time>2014-5-14T0:30:43Z</time></trkpt>
<trkpt lat="20090426" lon="094725"><ele></ele><time>2014-5-14T0:30:46Z</time></trkpt>
<trkpt lat="20090426" lon="094736"><ele></ele><time>2014-5-14T0:30:49Z</time></trkpt>
<trkpt lat="20090426" lon="094744"><ele></ele><time>2014-5-14T0:30:52Z</time></trkpt>
<trkpt lat="20090426" lon="094749"><ele></ele><time>2014-5-14T0:30:55Z</time></trkpt>
<trkpt lat="20090426" lon="094751"><ele></ele><time>2014-5-14T0:30:58Z</time></trkpt>
<trkpt lat="20090426" lon="094809"><ele></ele><time>2014-5-14T0:31:1Z</time></trkpt>
<trkpt lat="20090426" lon="094815"><ele></ele><time>2014-5-14T0:31:4Z</time></trkpt>
<trkpt lat="20090426" lon="094825"><ele></ele><time>2014-5-14T0:31:7Z</time></trkpt>
<trkpt lat="20090426" lon="094835"><ele></ele><time>2014-5-14T0:31:10Z</time></trkpt>
<trkpt lat="20090426" lon="094848"><ele></ele><time>2014-5-14T0:31:13Z</time></trkpt>
<trkpt lat="20090426" lon="094854"><ele></ele><time>2014-5-14T0:31:16Z</time></trkpt>
<trkpt lat="20090426" lon="094918"><ele></ele><time>2014-5-14T0:31:19Z</time></trkpt>
<trkpt lat="20090426" lon="094920"><ele></ele><time>2014-5-14T0:31:22Z</time></trkpt>
<trkpt lat="20090426" lon="094925"><ele></ele><time>2014-5-14T0:31:25Z</time></trkpt>
<trkpt lat="20090426" lon="094933"><ele></ele><time>2014-5-14T0:31:28Z</time></trkpt>
<trkpt lat="20090426" lon="094940"><ele></ele><time>2014-5-14T0:31:31Z</time></trkpt>
<trkpt lat="20090426" lon="094948"><ele></ele><time>2014-5-14T0:31:34Z</time></trkpt>
<trkpt lat="20090426" lon="094953"><ele></ele><time>2014-5-14T0:31:37Z</time></trkpt>
<trkpt lat="20090426" lon="094958"><ele></ele><time>2014-5-14T0:31:40Z</time></trkpt>
<trkpt lat="20090426" lon="095003"><ele></ele><time>2014-5-14T0:31:43Z</time></trkpt>
<trkpt lat="20090426" lon="095011"><ele></ele><time>2014-5-14T0:31:46Z</time></trkpt>
<trkpt lat="20090426" lon="095014"><ele></ele><time>2014-5-14T0:31:49Z</time></trkpt>
<trkpt lat="20090426" lon="095017"><ele></ele><time>2014-5-14T0:31:52Z</time></trkpt>
<trkpt lat="20090426" lon="095019"><ele></ele><time>2014-5-14T0:31:55Z</time></trkpt>
<trkpt lat="20090426" lon="095024"><ele></ele><time>2014-5-14T0:31:58Z</time></trkpt>
<trkpt lat="20090426" lon="095028"><ele></ele><time>2014-5-14T0:32:1Z</time></trkpt>
<trkpt lat="20090426" lon="095037"><ele></ele><time>2014-5-14T0:32:4Z</time></trkpt>
<trkpt lat="20090426" lon="095042"><ele></ele><time>2014-5-14T0:32:7Z</time></trkpt>
<trkpt lat="20090426" lon="095057"><ele></ele><time>2014-5-14T0:32:10Z</time></trkpt>
<trkpt lat="20090426" lon="095108"><ele></ele><time>2014-5-14T0:32:13Z</time></trkpt>
<trkpt lat="20090426" lon="095118"><ele></ele><time>2014-5-14T0:32:16Z</time></trkpt>
<trkpt lat="20090426" lon="095128"><ele></ele><time>2014-5-14T0:32:19Z</time></trkpt>
<trkpt lat="20090426" lon="095133"><ele></ele><time>2014-5-14T0:32:22Z</time></trkpt>
<trkpt lat="20090426" lon="095139"><ele></ele><time>2014-5-14T0:32:25Z</time></trkpt>
<trkpt lat="20090426" lon="095140"><ele></ele><time>2014-5-14T0:32:28Z</time></trkpt>
<trkpt lat="20090426" lon="095152"><ele></ele><time>2014-5-14T0:32:31Z</time></trkpt>
<trkpt lat="20090426" lon="095205"><ele></ele><time>2014-5-14T0:32:34Z</time></trkpt>
<trkpt lat="20090426" lon="095210"><ele></ele><time>2014-5-14T0:32:37Z</time></trkpt>
<trkpt lat="20090426" lon="095220"><ele></ele><time>2014-5-14T0:32:40Z</time></trkpt>
<trkpt lat="20090426" lon="095228"><ele></ele><time>2014-5-14T0:32:43Z</time></trkpt>
<trkpt lat="20090426" lon="095233"><ele></ele><time>2014-5-14T0:32:46Z</time></trkpt>
<trkpt lat="20090426" lon="095241"><ele></ele><time>2014-5-14T0:32:49Z</time></trkpt>
<trkpt lat="20090426" lon="095247"><ele></ele><time>2014-5-14T0:32:52Z</time></trkpt>
<trkpt lat="20090426" lon="095249"><ele></ele><time>2014-5-14T0:32:55Z</time></trkpt>
<trkpt lat="20090426" lon="095253"><ele></ele><time>2014-5-14T0:32:58Z</time></trkpt>
<trkpt lat="20090426" lon="095258"><ele></ele><time>2014-5-14T0:33:1Z</time></trkpt>
<trkpt lat="20090426" lon="095310"><ele></ele><time>2014-5-14T0:33:4Z</time></trkpt>
<trkpt lat="20090426" lon="095322"><ele></ele><time>2014-5-14T0:33:7Z</time></trkpt>
<trkpt lat="20090426" lon="095330"><ele></ele><time>2014-5-14T0:33:10Z</time></trkpt>
<trkpt lat="20090426" lon="095343"><ele></ele><time>2014-5-14T0:33:13Z</time></trkpt>
<trkpt lat="20090426" lon="095347"><ele></ele><time>2014-5-14T0:33:16Z</time></trkpt>
<trkpt lat="20090426" lon="095352"><ele></ele><time>2014-5-14T0:33:19Z</time></trkpt>
<trkpt lat="20090426" lon="095358"><ele></ele><time>2014-5-14T0:33:22Z</time></trkpt>
<trkpt lat="20090426" lon="095405"><ele></ele><time>2014-5-14T0:33:25Z</time></trkpt>
<trkpt lat="20090426" lon="095411"><ele></ele><time>2014-5-14T0:33:28Z</time></trkpt>
<trkpt lat="20090426" lon="095416"><ele></ele><time>2014-5-14T0:33:31Z</time></trkpt>
<trkpt lat="20090426" lon="095419"><ele></ele><time>2014-5-14T0:33:34Z</time></trkpt>
<trkpt lat="20090426" lon="095432"><ele></ele><time>2014-5-14T0:33:37Z</time></trkpt>
<trkpt lat="20090426" lon="095443"><ele></ele><time>2014-5-14T0:33:40Z</time></trkpt>
<trkpt lat="20090426" lon="095450"><ele></ele><time>2014-5-14T0:33:43Z</time></trkpt>
<trkpt lat="20090426" lon="095455"><ele></ele><time>2014-5-14T0:33:46Z</time></trkpt>
<trkpt lat="20090426" lon="095502"><ele></ele><time>2014-5-14T0:33:49Z</time></trkpt>
<trkpt lat="20090426" lon="095505"><ele></ele><time>2014-5-14T0:33:52Z</time></trkpt>
<trkpt lat="20090426" lon="095506"><ele></ele><time>2014-5-14T0:33:55Z</time></trkpt>
<trkpt lat="20090426" lon="095507"><ele></ele><time>2014-5-14T0:33:58Z</time></trkpt>
<trkpt lat="20090426" lon="095513"><ele></ele><time>2014-5-14T0:34:1Z</time></trkpt>
<trkpt lat="20090426" lon="095515"><ele></ele><time>2014-5-14T0:34:4Z</time></trkpt>
<trkpt lat="20090426" lon="095517"><ele></ele><time>2014-5-14T0:34:7Z</time></trkpt>
<trkpt lat="20090426" lon="095524"><ele></ele><time>2014-5-14T0:34:10Z</time></trkpt>
<trkpt lat="20090426" lon="095528"><ele></ele><time>2014-5-14T0:34:13Z</time></trkpt>
<trkpt lat="20090426" lon="095533"><ele></ele><time>2014-5-14T0:34:16Z</time></trkpt>
<trkpt lat="20090426" lon="095536"><ele></ele><time>2014-5-14T0:34:19Z</time></trkpt>
<trkpt lat="20090426" lon="095542"><ele></ele><time>2014-5-14T0:34:22Z</time></trkpt>
<trkpt lat="20090426" lon="095548"><ele></ele><time>2014-5-14T0:34:25Z</time></trkpt>
<trkpt lat="20090426" lon="095608"><ele></ele><time>2014-5-14T0:34:28Z</time></trkpt>
<trkpt lat="20090426" lon="095621"><ele></ele><time>2014-5-14T0:34:31Z</time></trkpt>
<trkpt lat="20090426" lon="095627"><ele></ele><time>2014-5-14T0:34:34Z</time></trkpt>
<trkpt lat="20090426" lon="095635"><ele></ele><time>2014-5-14T0:34:37Z</time></trkpt>
<trkpt lat="20090426" lon="095659"><ele></ele><time>2014-5-14T0:34:40Z</time></trkpt>
<trkpt lat="20090426" lon="095723"><ele></ele><time>2014-5-14T0:34:43Z</time></trkpt>
<trkpt lat="20090426" lon="095733"><ele></ele><time>2014-5-14T0:34:46Z</time></trkpt>
<trkpt lat="20090426" lon="095736"><ele></ele><time>2014-5-14T0:34:49Z</time></trkpt>
<trkpt lat="20090426" lon="095747"><ele></ele><time>2014-5-14T0:34:52Z</time></trkpt>
<trkpt lat="20090426" lon="095754"><ele></ele><time>2014-5-14T0:34:55Z</time></trkpt>
<trkpt lat="20090426" lon="095757"><ele></ele><time>2014-5-14T0:34:58Z</time></trkpt>
<trkpt lat="20090426" lon="095804"><ele></ele><time>2014-5-14T0:35:1Z</time></trkpt>
<trkpt lat="20090426" lon="095813"><ele></ele><time>2014-5-14T0:35:4Z</time></trkpt>
<trkpt lat="20090426" lon="095815"><ele></ele><time>2014-5-14T0:35:7Z</time></trkpt>
<trkpt lat="20090426" lon="095823"><ele></ele><time>2014-5-14T0:35:10Z</time></trkpt>
<trkpt lat="20090426" lon="095834"><ele></ele><time>2014-5-14T0:35:13Z</time></trkpt>
<trkpt lat="20090426" lon="095840"><ele></ele><time>2014-5-14T0:35:16Z</time></trkpt>
<trkpt lat="20090426" lon="095849"><ele></ele><time>2014-5-14T0:35:19Z</time></trkpt>
<trkpt lat="20090426" lon="095858"><ele></ele><time>2014-5-14T0:35:22Z</time></trkpt>
<trkpt lat="20090426" lon="095907"><ele></ele><time>2014-5-14T0:35:25Z</time></trkpt>
<trkpt lat="20090426" lon="095912"><ele></ele><time>2014-5-14T0:35:28Z</time></trkpt>
<trkpt lat="20090426" lon="095919"><ele></ele><time>2014-5-14T0:35:31Z</time></trkpt>
<trkpt lat="20090426" lon="095923"><ele></ele><time>2014-5-14T0:35:34Z</time></trkpt>
<trkpt lat="20090426" lon="095931"><ele></ele><time>2014-5-14T0:35:37Z</time></trkpt>
<trkpt lat="20090426" lon="095937"><ele></ele><time>2014-5-14T0:35:40Z</time></trkpt>
<trkpt lat="20090426" lon="095938"><ele></ele><time>2014-5-14T0:35:43Z</time></trkpt>
<trkpt lat="20090426" lon="095940"><ele></ele><time>2014-5-14T0:35:46Z</time></trkpt>
<trkpt lat="20090426" lon="095941"><ele></ele><time>2014-5-14T0:35:49Z</time></trkpt>
<trkpt lat="20090426" lon="095944"><ele></ele><time>2014-5-14T0:35:52Z</time></trkpt>
<trkpt lat="20090426" lon="095947"><ele></ele><time>2014-5-14T0:35:55Z</time></trkpt>
<trkpt lat="20090426" lon="095948"><ele></ele><time>2014-5-14T0:35:58Z</time></trkpt>
<trkpt lat="20090426" lon="095959"><ele></ele><time>2014-5-14T0:36:1Z</time></trkpt>
<trkpt lat="20090426" lon="100007"><ele></ele><time>2014-5-14T0:36:4Z</time></trkpt>
<trkpt lat="20090426" lon="100009"><ele></ele><time>2014-5-14T0:36:7Z</time></trkpt>
<trkpt lat="20090426" lon="100013"><ele></ele><time>2014-5-14T0:36:10Z</time></trkpt>
<trkpt lat="20090426" lon="100017"><ele></ele><time>2014-5-14T0:36:13Z</time></trkpt>
<trkpt lat="20090426" lon="100020"><ele></ele><time>2014-5-14T0:36:16Z</time></trkpt>
<trkpt lat="20090426" lon="100029"><ele></ele><time>2014-5-14T0:36:19Z</time></trkpt>
<trkpt lat="20090426" lon="100032"><ele></ele><time>2014-5-14T0:36:22Z</time></trkpt>
<trkpt lat="20090426" lon="100033"><ele></ele><time>2014-5-14T0:36:25Z</time></trkpt>
<trkpt lat="20090426" lon="100035"><ele></ele><time>2014-5-14T0:36:28Z</time></trkpt>
<trkpt lat="20090426" lon="100040"><ele></ele><time>2014-5-14T0:36:31Z</time></trkpt>
<trkpt lat="20090426" lon="100042"><ele></ele><time>2014-5-14T0:36:34Z</time></trkpt>
<trkpt lat="20090426" lon="100045"><ele></ele><time>2014-5-14T0:36:37Z</time></trkpt>
<trkpt lat="20090426" lon="100050"><ele></ele><time>2014-5-14T0:36:40Z</time></trkpt>
<trkpt lat="20090426" lon="100053"><ele></ele><time>2014-5-14T0:36:43Z</time></trkpt>
<trkpt lat="20090426" lon="100055"><ele></ele><time>2014-5-14T0:36:46Z</time></trkpt>
<trkpt lat="20090426" lon="100058"><ele></ele><time>2014-5-14T0:36:49Z</time></trkpt>
<trkpt lat="20090426" lon="100103"><ele></ele><time>2014-5-14T0:36:52Z</time></trkpt>
<trkpt lat="20090426" lon="100108"><ele></ele><time>2014-5-14T0:36:55Z</time></trkpt>
<trkpt lat="20090426" lon="100113"><ele></ele><time>2014-5-14T0:36:58Z</time></trkpt>
<trkpt lat="20090426" lon="100119"><ele></ele><time>2014-5-14T0:37:1Z</time></trkpt>
<trkpt lat="20090426" lon="100123"><ele></ele><time>2014-5-14T0:37:4Z</time></trkpt>
<trkpt lat="20090426" lon="100124"><ele></ele><time>2014-5-14T0:37:7Z</time></trkpt>
<trkpt lat="20090426" lon="100126"><ele></ele><time>2014-5-14T0:37:10Z</time></trkpt>
<trkpt lat="20090426" lon="100130"><ele></ele><time>2014-5-14T0:37:13Z</time></trkpt>
<trkpt lat="20090426" lon="100134"><ele></ele><time>2014-5-14T0:37:16Z</time></trkpt>
<trkpt lat="20090426" lon="100136"><ele></ele><time>2014-5-14T0:37:19Z</time></trkpt>
<trkpt lat="20090426" lon="100142"><ele></ele><time>2014-5-14T0:37:22Z</time></trkpt>
<trkpt lat="20090426" lon="100146"><ele></ele><time>2014-5-14T0:37:25Z</time></trkpt>
<trkpt lat="20090426" lon="100151"><ele></ele><time>2014-5-14T0:37:28Z</time></trkpt>
<trkpt lat="20090426" lon="100157"><ele></ele><time>2014-5-14T0:37:31Z</time></trkpt>
<trkpt lat="20090426" lon="100203"><ele></ele><time>2014-5-14T0:37:34Z</time></trkpt>
<trkpt lat="20090426" lon="100210"><ele></ele><time>2014-5-14T0:37:37Z</time></trkpt>
<trkpt lat="20090426" lon="100216"><ele></ele><time>2014-5-14T0:37:40Z</time></trkpt>
<trkpt lat="20090426" lon="100223"><ele></ele><time>2014-5-14T0:37:43Z</time></trkpt>
<trkpt lat="20090426" lon="100230"><ele></ele><time>2014-5-14T0:37:46Z</time></trkpt>
<trkpt lat="20090426" lon="100237"><ele></ele><time>2014-5-14T0:37:49Z</time></trkpt>
<trkpt lat="20090426" lon="100242"><ele></ele><time>2014-5-14T0:37:52Z</time></trkpt>
<trkpt lat="20090426" lon="100245"><ele></ele><time>2014-5-14T0:37:55Z</time></trkpt>
<trkpt lat="20090426" lon="100252"><ele></ele><time>2014-5-14T0:37:58Z</time></trkpt>
<trkpt lat="20090426" lon="100256"><ele></ele><time>2014-5-14T0:38:1Z</time></trkpt>
<trkpt lat="20090426" lon="100300"><ele></ele><time>2014-5-14T0:38:4Z</time></trkpt>
<trkpt lat="20090426" lon="100311"><ele></ele><time>2014-5-14T0:38:7Z</time></trkpt>
<trkpt lat="20090426" lon="100318"><ele></ele><time>2014-5-14T0:38:10Z</time></trkpt>
<trkpt lat="20090426" lon="100324"><ele></ele><time>2014-5-14T0:38:13Z</time></trkpt>
<trkpt lat="20090426" lon="100336"><ele></ele><time>2014-5-14T0:38:16Z</time></trkpt>
<trkpt lat="20090426" lon="100349"><ele></ele><time>2014-5-14T0:38:19Z</time></trkpt>
<trkpt lat="20090426" lon="100358"><ele></ele><time>2014-5-14T0:38:22Z</time></trkpt>
<trkpt lat="20090426" lon="100406"><ele></ele><time>2014-5-14T0:38:25Z</time></trkpt>
<trkpt lat="20090426" lon="100410"><ele></ele><time>2014-5-14T0:38:28Z</time></trkpt>
<trkpt lat="20090426" lon="100415"><ele></ele><time>2014-5-14T0:38:31Z</time></trkpt>
<trkpt lat="20090426" lon="100420"><ele></ele><time>2014-5-14T0:38:34Z</time></trkpt>
<trkpt lat="20090426" lon="100427"><ele></ele><time>2014-5-14T0:38:37Z</time></trkpt>
<trkpt lat="20090426" lon="100432"><ele></ele><time>2014-5-14T0:38:40Z</time></trkpt>
<trkpt lat="20090426" lon="100437"><ele></ele><time>2014-5-14T0:38:43Z</time></trkpt>
<trkpt lat="20090426" lon="100442"><ele></ele><time>2014-5-14T0:38:46Z</time></trkpt>
<trkpt lat="20090426" lon="100447"><ele></ele><time>2014-5-14T0:38:49Z</time></trkpt>
<trkpt lat="20090426" lon="100451"><ele></ele><time>2014-5-14T0:38:52Z</time></trkpt>
<trkpt lat="20090426" lon="100456"><ele></ele><time>2014-5-14T0:38:55Z</time></trkpt>
<trkpt lat="20090426" lon="100502"><ele></ele><time>2014-5-14T0:38:58Z</time></trkpt>
<trkpt lat="20090426" lon="100504"><ele></ele><time>2014-5-14T0:39:1Z</time></trkpt>
<trkpt lat="20090426" lon="100508"><ele></ele><time>2014-5-14T0:39:4Z</time></trkpt>
<trkpt lat="20090426" lon="100513"><ele></ele><time>2014-5-14T0:39:7Z</time></trkpt>
<trkpt lat="20090426" lon="100516"><ele></ele><time>2014-5-14T0:39:10Z</time></trkpt>
<trkpt lat="20090426" lon="100522"><ele></ele><time>2014-5-14T0:39:13Z</time></trkpt>
<trkpt lat="20090426" lon="100530"><ele></ele><time>2014-5-14T0:39:16Z</time></trkpt>
<trkpt lat="20090426" lon="100534"><ele></ele><time>2014-5-14T0:39:19Z</time></trkpt>
<trkpt lat="20090426" lon="100541"><ele></ele><time>2014-5-14T0:39:22Z</time></trkpt>
<trkpt lat="20090426" lon="100548"><ele></ele><time>2014-5-14T0:39:25Z</time></trkpt>
<trkpt lat="20090426" lon="100556"><ele></ele><time>2014-5-14T0:39:28Z</time></trkpt>
<trkpt lat="20090426" lon="100604"><ele></ele><time>2014-5-14T0:39:31Z</time></trkpt>
<trkpt lat="20090426" lon="100611"><ele></ele><time>2014-5-14T0:39:34Z</time></trkpt>
<trkpt lat="20090426" lon="100618"><ele></ele><time>2014-5-14T0:39:37Z</time></trkpt>
<trkpt lat="20090426" lon="100625"><ele></ele><time>2014-5-14T0:39:40Z</time></trkpt>
<trkpt lat="20090426" lon="100631"><ele></ele><time>2014-5-14T0:39:43Z</time></trkpt>
<trkpt lat="20090426" lon="100638"><ele></ele><time>2014-5-14T0:39:46Z</time></trkpt>
<trkpt lat="20090426" lon="100642"><ele></ele><time>2014-5-14T0:39:49Z</time></trkpt>
<trkpt lat="20090426" lon="100650"><ele></ele><time>2014-5-14T0:39:52Z</time></trkpt>
<trkpt lat="20090426" lon="100657"><ele></ele><time>2014-5-14T0:39:55Z</time></trkpt>
<trkpt lat="20090426" lon="100701"><ele></ele><time>2014-5-14T0:39:58Z</time></trkpt>
<trkpt lat="20090426" lon="100708"><ele></ele><time>2014-5-14T0:40:1Z</time></trkpt>
<trkpt lat="20090426" lon="100716"><ele></ele><time>2014-5-14T0:40:4Z</time></trkpt>
<trkpt lat="20090426" lon="100723"><ele></ele><time>2014-5-14T0:40:7Z</time></trkpt>
<trkpt lat="20090426" lon="100730"><ele></ele><time>2014-5-14T0:40:10Z</time></trkpt>
<trkpt lat="20090426" lon="100736"><ele></ele><time>2014-5-14T0:40:13Z</time></trkpt>
<trkpt lat="20090426" lon="100744"><ele></ele><time>2014-5-14T0:40:16Z</time></trkpt>
<trkpt lat="20090426" lon="100752"><ele></ele><time>2014-5-14T0:40:19Z</time></trkpt>
<trkpt lat="20090426" lon="100759"><ele></ele><time>2014-5-14T0:40:22Z</time></trkpt>
<trkpt lat="20090426" lon="100808"><ele></ele><time>2014-5-14T0:40:25Z</time></trkpt>
<trkpt lat="20090426" lon="100821"><ele></ele><time>2014-5-14T0:40:28Z</time></trkpt>
<trkpt lat="20090426" lon="100832"><ele></ele><time>2014-5-14T0:40:31Z</time></trkpt>
<trkpt lat="20090426" lon="100842"><ele></ele><time>2014-5-14T0:40:34Z</time></trkpt>
<trkpt lat="20090426" lon="100858"><ele></ele><time>2014-5-14T0:40:37Z</time></trkpt>
<trkpt lat="20090426" lon="100907"><ele></ele><time>2014-5-14T0:40:40Z</time></trkpt>
<trkpt lat="20090426" lon="100915"><ele></ele><time>2014-5-14T0:40:43Z</time></trkpt>
<trkpt lat="20090426" lon="100933"><ele></ele><time>2014-5-14T0:40:46Z</time></trkpt>
<trkpt lat="20090426" lon="100941"><ele></ele><time>2014-5-14T0:40:49Z</time></trkpt>
<trkpt lat="20090426" lon="100943"><ele></ele><time>2014-5-14T0:40:52Z</time></trkpt>
<trkpt lat="20090426" lon="100946"><ele></ele><time>2014-5-14T0:40:55Z</time></trkpt>
<trkpt lat="20090426" lon="100948"><ele></ele><time>2014-5-14T0:40:58Z</time></trkpt>
<trkpt lat="20090426" lon="100950"><ele></ele><time>2014-5-14T0:41:1Z</time></trkpt>
<trkpt lat="20090426" lon="100957"><ele></ele><time>2014-5-14T0:41:4Z</time></trkpt>
<trkpt lat="20090426" lon="101007"><ele></ele><time>2014-5-14T0:41:7Z</time></trkpt>
<trkpt lat="20090426" lon="101015"><ele></ele><time>2014-5-14T0:41:10Z</time></trkpt>
<trkpt lat="20090426" lon="101020"><ele></ele><time>2014-5-14T0:41:13Z</time></trkpt>
<trkpt lat="20090426" lon="101025"><ele></ele><time>2014-5-14T0:41:16Z</time></trkpt>
<trkpt lat="20090426" lon="101032"><ele></ele><time>2014-5-14T0:41:19Z</time></trkpt>
<trkpt lat="20090426" lon="101035"><ele></ele><time>2014-5-14T0:41:22Z</time></trkpt>
<trkpt lat="20090426" lon="101037"><ele></ele><time>2014-5-14T0:41:25Z</time></trkpt>
<trkpt lat="20090426" lon="101040"><ele></ele><time>2014-5-14T0:41:28Z</time></trkpt>
<trkpt lat="20090426" lon="101048"><ele></ele><time>2014-5-14T0:41:31Z</time></trkpt>
<trkpt lat="20090426" lon="101054"><ele></ele><time>2014-5-14T0:41:34Z</time></trkpt>
<trkpt lat="20090426" lon="101136"><ele></ele><time>2014-5-14T0:41:37Z</time></trkpt>
<trkpt lat="20090426" lon="101140"><ele></ele><time>2014-5-14T0:41:40Z</time></trkpt>
<trkpt lat="20090426" lon="101303"><ele></ele><time>2014-5-14T0:41:43Z</time></trkpt>
<trkpt lat="20090426" lon="101320"><ele></ele><time>2014-5-14T0:41:46Z</time></trkpt>
<trkpt lat="20090426" lon="101323"><ele></ele><time>2014-5-14T0:41:49Z</time></trkpt>
<trkpt lat="20090426" lon="101343"><ele></ele><time>2014-5-14T0:41:52Z</time></trkpt>
<trkpt lat="20090426" lon="101352"><ele></ele><time>2014-5-14T0:41:55Z</time></trkpt>
<trkpt lat="20090426" lon="101453"><ele></ele><time>2014-5-14T0:41:58Z</time></trkpt>
<trkpt lat="20090426" lon="101457"><ele></ele><time>2014-5-14T0:42:1Z</time></trkpt>
<trkpt lat="20090426" lon="101503"><ele></ele><time>2014-5-14T0:42:4Z</time></trkpt>
<trkpt lat="20090426" lon="101520"><ele></ele><time>2014-5-14T0:42:7Z</time></trkpt>
<trkpt lat="20090426" lon="101527"><ele></ele><time>2014-5-14T0:42:10Z</time></trkpt>
</trkseg></trk></gpx>